<?xml version="1.0" encoding="UTF-8" standalone="no" ?>
<gpx xmlns="http://www.topografix.com/GPX/1/1" xmlns:xsi="http://www.w3.org/2001/XMLSchema-instance" xsi:schemaLocation="http://www.topografix.com/GPX/1/1 http://www.topografix.com/GPX/1/1/gpx.xsd" version="1.1" creator="VisuGPX - https://www.visugpx.com">
  <metadata>
    <name>Dompierre-les-Ormes</name>
  </metadata>
  <trk>
    <name><![CDATA[Dompierre-les-Ormes]]></name>
    <trkseg>
      <trkpt lat="46.36508" lon="4.47312">
        <ele>430.047</ele>
        <time>2020-09-08T22:57:28Z</time>
      </trkpt>
      <trkpt lat="46.36379" lon="4.47428">
        <ele>443.029</ele>
        <time>2020-09-08T22:57:38Z</time>
      </trkpt>
      <trkpt lat="46.36365" lon="4.47449">
        <ele>443.021</ele>
        <time>2020-09-08T22:57:48Z</time>
      </trkpt>
      <trkpt lat="46.36357" lon="4.47474">
        <ele>444.008</ele>
        <time>2020-09-08T22:57:58Z</time>
      </trkpt>
      <trkpt lat="46.36287" lon="4.47459">
        <ele>445.079</ele>
        <time>2020-09-08T22:58:08Z</time>
      </trkpt>
      <trkpt lat="46.36121" lon="4.47433">
        <ele>446.09</ele>
        <time>2020-09-08T22:58:18Z</time>
      </trkpt>
      <trkpt lat="46.36208" lon="4.47707">
        <ele>444.077</ele>
        <time>2020-09-08T22:58:28Z</time>
      </trkpt>
      <trkpt lat="46.3624" lon="4.47874">
        <ele>443.083</ele>
        <time>2020-09-08T22:58:38Z</time>
      </trkpt>
      <trkpt lat="46.36238" lon="4.47881">
        <ele>443.051</ele>
        <time>2020-09-08T22:58:48Z</time>
      </trkpt>
      <trkpt lat="46.3624" lon="4.47887">
        <ele>442.061</ele>
        <time>2020-09-08T22:58:58Z</time>
      </trkpt>
      <trkpt lat="46.36242" lon="4.47888">
        <ele>442.097</ele>
        <time>2020-09-08T22:59:08Z</time>
      </trkpt>
      <trkpt lat="46.36235" lon="4.47914">
        <ele>443.069</ele>
        <time>2020-09-08T22:59:18Z</time>
      </trkpt>
      <trkpt lat="46.36228" lon="4.47932">
        <ele>443.057</ele>
        <time>2020-09-08T22:59:28Z</time>
      </trkpt>
      <trkpt lat="46.36211" lon="4.4797">
        <ele>443</ele>
        <time>2020-09-08T22:59:38Z</time>
      </trkpt>
      <trkpt lat="46.3611" lon="4.48169">
        <ele>445.02</ele>
        <time>2020-09-08T22:59:48Z</time>
      </trkpt>
      <trkpt lat="46.36065" lon="4.48261">
        <ele>443.008</ele>
        <time>2020-09-08T22:59:58Z</time>
      </trkpt>
      <trkpt lat="46.36059" lon="4.4828">
        <ele>444.05</ele>
        <time>2020-09-08T23:00:08Z</time>
      </trkpt>
      <trkpt lat="46.36054" lon="4.48298">
        <ele>443.011</ele>
        <time>2020-09-08T23:00:18Z</time>
      </trkpt>
      <trkpt lat="46.36057" lon="4.48326">
        <ele>442.088</ele>
        <time>2020-09-08T23:00:28Z</time>
      </trkpt>
      <trkpt lat="46.36025" lon="4.48351">
        <ele>441.084</ele>
        <time>2020-09-08T23:00:38Z</time>
      </trkpt>
      <trkpt lat="46.36004" lon="4.48371">
        <ele>442.072</ele>
        <time>2020-09-08T23:00:48Z</time>
      </trkpt>
      <trkpt lat="46.35994" lon="4.48387">
        <ele>442.062</ele>
        <time>2020-09-08T23:00:58Z</time>
      </trkpt>
      <trkpt lat="46.35936" lon="4.48498">
        <ele>434.058</ele>
        <time>2020-09-08T23:01:08Z</time>
      </trkpt>
      <trkpt lat="46.35888" lon="4.48541">
        <ele>433.04</ele>
        <time>2020-09-08T23:01:18Z</time>
      </trkpt>
      <trkpt lat="46.35866" lon="4.48569">
        <ele>431.025</ele>
        <time>2020-09-08T23:01:28Z</time>
      </trkpt>
      <trkpt lat="46.35849" lon="4.48606">
        <ele>424.026</ele>
        <time>2020-09-08T23:01:38Z</time>
      </trkpt>
      <trkpt lat="46.35811" lon="4.48721">
        <ele>420.008</ele>
        <time>2020-09-08T23:01:48Z</time>
      </trkpt>
      <trkpt lat="46.358" lon="4.48743">
        <ele>420.008</ele>
        <time>2020-09-08T23:01:58Z</time>
      </trkpt>
      <trkpt lat="46.35797" lon="4.48748">
        <ele>420.027</ele>
        <time>2020-09-08T23:02:08Z</time>
      </trkpt>
      <trkpt lat="46.3578" lon="4.48756">
        <ele>420.058</ele>
        <time>2020-09-08T23:02:18Z</time>
      </trkpt>
      <trkpt lat="46.35717" lon="4.48752">
        <ele>420.085</ele>
        <time>2020-09-08T23:02:28Z</time>
      </trkpt>
      <trkpt lat="46.35664" lon="4.48752">
        <ele>418.061</ele>
        <time>2020-09-08T23:02:38Z</time>
      </trkpt>
      <trkpt lat="46.35645" lon="4.48754">
        <ele>418.039</ele>
        <time>2020-09-08T23:02:48Z</time>
      </trkpt>
      <trkpt lat="46.35615" lon="4.48764">
        <ele>418.059</ele>
        <time>2020-09-08T23:02:58Z</time>
      </trkpt>
      <trkpt lat="46.35601" lon="4.4877">
        <ele>416.075</ele>
        <time>2020-09-08T23:03:08Z</time>
      </trkpt>
      <trkpt lat="46.35594" lon="4.48779">
        <ele>416.037</ele>
        <time>2020-09-08T23:03:18Z</time>
      </trkpt>
      <trkpt lat="46.35586" lon="4.48799">
        <ele>416.043</ele>
        <time>2020-09-08T23:03:28Z</time>
      </trkpt>
      <trkpt lat="46.35585" lon="4.4881">
        <ele>416.064</ele>
        <time>2020-09-08T23:03:38Z</time>
      </trkpt>
      <trkpt lat="46.35586" lon="4.48834">
        <ele>416.01</ele>
        <time>2020-09-08T23:03:48Z</time>
      </trkpt>
      <trkpt lat="46.35594" lon="4.48873">
        <ele>416.008</ele>
        <time>2020-09-08T23:03:58Z</time>
      </trkpt>
      <trkpt lat="46.35601" lon="4.48892">
        <ele>416.029</ele>
        <time>2020-09-08T23:04:08Z</time>
      </trkpt>
      <trkpt lat="46.3561" lon="4.4891">
        <ele>419.08</ele>
        <time>2020-09-08T23:04:18Z</time>
      </trkpt>
      <trkpt lat="46.35638" lon="4.48953">
        <ele>420.057</ele>
        <time>2020-09-08T23:04:28Z</time>
      </trkpt>
      <trkpt lat="46.35643" lon="4.48964">
        <ele>420.093</ele>
        <time>2020-09-08T23:04:38Z</time>
      </trkpt>
      <trkpt lat="46.35648" lon="4.48986">
        <ele>419.061</ele>
        <time>2020-09-08T23:04:48Z</time>
      </trkpt>
      <trkpt lat="46.35647" lon="4.49009">
        <ele>419.081</ele>
        <time>2020-09-08T23:04:58Z</time>
      </trkpt>
      <trkpt lat="46.35642" lon="4.49031">
        <ele>418.057</ele>
        <time>2020-09-08T23:05:08Z</time>
      </trkpt>
      <trkpt lat="46.35635" lon="4.49049">
        <ele>418.069</ele>
        <time>2020-09-08T23:05:18Z</time>
      </trkpt>
      <trkpt lat="46.35613" lon="4.49096">
        <ele>418.073</ele>
        <time>2020-09-08T23:05:28Z</time>
      </trkpt>
      <trkpt lat="46.35599" lon="4.49113">
        <ele>413.085</ele>
        <time>2020-09-08T23:05:38Z</time>
      </trkpt>
      <trkpt lat="46.3559" lon="4.49118">
        <ele>413.013</ele>
        <time>2020-09-08T23:05:48Z</time>
      </trkpt>
      <trkpt lat="46.3558" lon="4.49122">
        <ele>412.008</ele>
        <time>2020-09-08T23:05:58Z</time>
      </trkpt>
      <trkpt lat="46.35552" lon="4.49122">
        <ele>412.062</ele>
        <time>2020-09-08T23:06:08Z</time>
      </trkpt>
      <trkpt lat="46.35538" lon="4.4912">
        <ele>412.063</ele>
        <time>2020-09-08T23:06:18Z</time>
      </trkpt>
      <trkpt lat="46.35519" lon="4.49115">
        <ele>409.07</ele>
        <time>2020-09-08T23:06:28Z</time>
      </trkpt>
      <trkpt lat="46.35499" lon="4.49099">
        <ele>408.016</ele>
        <time>2020-09-08T23:06:38Z</time>
      </trkpt>
      <trkpt lat="46.3546" lon="4.49051">
        <ele>404.084</ele>
        <time>2020-09-08T23:06:48Z</time>
      </trkpt>
      <trkpt lat="46.35439" lon="4.4903">
        <ele>401.034</ele>
        <time>2020-09-08T23:06:58Z</time>
      </trkpt>
      <trkpt lat="46.35406" lon="4.49008">
        <ele>399.03</ele>
        <time>2020-09-08T23:07:08Z</time>
      </trkpt>
      <trkpt lat="46.3538" lon="4.49">
        <ele>398.012</ele>
        <time>2020-09-08T23:07:18Z</time>
      </trkpt>
      <trkpt lat="46.35372" lon="4.49002">
        <ele>398.036</ele>
        <time>2020-09-08T23:07:28Z</time>
      </trkpt>
      <trkpt lat="46.35359" lon="4.49014">
        <ele>398.017</ele>
        <time>2020-09-08T23:07:38Z</time>
      </trkpt>
      <trkpt lat="46.3535" lon="4.49038">
        <ele>394.018</ele>
        <time>2020-09-08T23:07:48Z</time>
      </trkpt>
      <trkpt lat="46.3533" lon="4.49115">
        <ele>399.008</ele>
        <time>2020-09-08T23:07:58Z</time>
      </trkpt>
      <trkpt lat="46.35323" lon="4.49131">
        <ele>399.088</ele>
        <time>2020-09-08T23:08:08Z</time>
      </trkpt>
      <trkpt lat="46.35314" lon="4.49144">
        <ele>398.049</ele>
        <time>2020-09-08T23:08:18Z</time>
      </trkpt>
      <trkpt lat="46.35306" lon="4.49153">
        <ele>398.096</ele>
        <time>2020-09-08T23:08:28Z</time>
      </trkpt>
      <trkpt lat="46.35275" lon="4.4918">
        <ele>398.082</ele>
        <time>2020-09-08T23:08:38Z</time>
      </trkpt>
      <trkpt lat="46.35263" lon="4.49199">
        <ele>390.05</ele>
        <time>2020-09-08T23:08:48Z</time>
      </trkpt>
      <trkpt lat="46.3526" lon="4.49211">
        <ele>390.04</ele>
        <time>2020-09-08T23:08:58Z</time>
      </trkpt>
      <trkpt lat="46.35259" lon="4.49224">
        <ele>390.016</ele>
        <time>2020-09-08T23:09:08Z</time>
      </trkpt>
      <trkpt lat="46.35261" lon="4.49237">
        <ele>390.038</ele>
        <time>2020-09-08T23:09:18Z</time>
      </trkpt>
      <trkpt lat="46.35265" lon="4.49249">
        <ele>392.034</ele>
        <time>2020-09-08T23:09:28Z</time>
      </trkpt>
      <trkpt lat="46.3528" lon="4.49274">
        <ele>400.055</ele>
        <time>2020-09-08T23:09:38Z</time>
      </trkpt>
      <trkpt lat="46.35285" lon="4.4929">
        <ele>401.01</ele>
        <time>2020-09-08T23:09:48Z</time>
      </trkpt>
      <trkpt lat="46.35286" lon="4.49299">
        <ele>401.008</ele>
        <time>2020-09-08T23:09:58Z</time>
      </trkpt>
      <trkpt lat="46.35281" lon="4.49326">
        <ele>400.028</ele>
        <time>2020-09-08T23:10:08Z</time>
      </trkpt>
      <trkpt lat="46.35276" lon="4.49338">
        <ele>400.069</ele>
        <time>2020-09-08T23:10:18Z</time>
      </trkpt>
      <trkpt lat="46.35219" lon="4.49442">
        <ele>392.076</ele>
        <time>2020-09-08T23:10:28Z</time>
      </trkpt>
      <trkpt lat="46.35188" lon="4.49513">
        <ele>385.092</ele>
        <time>2020-09-08T23:10:38Z</time>
      </trkpt>
      <trkpt lat="46.35167" lon="4.49551">
        <ele>385.08</ele>
        <time>2020-09-08T23:10:48Z</time>
      </trkpt>
      <trkpt lat="46.35158" lon="4.49564">
        <ele>384.08</ele>
        <time>2020-09-08T23:10:58Z</time>
      </trkpt>
      <trkpt lat="46.35149" lon="4.49574">
        <ele>384.076</ele>
        <time>2020-09-08T23:11:08Z</time>
      </trkpt>
      <trkpt lat="46.3514" lon="4.49579">
        <ele>386.088</ele>
        <time>2020-09-08T23:11:18Z</time>
      </trkpt>
      <trkpt lat="46.3513" lon="4.49579">
        <ele>385.028</ele>
        <time>2020-09-08T23:11:28Z</time>
      </trkpt>
      <trkpt lat="46.3512" lon="4.49574">
        <ele>384.089</ele>
        <time>2020-09-08T23:11:38Z</time>
      </trkpt>
      <trkpt lat="46.35112" lon="4.49565">
        <ele>383.017</ele>
        <time>2020-09-08T23:11:48Z</time>
      </trkpt>
      <trkpt lat="46.3508" lon="4.49515">
        <ele>378.008</ele>
        <time>2020-09-08T23:11:58Z</time>
      </trkpt>
      <trkpt lat="46.35071" lon="4.49508">
        <ele>378.067</ele>
        <time>2020-09-08T23:12:08Z</time>
      </trkpt>
      <trkpt lat="46.35061" lon="4.49506">
        <ele>378.038</ele>
        <time>2020-09-08T23:12:18Z</time>
      </trkpt>
      <trkpt lat="46.35052" lon="4.4951">
        <ele>378.085</ele>
        <time>2020-09-08T23:12:28Z</time>
      </trkpt>
      <trkpt lat="46.35035" lon="4.49524">
        <ele>378.071</ele>
        <time>2020-09-08T23:12:38Z</time>
      </trkpt>
      <trkpt lat="46.35027" lon="4.49528">
        <ele>377.079</ele>
        <time>2020-09-08T23:12:48Z</time>
      </trkpt>
      <trkpt lat="46.35021" lon="4.49528">
        <ele>374.039</ele>
        <time>2020-09-08T23:12:58Z</time>
      </trkpt>
      <trkpt lat="46.35011" lon="4.49524">
        <ele>374.065</ele>
        <time>2020-09-08T23:13:08Z</time>
      </trkpt>
      <trkpt lat="46.34982" lon="4.49502">
        <ele>373.047</ele>
        <time>2020-09-08T23:13:18Z</time>
      </trkpt>
      <trkpt lat="46.34974" lon="4.49499">
        <ele>373.015</ele>
        <time>2020-09-08T23:13:28Z</time>
      </trkpt>
      <trkpt lat="46.34965" lon="4.49498">
        <ele>373.065</ele>
        <time>2020-09-08T23:13:38Z</time>
      </trkpt>
      <trkpt lat="46.34955" lon="4.495">
        <ele>373.011</ele>
        <time>2020-09-08T23:13:48Z</time>
      </trkpt>
      <trkpt lat="46.349" lon="4.49533">
        <ele>368.008</ele>
        <time>2020-09-08T23:13:58Z</time>
      </trkpt>
      <trkpt lat="46.34861" lon="4.49561">
        <ele>368.046</ele>
        <time>2020-09-08T23:14:08Z</time>
      </trkpt>
      <trkpt lat="46.34826" lon="4.49596">
        <ele>368.017</ele>
        <time>2020-09-08T23:14:18Z</time>
      </trkpt>
      <trkpt lat="46.34793" lon="4.49623">
        <ele>368.024</ele>
        <time>2020-09-08T23:14:28Z</time>
      </trkpt>
      <trkpt lat="46.34743" lon="4.49647">
        <ele>363.06</ele>
        <time>2020-09-08T23:14:38Z</time>
      </trkpt>
      <trkpt lat="46.3468" lon="4.49659">
        <ele>365.058</ele>
        <time>2020-09-08T23:14:48Z</time>
      </trkpt>
      <trkpt lat="46.34662" lon="4.4966">
        <ele>365.088</ele>
        <time>2020-09-08T23:14:58Z</time>
      </trkpt>
      <trkpt lat="46.34647" lon="4.49655">
        <ele>360.024</ele>
        <time>2020-09-08T23:15:08Z</time>
      </trkpt>
      <trkpt lat="46.34633" lon="4.49647">
        <ele>359.026</ele>
        <time>2020-09-08T23:15:18Z</time>
      </trkpt>
      <trkpt lat="46.3458" lon="4.49611">
        <ele>356.091</ele>
        <time>2020-09-08T23:15:28Z</time>
      </trkpt>
      <trkpt lat="46.34561" lon="4.49602">
        <ele>356.081</ele>
        <time>2020-09-08T23:15:38Z</time>
      </trkpt>
      <trkpt lat="46.34547" lon="4.49599">
        <ele>356.019</ele>
        <time>2020-09-08T23:15:48Z</time>
      </trkpt>
      <trkpt lat="46.34534" lon="4.49599">
        <ele>356.008</ele>
        <time>2020-09-08T23:15:58Z</time>
      </trkpt>
      <trkpt lat="46.34513" lon="4.49606">
        <ele>356.084</ele>
        <time>2020-09-08T23:16:08Z</time>
      </trkpt>
      <trkpt lat="46.34489" lon="4.49616">
        <ele>355.045</ele>
        <time>2020-09-08T23:16:18Z</time>
      </trkpt>
      <trkpt lat="46.34444" lon="4.49673">
        <ele>361.022</ele>
        <time>2020-09-08T23:16:28Z</time>
      </trkpt>
      <trkpt lat="46.34416" lon="4.49724">
        <ele>360.078</ele>
        <time>2020-09-08T23:16:38Z</time>
      </trkpt>
      <trkpt lat="46.34315" lon="4.5">
        <ele>359.096</ele>
        <time>2020-09-08T23:16:48Z</time>
      </trkpt>
      <trkpt lat="46.34294" lon="4.50079">
        <ele>359.026</ele>
        <time>2020-09-08T23:16:58Z</time>
      </trkpt>
      <trkpt lat="46.34283" lon="4.50113">
        <ele>358.082</ele>
        <time>2020-09-08T23:17:08Z</time>
      </trkpt>
      <trkpt lat="46.34269" lon="4.50145">
        <ele>353.054</ele>
        <time>2020-09-08T23:17:18Z</time>
      </trkpt>
      <trkpt lat="46.34195" lon="4.50272">
        <ele>353.094</ele>
        <time>2020-09-08T23:17:28Z</time>
      </trkpt>
      <trkpt lat="46.34106" lon="4.50432">
        <ele>349.057</ele>
        <time>2020-09-08T23:17:38Z</time>
      </trkpt>
      <trkpt lat="46.34056" lon="4.50545">
        <ele>347.022</ele>
        <time>2020-09-08T23:17:48Z</time>
      </trkpt>
      <trkpt lat="46.34045" lon="4.50564">
        <ele>348.008</ele>
        <time>2020-09-08T23:17:58Z</time>
      </trkpt>
      <trkpt lat="46.3403" lon="4.50582">
        <ele>349.044</ele>
        <time>2020-09-08T23:18:08Z</time>
      </trkpt>
      <trkpt lat="46.34004" lon="4.50606">
        <ele>349.025</ele>
        <time>2020-09-08T23:18:18Z</time>
      </trkpt>
      <trkpt lat="46.3396" lon="4.50631">
        <ele>349.012</ele>
        <time>2020-09-08T23:18:28Z</time>
      </trkpt>
      <trkpt lat="46.33896" lon="4.50652">
        <ele>351.078</ele>
        <time>2020-09-08T23:18:38Z</time>
      </trkpt>
      <trkpt lat="46.33843" lon="4.50653">
        <ele>353.096</ele>
        <time>2020-09-08T23:18:48Z</time>
      </trkpt>
      <trkpt lat="46.33812" lon="4.50644">
        <ele>353.056</ele>
        <time>2020-09-08T23:18:58Z</time>
      </trkpt>
      <trkpt lat="46.33806" lon="4.50638">
        <ele>353.052</ele>
        <time>2020-09-08T23:19:08Z</time>
      </trkpt>
      <trkpt lat="46.33794" lon="4.50606">
        <ele>354.024</ele>
        <time>2020-09-08T23:19:18Z</time>
      </trkpt>
      <trkpt lat="46.33783" lon="4.5059">
        <ele>356.081</ele>
        <time>2020-09-08T23:19:28Z</time>
      </trkpt>
      <trkpt lat="46.33683" lon="4.50517">
        <ele>360.061</ele>
        <time>2020-09-08T23:19:38Z</time>
      </trkpt>
      <trkpt lat="46.33672" lon="4.50511">
        <ele>360.017</ele>
        <time>2020-09-08T23:19:48Z</time>
      </trkpt>
      <trkpt lat="46.33652" lon="4.50507">
        <ele>359.008</ele>
        <time>2020-09-08T23:19:58Z</time>
      </trkpt>
      <trkpt lat="46.33618" lon="4.50511">
        <ele>357.043</ele>
        <time>2020-09-08T23:20:08Z</time>
      </trkpt>
      <trkpt lat="46.33552" lon="4.50529">
        <ele>347.044</ele>
        <time>2020-09-08T23:20:18Z</time>
      </trkpt>
      <trkpt lat="46.33538" lon="4.5053">
        <ele>347.011</ele>
        <time>2020-09-08T23:20:28Z</time>
      </trkpt>
      <trkpt lat="46.33524" lon="4.50528">
        <ele>347.047</ele>
        <time>2020-09-08T23:20:38Z</time>
      </trkpt>
      <trkpt lat="46.3351" lon="4.50521">
        <ele>342.025</ele>
        <time>2020-09-08T23:20:48Z</time>
      </trkpt>
      <trkpt lat="46.3345" lon="4.50481">
        <ele>345.045</ele>
        <time>2020-09-08T23:20:58Z</time>
      </trkpt>
      <trkpt lat="46.33444" lon="4.50479">
        <ele>345.041</ele>
        <time>2020-09-08T23:21:08Z</time>
      </trkpt>
      <trkpt lat="46.33439" lon="4.50482">
        <ele>343.093</ele>
        <time>2020-09-08T23:21:18Z</time>
      </trkpt>
      <trkpt lat="46.33436" lon="4.50487">
        <ele>340.068</ele>
        <time>2020-09-08T23:21:28Z</time>
      </trkpt>
      <trkpt lat="46.33425" lon="4.50527">
        <ele>338.042</ele>
        <time>2020-09-08T23:21:38Z</time>
      </trkpt>
      <trkpt lat="46.33299" lon="4.50945">
        <ele>340.026</ele>
        <time>2020-09-08T23:21:48Z</time>
      </trkpt>
      <trkpt lat="46.33285" lon="4.50976">
        <ele>340.008</ele>
        <time>2020-09-08T23:21:58Z</time>
      </trkpt>
      <trkpt lat="46.33231" lon="4.51078">
        <ele>341.041</ele>
        <time>2020-09-08T23:22:08Z</time>
      </trkpt>
      <trkpt lat="46.332" lon="4.51151">
        <ele>341.092</ele>
        <time>2020-09-08T23:22:18Z</time>
      </trkpt>
      <trkpt lat="46.33143" lon="4.51266">
        <ele>340.049</ele>
        <time>2020-09-08T23:22:28Z</time>
      </trkpt>
      <trkpt lat="46.33138" lon="4.51287">
        <ele>340.025</ele>
        <time>2020-09-08T23:22:38Z</time>
      </trkpt>
      <trkpt lat="46.33136" lon="4.5134">
        <ele>344.093</ele>
        <time>2020-09-08T23:22:48Z</time>
      </trkpt>
      <trkpt lat="46.33129" lon="4.51385">
        <ele>344.073</ele>
        <time>2020-09-08T23:22:58Z</time>
      </trkpt>
      <trkpt lat="46.33122" lon="4.51417">
        <ele>347.029</ele>
        <time>2020-09-08T23:23:08Z</time>
      </trkpt>
      <trkpt lat="46.33074" lon="4.51537">
        <ele>337.021</ele>
        <time>2020-09-08T23:23:18Z</time>
      </trkpt>
      <trkpt lat="46.33063" lon="4.5156">
        <ele>337.017</ele>
        <time>2020-09-08T23:23:28Z</time>
      </trkpt>
      <trkpt lat="46.33018" lon="4.51636">
        <ele>330.087</ele>
        <time>2020-09-08T23:23:38Z</time>
      </trkpt>
      <trkpt lat="46.32808" lon="4.51934">
        <ele>331.015</ele>
        <time>2020-09-08T23:23:48Z</time>
      </trkpt>
      <trkpt lat="46.32759" lon="4.52013">
        <ele>327.008</ele>
        <time>2020-09-08T23:23:58Z</time>
      </trkpt>
      <trkpt lat="46.32638" lon="4.52223">
        <ele>329.046</ele>
        <time>2020-09-08T23:24:08Z</time>
      </trkpt>
      <trkpt lat="46.32629" lon="4.52246">
        <ele>332.037</ele>
        <time>2020-09-08T23:24:18Z</time>
      </trkpt>
      <trkpt lat="46.32625" lon="4.52258">
        <ele>332.024</ele>
        <time>2020-09-08T23:24:28Z</time>
      </trkpt>
      <trkpt lat="46.32622" lon="4.52288">
        <ele>332.01</ele>
        <time>2020-09-08T23:24:38Z</time>
      </trkpt>
      <trkpt lat="46.3262" lon="4.52358">
        <ele>334.018</ele>
        <time>2020-09-08T23:24:48Z</time>
      </trkpt>
      <trkpt lat="46.32614" lon="4.5237">
        <ele>333.068</ele>
        <time>2020-09-08T23:24:58Z</time>
      </trkpt>
      <trkpt lat="46.32606" lon="4.52374">
        <ele>333.044</ele>
        <time>2020-09-08T23:25:08Z</time>
      </trkpt>
      <trkpt lat="46.32609" lon="4.52398">
        <ele>333.096</ele>
        <time>2020-09-08T23:25:18Z</time>
      </trkpt>
      <trkpt lat="46.32609" lon="4.52423">
        <ele>334.069</ele>
        <time>2020-09-08T23:25:28Z</time>
      </trkpt>
      <trkpt lat="46.32606" lon="4.52436">
        <ele>334.004</ele>
        <time>2020-09-08T23:25:38Z</time>
      </trkpt>
      <trkpt lat="46.32587" lon="4.52504">
        <ele>329.024</ele>
        <time>2020-09-08T23:25:48Z</time>
      </trkpt>
      <trkpt lat="46.32585" lon="4.52539">
        <ele>329.008</ele>
        <time>2020-09-08T23:25:58Z</time>
      </trkpt>
      <trkpt lat="46.32589" lon="4.52581">
        <ele>331.041</ele>
        <time>2020-09-08T23:26:08Z</time>
      </trkpt>
      <trkpt lat="46.32642" lon="4.52892">
        <ele>334.032</ele>
        <time>2020-09-08T23:26:18Z</time>
      </trkpt>
      <trkpt lat="46.32649" lon="4.52892">
        <ele>334.039</ele>
        <time>2020-09-08T23:26:28Z</time>
      </trkpt>
      <trkpt lat="46.32683" lon="4.52914">
        <ele>332.085</ele>
        <time>2020-09-08T23:26:38Z</time>
      </trkpt>
      <trkpt lat="46.3274" lon="4.52938">
        <ele>333.023</ele>
        <time>2020-09-08T23:26:48Z</time>
      </trkpt>
      <trkpt lat="46.32752" lon="4.52948">
        <ele>333.053</ele>
        <time>2020-09-08T23:26:58Z</time>
      </trkpt>
      <trkpt lat="46.32765" lon="4.52968">
        <ele>333.049</ele>
        <time>2020-09-08T23:27:08Z</time>
      </trkpt>
      <trkpt lat="46.32778" lon="4.5301">
        <ele>334.091</ele>
        <time>2020-09-08T23:27:18Z</time>
      </trkpt>
      <trkpt lat="46.32783" lon="4.53039">
        <ele>335.087</ele>
        <time>2020-09-08T23:27:28Z</time>
      </trkpt>
      <trkpt lat="46.32784" lon="4.53086">
        <ele>337.042</ele>
        <time>2020-09-08T23:27:38Z</time>
      </trkpt>
      <trkpt lat="46.32783" lon="4.53143">
        <ele>338.026</ele>
        <time>2020-09-08T23:27:48Z</time>
      </trkpt>
      <trkpt lat="46.32785" lon="4.53185">
        <ele>342.008</ele>
        <time>2020-09-08T23:27:58Z</time>
      </trkpt>
      <trkpt lat="46.32788" lon="4.53307">
        <ele>348.083</ele>
        <time>2020-09-08T23:28:08Z</time>
      </trkpt>
      <trkpt lat="46.32798" lon="4.53307">
        <ele>349.034</ele>
        <time>2020-09-08T23:28:18Z</time>
      </trkpt>
      <trkpt lat="46.32837" lon="4.53291">
        <ele>349.041</ele>
        <time>2020-09-08T23:28:28Z</time>
      </trkpt>
      <trkpt lat="46.32857" lon="4.53292">
        <ele>353.037</ele>
        <time>2020-09-08T23:28:38Z</time>
      </trkpt>
      <trkpt lat="46.32858" lon="4.53314">
        <ele>354.055</ele>
        <time>2020-09-08T23:28:48Z</time>
      </trkpt>
      <trkpt lat="46.32881" lon="4.53324">
        <ele>354.025</ele>
        <time>2020-09-08T23:28:58Z</time>
      </trkpt>
      <trkpt lat="46.32891" lon="4.53334">
        <ele>356.021</ele>
        <time>2020-09-08T23:29:08Z</time>
      </trkpt>
      <trkpt lat="46.32893" lon="4.53341">
        <ele>356.023</ele>
        <time>2020-09-08T23:29:18Z</time>
      </trkpt>
      <trkpt lat="46.32904" lon="4.53357">
        <ele>356.088</ele>
        <time>2020-09-08T23:29:28Z</time>
      </trkpt>
      <trkpt lat="46.32914" lon="4.53364">
        <ele>356.024</ele>
        <time>2020-09-08T23:29:38Z</time>
      </trkpt>
      <trkpt lat="46.32912" lon="4.53443">
        <ele>352.026</ele>
        <time>2020-09-08T23:29:48Z</time>
      </trkpt>
      <trkpt lat="46.32907" lon="4.53466">
        <ele>352.008</ele>
        <time>2020-09-08T23:29:58Z</time>
      </trkpt>
      <trkpt lat="46.32896" lon="4.535">
        <ele>347.093</ele>
        <time>2020-09-08T23:30:08Z</time>
      </trkpt>
      <trkpt lat="46.32889" lon="4.53529">
        <ele>346.014</ele>
        <time>2020-09-08T23:30:18Z</time>
      </trkpt>
      <trkpt lat="46.32879" lon="4.53554">
        <ele>345.071</ele>
        <time>2020-09-08T23:30:28Z</time>
      </trkpt>
      <trkpt lat="46.32871" lon="4.53569">
        <ele>344.067</ele>
        <time>2020-09-08T23:30:38Z</time>
      </trkpt>
      <trkpt lat="46.32851" lon="4.536">
        <ele>333.035</ele>
        <time>2020-09-08T23:30:48Z</time>
      </trkpt>
      <trkpt lat="46.32816" lon="4.5362">
        <ele>332.095</ele>
        <time>2020-09-08T23:30:58Z</time>
      </trkpt>
      <trkpt lat="46.32801" lon="4.53636">
        <ele>331.071</ele>
        <time>2020-09-08T23:31:08Z</time>
      </trkpt>
      <trkpt lat="46.32788" lon="4.53661">
        <ele>326.043</ele>
        <time>2020-09-08T23:31:18Z</time>
      </trkpt>
      <trkpt lat="46.32776" lon="4.53695">
        <ele>324.063</ele>
        <time>2020-09-08T23:31:28Z</time>
      </trkpt>
      <trkpt lat="46.3277" lon="4.53726">
        <ele>318.044</ele>
        <time>2020-09-08T23:31:38Z</time>
      </trkpt>
      <trkpt lat="46.32769" lon="4.53756">
        <ele>314.018</ele>
        <time>2020-09-08T23:31:48Z</time>
      </trkpt>
      <trkpt lat="46.32772" lon="4.53801">
        <ele>313.008</ele>
        <time>2020-09-08T23:31:58Z</time>
      </trkpt>
      <trkpt lat="46.32767" lon="4.53808">
        <ele>313.081</ele>
        <time>2020-09-08T23:32:08Z</time>
      </trkpt>
      <trkpt lat="46.328" lon="4.53916">
        <ele>317.072</ele>
        <time>2020-09-08T23:32:18Z</time>
      </trkpt>
      <trkpt lat="46.32816" lon="4.53983">
        <ele>317.039</ele>
        <time>2020-09-08T23:32:28Z</time>
      </trkpt>
      <trkpt lat="46.32839" lon="4.54107">
        <ele>311.045</ele>
        <time>2020-09-08T23:32:38Z</time>
      </trkpt>
      <trkpt lat="46.32851" lon="4.54182">
        <ele>310.063</ele>
        <time>2020-09-08T23:32:48Z</time>
      </trkpt>
      <trkpt lat="46.3287" lon="4.54475">
        <ele>314.073</ele>
        <time>2020-09-08T23:32:58Z</time>
      </trkpt>
      <trkpt lat="46.32883" lon="4.54647">
        <ele>321.019</ele>
        <time>2020-09-08T23:33:08Z</time>
      </trkpt>
      <trkpt lat="46.32895" lon="4.54758">
        <ele>320.061</ele>
        <time>2020-09-08T23:33:18Z</time>
      </trkpt>
      <trkpt lat="46.32909" lon="4.54992">
        <ele>316.016</ele>
        <time>2020-09-08T23:33:28Z</time>
      </trkpt>
      <trkpt lat="46.32908" lon="4.55052">
        <ele>314.076</ele>
        <time>2020-09-08T23:33:38Z</time>
      </trkpt>
      <trkpt lat="46.32901" lon="4.55122">
        <ele>310.013</ele>
        <time>2020-09-08T23:33:48Z</time>
      </trkpt>
      <trkpt lat="46.32903" lon="4.5515">
        <ele>311.008</ele>
        <time>2020-09-08T23:33:58Z</time>
      </trkpt>
      <trkpt lat="46.32908" lon="4.55168">
        <ele>308.086</ele>
        <time>2020-09-08T23:34:08Z</time>
      </trkpt>
      <trkpt lat="46.32953" lon="4.55266">
        <ele>313.097</ele>
        <time>2020-09-08T23:34:18Z</time>
      </trkpt>
      <trkpt lat="46.32958" lon="4.5529">
        <ele>312.064</ele>
        <time>2020-09-08T23:34:28Z</time>
      </trkpt>
      <trkpt lat="46.32954" lon="4.55319">
        <ele>311.07</ele>
        <time>2020-09-08T23:34:38Z</time>
      </trkpt>
      <trkpt lat="46.32947" lon="4.55332">
        <ele>306.078</ele>
        <time>2020-09-08T23:34:48Z</time>
      </trkpt>
      <trkpt lat="46.32895" lon="4.55396">
        <ele>298.038</ele>
        <time>2020-09-08T23:34:58Z</time>
      </trkpt>
      <trkpt lat="46.32883" lon="4.55415">
        <ele>298.044</ele>
        <time>2020-09-08T23:35:08Z</time>
      </trkpt>
      <trkpt lat="46.32877" lon="4.55427">
        <ele>297.056</ele>
        <time>2020-09-08T23:35:18Z</time>
      </trkpt>
      <trkpt lat="46.32873" lon="4.55454">
        <ele>297.068</ele>
        <time>2020-09-08T23:35:28Z</time>
      </trkpt>
      <trkpt lat="46.32864" lon="4.55468">
        <ele>298.042</ele>
        <time>2020-09-08T23:35:38Z</time>
      </trkpt>
      <trkpt lat="46.32859" lon="4.55479">
        <ele>298.026</ele>
        <time>2020-09-08T23:35:48Z</time>
      </trkpt>
      <trkpt lat="46.32837" lon="4.55576">
        <ele>302.008</ele>
        <time>2020-09-08T23:35:58Z</time>
      </trkpt>
      <trkpt lat="46.32821" lon="4.55609">
        <ele>302.091</ele>
        <time>2020-09-08T23:36:08Z</time>
      </trkpt>
      <trkpt lat="46.32801" lon="4.55633">
        <ele>303.012</ele>
        <time>2020-09-08T23:36:18Z</time>
      </trkpt>
      <trkpt lat="46.32757" lon="4.55666">
        <ele>306.069</ele>
        <time>2020-09-08T23:36:28Z</time>
      </trkpt>
      <trkpt lat="46.32718" lon="4.55688">
        <ele>306.095</ele>
        <time>2020-09-08T23:36:38Z</time>
      </trkpt>
      <trkpt lat="46.32694" lon="4.55704">
        <ele>307.083</ele>
        <time>2020-09-08T23:36:48Z</time>
      </trkpt>
      <trkpt lat="46.3265" lon="4.55749">
        <ele>306.043</ele>
        <time>2020-09-08T23:36:58Z</time>
      </trkpt>
      <trkpt lat="46.32626" lon="4.55769">
        <ele>305.019</ele>
        <time>2020-09-08T23:37:08Z</time>
      </trkpt>
      <trkpt lat="46.32611" lon="4.5578">
        <ele>305.061</ele>
        <time>2020-09-08T23:37:18Z</time>
      </trkpt>
      <trkpt lat="46.32542" lon="4.55805">
        <ele>310.078</ele>
        <time>2020-09-08T23:37:28Z</time>
      </trkpt>
      <trkpt lat="46.32505" lon="4.5582">
        <ele>316.033</ele>
        <time>2020-09-08T23:37:38Z</time>
      </trkpt>
      <trkpt lat="46.32487" lon="4.55831">
        <ele>307.026</ele>
        <time>2020-09-08T23:37:48Z</time>
      </trkpt>
      <trkpt lat="46.32463" lon="4.55855">
        <ele>306.008</ele>
        <time>2020-09-08T23:37:58Z</time>
      </trkpt>
      <trkpt lat="46.32424" lon="4.5592">
        <ele>302.012</ele>
        <time>2020-09-08T23:38:08Z</time>
      </trkpt>
      <trkpt lat="46.32401" lon="4.55961">
        <ele>301.073</ele>
        <time>2020-09-08T23:38:18Z</time>
      </trkpt>
      <trkpt lat="46.32382" lon="4.56003">
        <ele>298.06</ele>
        <time>2020-09-08T23:38:28Z</time>
      </trkpt>
      <trkpt lat="46.32348" lon="4.56087">
        <ele>300.036</ele>
        <time>2020-09-08T23:38:38Z</time>
      </trkpt>
      <trkpt lat="46.32333" lon="4.56111">
        <ele>300.054</ele>
        <time>2020-09-08T23:38:48Z</time>
      </trkpt>
      <trkpt lat="46.32326" lon="4.56118">
        <ele>299.084</ele>
        <time>2020-09-08T23:38:58Z</time>
      </trkpt>
      <trkpt lat="46.32333" lon="4.56138">
        <ele>300.05</ele>
        <time>2020-09-08T23:39:08Z</time>
      </trkpt>
      <trkpt lat="46.32357" lon="4.56168">
        <ele>303.012</ele>
        <time>2020-09-08T23:39:18Z</time>
      </trkpt>
      <trkpt lat="46.32379" lon="4.56191">
        <ele>303.075</ele>
        <time>2020-09-08T23:39:28Z</time>
      </trkpt>
      <trkpt lat="46.32385" lon="4.56207">
        <ele>303.028</ele>
        <time>2020-09-08T23:39:38Z</time>
      </trkpt>
      <trkpt lat="46.32389" lon="4.56244">
        <ele>307.02</ele>
        <time>2020-09-08T23:39:48Z</time>
      </trkpt>
      <trkpt lat="46.32386" lon="4.5628">
        <ele>308.008</ele>
        <time>2020-09-08T23:39:58Z</time>
      </trkpt>
      <trkpt lat="46.32371" lon="4.5635">
        <ele>314.032</ele>
        <time>2020-09-08T23:40:08Z</time>
      </trkpt>
      <trkpt lat="46.32368" lon="4.56405">
        <ele>316.053</ele>
        <time>2020-09-08T23:40:18Z</time>
      </trkpt>
      <trkpt lat="46.32369" lon="4.56439">
        <ele>319.06</ele>
        <time>2020-09-08T23:40:28Z</time>
      </trkpt>
      <trkpt lat="46.32377" lon="4.56494">
        <ele>324.086</ele>
        <time>2020-09-08T23:40:38Z</time>
      </trkpt>
      <trkpt lat="46.32385" lon="4.56532">
        <ele>324.074</ele>
        <time>2020-09-08T23:40:48Z</time>
      </trkpt>
      <trkpt lat="46.32384" lon="4.56549">
        <ele>324.064</ele>
        <time>2020-09-08T23:40:58Z</time>
      </trkpt>
      <trkpt lat="46.3238" lon="4.56552">
        <ele>325.07</ele>
        <time>2020-09-08T23:41:08Z</time>
      </trkpt>
      <trkpt lat="46.32374" lon="4.56551">
        <ele>325.062</ele>
        <time>2020-09-08T23:41:18Z</time>
      </trkpt>
      <trkpt lat="46.32368" lon="4.56539">
        <ele>325.022</ele>
        <time>2020-09-08T23:41:28Z</time>
      </trkpt>
      <trkpt lat="46.32352" lon="4.56494">
        <ele>327.062</ele>
        <time>2020-09-08T23:41:38Z</time>
      </trkpt>
      <trkpt lat="46.3234" lon="4.56468">
        <ele>324.008</ele>
        <time>2020-09-08T23:41:48Z</time>
      </trkpt>
      <trkpt lat="46.32333" lon="4.56461">
        <ele>324.008</ele>
        <time>2020-09-08T23:41:58Z</time>
      </trkpt>
      <trkpt lat="46.32325" lon="4.56456">
        <ele>324.087</ele>
        <time>2020-09-08T23:42:08Z</time>
      </trkpt>
      <trkpt lat="46.32314" lon="4.56453">
        <ele>325.088</ele>
        <time>2020-09-08T23:42:18Z</time>
      </trkpt>
      <trkpt lat="46.323" lon="4.56453">
        <ele>325.025</ele>
        <time>2020-09-08T23:42:28Z</time>
      </trkpt>
      <trkpt lat="46.32292" lon="4.56455">
        <ele>325.081</ele>
        <time>2020-09-08T23:42:38Z</time>
      </trkpt>
      <trkpt lat="46.32285" lon="4.56464">
        <ele>325.049</ele>
        <time>2020-09-08T23:42:48Z</time>
      </trkpt>
      <trkpt lat="46.32284" lon="4.5648">
        <ele>326.039</ele>
        <time>2020-09-08T23:42:58Z</time>
      </trkpt>
      <trkpt lat="46.32331" lon="4.56587">
        <ele>335.045</ele>
        <time>2020-09-08T23:43:08Z</time>
      </trkpt>
      <trkpt lat="46.32339" lon="4.56615">
        <ele>336.027</ele>
        <time>2020-09-08T23:43:18Z</time>
      </trkpt>
      <trkpt lat="46.32343" lon="4.5664">
        <ele>336.017</ele>
        <time>2020-09-08T23:43:28Z</time>
      </trkpt>
      <trkpt lat="46.32342" lon="4.56662">
        <ele>339.087</ele>
        <time>2020-09-08T23:43:38Z</time>
      </trkpt>
      <trkpt lat="46.32332" lon="4.56717">
        <ele>341.015</ele>
        <time>2020-09-08T23:43:48Z</time>
      </trkpt>
      <trkpt lat="46.32307" lon="4.56809">
        <ele>344.008</ele>
        <time>2020-09-08T23:43:58Z</time>
      </trkpt>
      <trkpt lat="46.32299" lon="4.56829">
        <ele>345.016</ele>
        <time>2020-09-08T23:44:08Z</time>
      </trkpt>
      <trkpt lat="46.32241" lon="4.56942">
        <ele>352.077</ele>
        <time>2020-09-08T23:44:18Z</time>
      </trkpt>
      <trkpt lat="46.32234" lon="4.56963">
        <ele>352.034</ele>
        <time>2020-09-08T23:44:28Z</time>
      </trkpt>
      <trkpt lat="46.3223" lon="4.56986">
        <ele>352.09</ele>
        <time>2020-09-08T23:44:38Z</time>
      </trkpt>
      <trkpt lat="46.32229" lon="4.57008">
        <ele>354.058</ele>
        <time>2020-09-08T23:44:48Z</time>
      </trkpt>
      <trkpt lat="46.32241" lon="4.57083">
        <ele>359.058</ele>
        <time>2020-09-08T23:44:58Z</time>
      </trkpt>
      <trkpt lat="46.32242" lon="4.57103">
        <ele>359.044</ele>
        <time>2020-09-08T23:45:08Z</time>
      </trkpt>
      <trkpt lat="46.32241" lon="4.5712">
        <ele>360.046</ele>
        <time>2020-09-08T23:45:18Z</time>
      </trkpt>
      <trkpt lat="46.32235" lon="4.57143">
        <ele>360.023</ele>
        <time>2020-09-08T23:45:28Z</time>
      </trkpt>
      <trkpt lat="46.3222" lon="4.57179">
        <ele>365.083</ele>
        <time>2020-09-08T23:45:38Z</time>
      </trkpt>
      <trkpt lat="46.32203" lon="4.57225">
        <ele>367.011</ele>
        <time>2020-09-08T23:45:48Z</time>
      </trkpt>
      <trkpt lat="46.32197" lon="4.57255">
        <ele>372.008</ele>
        <time>2020-09-08T23:45:58Z</time>
      </trkpt>
      <trkpt lat="46.32197" lon="4.57279">
        <ele>372.037</ele>
        <time>2020-09-08T23:46:08Z</time>
      </trkpt>
      <trkpt lat="46.322" lon="4.57301">
        <ele>373.058</ele>
        <time>2020-09-08T23:46:18Z</time>
      </trkpt>
      <trkpt lat="46.32204" lon="4.57319">
        <ele>373.035</ele>
        <time>2020-09-08T23:46:28Z</time>
      </trkpt>
      <trkpt lat="46.32213" lon="4.57338">
        <ele>378.041</ele>
        <time>2020-09-08T23:46:38Z</time>
      </trkpt>
      <trkpt lat="46.32223" lon="4.57353">
        <ele>378.099</ele>
        <time>2020-09-08T23:46:48Z</time>
      </trkpt>
      <trkpt lat="46.32229" lon="4.57367">
        <ele>379.029</ele>
        <time>2020-09-08T23:46:58Z</time>
      </trkpt>
      <trkpt lat="46.32235" lon="4.57395">
        <ele>379.035</ele>
        <time>2020-09-08T23:47:08Z</time>
      </trkpt>
      <trkpt lat="46.32239" lon="4.57428">
        <ele>384.037</ele>
        <time>2020-09-08T23:47:18Z</time>
      </trkpt>
      <trkpt lat="46.32242" lon="4.57519">
        <ele>390.058</ele>
        <time>2020-09-08T23:47:28Z</time>
      </trkpt>
      <trkpt lat="46.32246" lon="4.57546">
        <ele>391.052</ele>
        <time>2020-09-08T23:47:38Z</time>
      </trkpt>
      <trkpt lat="46.32249" lon="4.5766">
        <ele>403.017</ele>
        <time>2020-09-08T23:47:48Z</time>
      </trkpt>
      <trkpt lat="46.32255" lon="4.57714">
        <ele>404.008</ele>
        <time>2020-09-08T23:47:58Z</time>
      </trkpt>
      <trkpt lat="46.32266" lon="4.57754">
        <ele>411.09</ele>
        <time>2020-09-08T23:48:08Z</time>
      </trkpt>
      <trkpt lat="46.32288" lon="4.57816">
        <ele>412.081</ele>
        <time>2020-09-08T23:48:18Z</time>
      </trkpt>
      <trkpt lat="46.32311" lon="4.5787">
        <ele>416.038</ele>
        <time>2020-09-08T23:48:28Z</time>
      </trkpt>
      <trkpt lat="46.32324" lon="4.57878">
        <ele>418.014</ele>
        <time>2020-09-08T23:48:38Z</time>
      </trkpt>
      <trkpt lat="46.32336" lon="4.57875">
        <ele>419.072</ele>
        <time>2020-09-08T23:48:48Z</time>
      </trkpt>
      <trkpt lat="46.32391" lon="4.57801">
        <ele>417.032</ele>
        <time>2020-09-08T23:48:58Z</time>
      </trkpt>
      <trkpt lat="46.32399" lon="4.57804">
        <ele>418.068</ele>
        <time>2020-09-08T23:49:08Z</time>
      </trkpt>
      <trkpt lat="46.32406" lon="4.57811">
        <ele>419.05</ele>
        <time>2020-09-08T23:49:18Z</time>
      </trkpt>
      <trkpt lat="46.32409" lon="4.57819">
        <ele>419.013</ele>
        <time>2020-09-08T23:49:28Z</time>
      </trkpt>
      <trkpt lat="46.32411" lon="4.57841">
        <ele>426.043</ele>
        <time>2020-09-08T23:49:38Z</time>
      </trkpt>
      <trkpt lat="46.32398" lon="4.57875">
        <ele>426.007</ele>
        <time>2020-09-08T23:49:48Z</time>
      </trkpt>
      <trkpt lat="46.3232" lon="4.58025">
        <ele>435.008</ele>
        <time>2020-09-08T23:49:58Z</time>
      </trkpt>
      <trkpt lat="46.32305" lon="4.58048">
        <ele>436.016</ele>
        <time>2020-09-08T23:50:08Z</time>
      </trkpt>
      <trkpt lat="46.32298" lon="4.58055">
        <ele>438.087</ele>
        <time>2020-09-08T23:50:18Z</time>
      </trkpt>
      <trkpt lat="46.3229" lon="4.58058">
        <ele>438.054</ele>
        <time>2020-09-08T23:50:28Z</time>
      </trkpt>
      <trkpt lat="46.32274" lon="4.58051">
        <ele>439.08</ele>
        <time>2020-09-08T23:50:38Z</time>
      </trkpt>
      <trkpt lat="46.32266" lon="4.58043">
        <ele>441.098</ele>
        <time>2020-09-08T23:50:48Z</time>
      </trkpt>
      <trkpt lat="46.32252" lon="4.5802">
        <ele>441.058</ele>
        <time>2020-09-08T23:50:58Z</time>
      </trkpt>
      <trkpt lat="46.32244" lon="4.58002">
        <ele>441.054</ele>
        <time>2020-09-08T23:51:08Z</time>
      </trkpt>
      <trkpt lat="46.3224" lon="4.57982">
        <ele>434.056</ele>
        <time>2020-09-08T23:51:18Z</time>
      </trkpt>
      <trkpt lat="46.32238" lon="4.57956">
        <ele>433.074</ele>
        <time>2020-09-08T23:51:28Z</time>
      </trkpt>
      <trkpt lat="46.32234" lon="4.57944">
        <ele>433.056</ele>
        <time>2020-09-08T23:51:38Z</time>
      </trkpt>
      <trkpt lat="46.32229" lon="4.57935">
        <ele>433.021</ele>
        <time>2020-09-08T23:51:48Z</time>
      </trkpt>
      <trkpt lat="46.32218" lon="4.57926">
        <ele>433.008</ele>
        <time>2020-09-08T23:51:58Z</time>
      </trkpt>
      <trkpt lat="46.3219" lon="4.57913">
        <ele>433.032</ele>
        <time>2020-09-08T23:52:08Z</time>
      </trkpt>
      <trkpt lat="46.32176" lon="4.57912">
        <ele>437.093</ele>
        <time>2020-09-08T23:52:18Z</time>
      </trkpt>
      <trkpt lat="46.32157" lon="4.57915">
        <ele>437.04</ele>
        <time>2020-09-08T23:52:28Z</time>
      </trkpt>
      <trkpt lat="46.3214" lon="4.57922">
        <ele>438.056</ele>
        <time>2020-09-08T23:52:38Z</time>
      </trkpt>
      <trkpt lat="46.32129" lon="4.57931">
        <ele>439.054</ele>
        <time>2020-09-08T23:52:48Z</time>
      </trkpt>
      <trkpt lat="46.3212" lon="4.57942">
        <ele>439.084</ele>
        <time>2020-09-08T23:52:58Z</time>
      </trkpt>
      <trkpt lat="46.32114" lon="4.57952">
        <ele>440.08</ele>
        <time>2020-09-08T23:53:08Z</time>
      </trkpt>
      <trkpt lat="46.32105" lon="4.57973">
        <ele>438.092</ele>
        <time>2020-09-08T23:53:18Z</time>
      </trkpt>
      <trkpt lat="46.32096" lon="4.58007">
        <ele>446.059</ele>
        <time>2020-09-08T23:53:28Z</time>
      </trkpt>
      <trkpt lat="46.32086" lon="4.58107">
        <ele>454.003</ele>
        <time>2020-09-08T23:53:38Z</time>
      </trkpt>
      <trkpt lat="46.32086" lon="4.58134">
        <ele>455.023</ele>
        <time>2020-09-08T23:53:48Z</time>
      </trkpt>
      <trkpt lat="46.32091" lon="4.58181">
        <ele>460.008</ele>
        <time>2020-09-08T23:53:58Z</time>
      </trkpt>
      <trkpt lat="46.32089" lon="4.58224">
        <ele>461.04</ele>
        <time>2020-09-08T23:54:08Z</time>
      </trkpt>
      <trkpt lat="46.32076" lon="4.58284">
        <ele>467.081</ele>
        <time>2020-09-08T23:54:18Z</time>
      </trkpt>
      <trkpt lat="46.32045" lon="4.58371">
        <ele>477.038</ele>
        <time>2020-09-08T23:54:28Z</time>
      </trkpt>
      <trkpt lat="46.31991" lon="4.58508">
        <ele>487.024</ele>
        <time>2020-09-08T23:54:38Z</time>
      </trkpt>
      <trkpt lat="46.3191" lon="4.58617">
        <ele>488.052</ele>
        <time>2020-09-08T23:54:48Z</time>
      </trkpt>
      <trkpt lat="46.31896" lon="4.58639">
        <ele>489.022</ele>
        <time>2020-09-08T23:54:58Z</time>
      </trkpt>
      <trkpt lat="46.31887" lon="4.58662">
        <ele>499.088</ele>
        <time>2020-09-08T23:55:08Z</time>
      </trkpt>
      <trkpt lat="46.31882" lon="4.58686">
        <ele>501.01</ele>
        <time>2020-09-08T23:55:18Z</time>
      </trkpt>
      <trkpt lat="46.31875" lon="4.58706">
        <ele>502.083</ele>
        <time>2020-09-08T23:55:28Z</time>
      </trkpt>
      <trkpt lat="46.31868" lon="4.58716">
        <ele>501.025</ele>
        <time>2020-09-08T23:55:38Z</time>
      </trkpt>
      <trkpt lat="46.31854" lon="4.58727">
        <ele>495.017</ele>
        <time>2020-09-08T23:55:48Z</time>
      </trkpt>
      <trkpt lat="46.31824" lon="4.58734">
        <ele>494.008</ele>
        <time>2020-09-08T23:55:58Z</time>
      </trkpt>
      <trkpt lat="46.31754" lon="4.5874">
        <ele>491.033</ele>
        <time>2020-09-08T23:56:08Z</time>
      </trkpt>
      <trkpt lat="46.31684" lon="4.58758">
        <ele>502.064</ele>
        <time>2020-09-08T23:56:18Z</time>
      </trkpt>
      <trkpt lat="46.31618" lon="4.5879">
        <ele>504.071</ele>
        <time>2020-09-08T23:56:28Z</time>
      </trkpt>
      <trkpt lat="46.3158" lon="4.58823">
        <ele>505.047</ele>
        <time>2020-09-08T23:56:38Z</time>
      </trkpt>
      <trkpt lat="46.31569" lon="4.58835">
        <ele>512.015</ele>
        <time>2020-09-08T23:56:48Z</time>
      </trkpt>
      <trkpt lat="46.31559" lon="4.58852">
        <ele>513.045</ele>
        <time>2020-09-08T23:56:58Z</time>
      </trkpt>
      <trkpt lat="46.31543" lon="4.58898">
        <ele>514.061</ele>
        <time>2020-09-08T23:57:08Z</time>
      </trkpt>
      <trkpt lat="46.31537" lon="4.58925">
        <ele>520.073</ele>
        <time>2020-09-08T23:57:18Z</time>
      </trkpt>
      <trkpt lat="46.31534" lon="4.58957">
        <ele>521.068</ele>
        <time>2020-09-08T23:57:28Z</time>
      </trkpt>
      <trkpt lat="46.31534" lon="4.59091">
        <ele>529.042</ele>
        <time>2020-09-08T23:57:38Z</time>
      </trkpt>
      <trkpt lat="46.31528" lon="4.59158">
        <ele>528.026</ele>
        <time>2020-09-08T23:57:48Z</time>
      </trkpt>
      <trkpt lat="46.31524" lon="4.59185">
        <ele>528.008</ele>
        <time>2020-09-08T23:57:58Z</time>
      </trkpt>
      <trkpt lat="46.31514" lon="4.5921">
        <ele>530.011</ele>
        <time>2020-09-08T23:58:08Z</time>
      </trkpt>
      <trkpt lat="46.31497" lon="4.59231">
        <ele>530.022</ele>
        <time>2020-09-08T23:58:18Z</time>
      </trkpt>
      <trkpt lat="46.31458" lon="4.59264">
        <ele>530.039</ele>
        <time>2020-09-08T23:58:28Z</time>
      </trkpt>
      <trkpt lat="46.31431" lon="4.59297">
        <ele>538.045</ele>
        <time>2020-09-08T23:58:38Z</time>
      </trkpt>
      <trkpt lat="46.31418" lon="4.59322">
        <ele>538.093</ele>
        <time>2020-09-08T23:58:48Z</time>
      </trkpt>
      <trkpt lat="46.31411" lon="4.59344">
        <ele>534.013</ele>
        <time>2020-09-08T23:58:58Z</time>
      </trkpt>
      <trkpt lat="46.31395" lon="4.59431">
        <ele>527.089</ele>
        <time>2020-09-08T23:59:08Z</time>
      </trkpt>
      <trkpt lat="46.31393" lon="4.59452">
        <ele>525.071</ele>
        <time>2020-09-08T23:59:18Z</time>
      </trkpt>
      <trkpt lat="46.31395" lon="4.59521">
        <ele>520.014</ele>
        <time>2020-09-08T23:59:28Z</time>
      </trkpt>
      <trkpt lat="46.31389" lon="4.59591">
        <ele>515.054</ele>
        <time>2020-09-08T23:59:38Z</time>
      </trkpt>
      <trkpt lat="46.31389" lon="4.59635">
        <ele>514.009</ele>
        <time>2020-09-08T23:59:48Z</time>
      </trkpt>
      <trkpt lat="46.31387" lon="4.59652">
        <ele>514.008</ele>
        <time>2020-09-08T23:59:58Z</time>
      </trkpt>
      <trkpt lat="46.31373" lon="4.59693">
        <ele>511.086</ele>
        <time>2020-09-09T00:00:08Z</time>
      </trkpt>
      <trkpt lat="46.31362" lon="4.59716">
        <ele>511.067</ele>
        <time>2020-09-09T00:00:18Z</time>
      </trkpt>
      <trkpt lat="46.31342" lon="4.59745">
        <ele>511.024</ele>
        <time>2020-09-09T00:00:28Z</time>
      </trkpt>
      <trkpt lat="46.3132" lon="4.59766">
        <ele>511.04</ele>
        <time>2020-09-09T00:00:38Z</time>
      </trkpt>
      <trkpt lat="46.31254" lon="4.59801">
        <ele>512.078</ele>
        <time>2020-09-09T00:00:48Z</time>
      </trkpt>
      <trkpt lat="46.31234" lon="4.59817">
        <ele>512.098</ele>
        <time>2020-09-09T00:00:58Z</time>
      </trkpt>
      <trkpt lat="46.31178" lon="4.59797">
        <ele>514.044</ele>
        <time>2020-09-09T00:01:08Z</time>
      </trkpt>
      <trkpt lat="46.31126" lon="4.59792">
        <ele>514.036</ele>
        <time>2020-09-09T00:01:18Z</time>
      </trkpt>
      <trkpt lat="46.3109" lon="4.59783">
        <ele>513.047</ele>
        <time>2020-09-09T00:01:28Z</time>
      </trkpt>
      <trkpt lat="46.31051" lon="4.59756">
        <ele>515.029</ele>
        <time>2020-09-09T00:01:38Z</time>
      </trkpt>
      <trkpt lat="46.31006" lon="4.59738">
        <ele>518.021</ele>
        <time>2020-09-09T00:01:48Z</time>
      </trkpt>
      <trkpt lat="46.30962" lon="4.59736">
        <ele>517.008</ele>
        <time>2020-09-09T00:01:58Z</time>
      </trkpt>
      <trkpt lat="46.3091" lon="4.59739">
        <ele>511.049</ele>
        <time>2020-09-09T00:02:08Z</time>
      </trkpt>
      <trkpt lat="46.30872" lon="4.59746">
        <ele>505.09</ele>
        <time>2020-09-09T00:02:18Z</time>
      </trkpt>
      <trkpt lat="46.30816" lon="4.59746">
        <ele>497.097</ele>
        <time>2020-09-09T00:02:28Z</time>
      </trkpt>
      <trkpt lat="46.30803" lon="4.59742">
        <ele>500.053</ele>
        <time>2020-09-09T00:02:38Z</time>
      </trkpt>
      <trkpt lat="46.30767" lon="4.59768">
        <ele>489.051</ele>
        <time>2020-09-09T00:02:48Z</time>
      </trkpt>
      <trkpt lat="46.30732" lon="4.59775">
        <ele>487.051</ele>
        <time>2020-09-09T00:02:58Z</time>
      </trkpt>
      <trkpt lat="46.30727" lon="4.59774">
        <ele>487.077</ele>
        <time>2020-09-09T00:03:08Z</time>
      </trkpt>
      <trkpt lat="46.30722" lon="4.5977">
        <ele>487.059</ele>
        <time>2020-09-09T00:03:18Z</time>
      </trkpt>
      <trkpt lat="46.30715" lon="4.59754">
        <ele>487.011</ele>
        <time>2020-09-09T00:03:28Z</time>
      </trkpt>
      <trkpt lat="46.30707" lon="4.59744">
        <ele>486.021</ele>
        <time>2020-09-09T00:03:38Z</time>
      </trkpt>
      <trkpt lat="46.30682" lon="4.59741">
        <ele>482.003</ele>
        <time>2020-09-09T00:03:48Z</time>
      </trkpt>
      <trkpt lat="46.30688" lon="4.59778">
        <ele>479.008</ele>
        <time>2020-09-09T00:03:58Z</time>
      </trkpt>
      <trkpt lat="46.30692" lon="4.59839">
        <ele>481.086</ele>
        <time>2020-09-09T00:04:08Z</time>
      </trkpt>
      <trkpt lat="46.30698" lon="4.59861">
        <ele>480.057</ele>
        <time>2020-09-09T00:04:18Z</time>
      </trkpt>
      <trkpt lat="46.30708" lon="4.59887">
        <ele>480.034</ele>
        <time>2020-09-09T00:04:28Z</time>
      </trkpt>
      <trkpt lat="46.30747" lon="4.59966">
        <ele>474.02</ele>
        <time>2020-09-09T00:04:38Z</time>
      </trkpt>
      <trkpt lat="46.30761" lon="4.59984">
        <ele>473.088</ele>
        <time>2020-09-09T00:04:48Z</time>
      </trkpt>
      <trkpt lat="46.30761" lon="4.60011">
        <ele>469.048</ele>
        <time>2020-09-09T00:04:58Z</time>
      </trkpt>
      <trkpt lat="46.30757" lon="4.60032">
        <ele>468.024</ele>
        <time>2020-09-09T00:05:08Z</time>
      </trkpt>
      <trkpt lat="46.30772" lon="4.60043">
        <ele>469.066</ele>
        <time>2020-09-09T00:05:18Z</time>
      </trkpt>
      <trkpt lat="46.30753" lon="4.60199">
        <ele>464.013</ele>
        <time>2020-09-09T00:05:28Z</time>
      </trkpt>
      <trkpt lat="46.30748" lon="4.60218">
        <ele>464.043</ele>
        <time>2020-09-09T00:05:38Z</time>
      </trkpt>
      <trkpt lat="46.30685" lon="4.60252">
        <ele>465.007</ele>
        <time>2020-09-09T00:05:48Z</time>
      </trkpt>
      <trkpt lat="46.30626" lon="4.60309">
        <ele>465.008</ele>
        <time>2020-09-09T00:05:58Z</time>
      </trkpt>
      <trkpt lat="46.30573" lon="4.60386">
        <ele>459.026</ele>
        <time>2020-09-09T00:06:08Z</time>
      </trkpt>
      <trkpt lat="46.30458" lon="4.60567">
        <ele>453.087</ele>
        <time>2020-09-09T00:06:18Z</time>
      </trkpt>
      <trkpt lat="46.30394" lon="4.60649">
        <ele>456.084</ele>
        <time>2020-09-09T00:06:28Z</time>
      </trkpt>
      <trkpt lat="46.30361" lon="4.60677">
        <ele>461.05</ele>
        <time>2020-09-09T00:06:38Z</time>
      </trkpt>
      <trkpt lat="46.30299" lon="4.60738">
        <ele>460.028</ele>
        <time>2020-09-09T00:06:48Z</time>
      </trkpt>
      <trkpt lat="46.30292" lon="4.6075">
        <ele>464.058</ele>
        <time>2020-09-09T00:06:58Z</time>
      </trkpt>
      <trkpt lat="46.30285" lon="4.60771">
        <ele>464.044</ele>
        <time>2020-09-09T00:07:08Z</time>
      </trkpt>
      <trkpt lat="46.30285" lon="4.60797">
        <ele>465.076</ele>
        <time>2020-09-09T00:07:18Z</time>
      </trkpt>
      <trkpt lat="46.30288" lon="4.60814">
        <ele>465.056</ele>
        <time>2020-09-09T00:07:28Z</time>
      </trkpt>
      <trkpt lat="46.30304" lon="4.60846">
        <ele>468.059</ele>
        <time>2020-09-09T00:07:38Z</time>
      </trkpt>
      <trkpt lat="46.30368" lon="4.6095">
        <ele>474.014</ele>
        <time>2020-09-09T00:07:48Z</time>
      </trkpt>
      <trkpt lat="46.30386" lon="4.60968">
        <ele>474.008</ele>
        <time>2020-09-09T00:07:58Z</time>
      </trkpt>
      <trkpt lat="46.30444" lon="4.61007">
        <ele>477.01</ele>
        <time>2020-09-09T00:08:08Z</time>
      </trkpt>
      <trkpt lat="46.30467" lon="4.61029">
        <ele>478.081</ele>
        <time>2020-09-09T00:08:18Z</time>
      </trkpt>
      <trkpt lat="46.30478" lon="4.61043">
        <ele>479.098</ele>
        <time>2020-09-09T00:08:28Z</time>
      </trkpt>
      <trkpt lat="46.30497" lon="4.6108">
        <ele>475.044</ele>
        <time>2020-09-09T00:08:38Z</time>
      </trkpt>
      <trkpt lat="46.30502" lon="4.61099">
        <ele>474.052</ele>
        <time>2020-09-09T00:08:48Z</time>
      </trkpt>
      <trkpt lat="46.30507" lon="4.61144">
        <ele>474.042</ele>
        <time>2020-09-09T00:08:58Z</time>
      </trkpt>
      <trkpt lat="46.30508" lon="4.61172">
        <ele>473.038</ele>
        <time>2020-09-09T00:09:08Z</time>
      </trkpt>
      <trkpt lat="46.30505" lon="4.61231">
        <ele>473.06</ele>
        <time>2020-09-09T00:09:18Z</time>
      </trkpt>
      <trkpt lat="46.30479" lon="4.61472">
        <ele>477.024</ele>
        <time>2020-09-09T00:09:28Z</time>
      </trkpt>
      <trkpt lat="46.30479" lon="4.61521">
        <ele>479.004</ele>
        <time>2020-09-09T00:09:38Z</time>
      </trkpt>
      <trkpt lat="46.30482" lon="4.61552">
        <ele>479.014</ele>
        <time>2020-09-09T00:09:48Z</time>
      </trkpt>
      <trkpt lat="46.30491" lon="4.61606">
        <ele>480.008</ele>
        <time>2020-09-09T00:09:58Z</time>
      </trkpt>
      <trkpt lat="46.30502" lon="4.6164">
        <ele>481.057</ele>
        <time>2020-09-09T00:10:08Z</time>
      </trkpt>
      <trkpt lat="46.30542" lon="4.61738">
        <ele>486.068</ele>
        <time>2020-09-09T00:10:18Z</time>
      </trkpt>
      <trkpt lat="46.30566" lon="4.61749">
        <ele>490.075</ele>
        <time>2020-09-09T00:10:28Z</time>
      </trkpt>
      <trkpt lat="46.30593" lon="4.61759">
        <ele>491.071</ele>
        <time>2020-09-09T00:10:38Z</time>
      </trkpt>
      <trkpt lat="46.30612" lon="4.61754">
        <ele>491.049</ele>
        <time>2020-09-09T00:10:48Z</time>
      </trkpt>
      <trkpt lat="46.30624" lon="4.61746">
        <ele>491.039</ele>
        <time>2020-09-09T00:10:58Z</time>
      </trkpt>
      <trkpt lat="46.30636" lon="4.61733">
        <ele>486.015</ele>
        <time>2020-09-09T00:11:08Z</time>
      </trkpt>
      <trkpt lat="46.30665" lon="4.6169">
        <ele>485.017</ele>
        <time>2020-09-09T00:11:18Z</time>
      </trkpt>
      <trkpt lat="46.30691" lon="4.61656">
        <ele>479.087</ele>
        <time>2020-09-09T00:11:28Z</time>
      </trkpt>
      <trkpt lat="46.3072" lon="4.61634">
        <ele>478.042</ele>
        <time>2020-09-09T00:11:38Z</time>
      </trkpt>
      <trkpt lat="46.30759" lon="4.61612">
        <ele>478.026</ele>
        <time>2020-09-09T00:11:48Z</time>
      </trkpt>
      <trkpt lat="46.30803" lon="4.61605">
        <ele>476.008</ele>
        <time>2020-09-09T00:11:58Z</time>
      </trkpt>
      <trkpt lat="46.30829" lon="4.61606">
        <ele>476.073</ele>
        <time>2020-09-09T00:12:08Z</time>
      </trkpt>
      <trkpt lat="46.30861" lon="4.61616">
        <ele>471.024</ele>
        <time>2020-09-09T00:12:18Z</time>
      </trkpt>
      <trkpt lat="46.30871" lon="4.6162">
        <ele>471.071</ele>
        <time>2020-09-09T00:12:28Z</time>
      </trkpt>
      <trkpt lat="46.30892" lon="4.61622">
        <ele>469.037</ele>
        <time>2020-09-09T00:12:38Z</time>
      </trkpt>
      <trkpt lat="46.30909" lon="4.61618">
        <ele>469.045</ele>
        <time>2020-09-09T00:12:48Z</time>
      </trkpt>
      <trkpt lat="46.30923" lon="4.61632">
        <ele>469.095</ele>
        <time>2020-09-09T00:12:58Z</time>
      </trkpt>
      <trkpt lat="46.3093" lon="4.61646">
        <ele>469.031</ele>
        <time>2020-09-09T00:13:08Z</time>
      </trkpt>
      <trkpt lat="46.30951" lon="4.61671">
        <ele>467.093</ele>
        <time>2020-09-09T00:13:18Z</time>
      </trkpt>
      <trkpt lat="46.30966" lon="4.61684">
        <ele>466.025</ele>
        <time>2020-09-09T00:13:28Z</time>
      </trkpt>
      <trkpt lat="46.31063" lon="4.61682">
        <ele>458.026</ele>
        <time>2020-09-09T00:13:38Z</time>
      </trkpt>
      <trkpt lat="46.31102" lon="4.61683">
        <ele>456.008</ele>
        <time>2020-09-09T00:13:48Z</time>
      </trkpt>
      <trkpt lat="46.31131" lon="4.61691">
        <ele>453.008</ele>
        <time>2020-09-09T00:13:58Z</time>
      </trkpt>
      <trkpt lat="46.31143" lon="4.617">
        <ele>451.097</ele>
        <time>2020-09-09T00:14:08Z</time>
      </trkpt>
      <trkpt lat="46.31153" lon="4.6171">
        <ele>452.018</ele>
        <time>2020-09-09T00:14:18Z</time>
      </trkpt>
      <trkpt lat="46.31179" lon="4.6171">
        <ele>453.055</ele>
        <time>2020-09-09T00:14:28Z</time>
      </trkpt>
      <trkpt lat="46.31231" lon="4.61644">
        <ele>447.011</ele>
        <time>2020-09-09T00:14:38Z</time>
      </trkpt>
      <trkpt lat="46.31255" lon="4.61618">
        <ele>446.099</ele>
        <time>2020-09-09T00:14:48Z</time>
      </trkpt>
      <trkpt lat="46.31278" lon="4.61602">
        <ele>446.059</ele>
        <time>2020-09-09T00:14:58Z</time>
      </trkpt>
      <trkpt lat="46.31302" lon="4.61597">
        <ele>446.055</ele>
        <time>2020-09-09T00:15:08Z</time>
      </trkpt>
      <trkpt lat="46.31321" lon="4.61601">
        <ele>446.097</ele>
        <time>2020-09-09T00:15:18Z</time>
      </trkpt>
      <trkpt lat="46.31343" lon="4.61612">
        <ele>446.074</ele>
        <time>2020-09-09T00:15:28Z</time>
      </trkpt>
      <trkpt lat="46.31452" lon="4.6172">
        <ele>439.056</ele>
        <time>2020-09-09T00:15:38Z</time>
      </trkpt>
      <trkpt lat="46.31485" lon="4.61746">
        <ele>445.021</ele>
        <time>2020-09-09T00:15:48Z</time>
      </trkpt>
      <trkpt lat="46.31497" lon="4.61751">
        <ele>445.008</ele>
        <time>2020-09-09T00:15:58Z</time>
      </trkpt>
      <trkpt lat="46.31509" lon="4.6175">
        <ele>445.062</ele>
        <time>2020-09-09T00:16:08Z</time>
      </trkpt>
      <trkpt lat="46.31519" lon="4.61745">
        <ele>445.013</ele>
        <time>2020-09-09T00:16:18Z</time>
      </trkpt>
      <trkpt lat="46.31552" lon="4.6172">
        <ele>437.06</ele>
        <time>2020-09-09T00:16:28Z</time>
      </trkpt>
      <trkpt lat="46.31577" lon="4.61708">
        <ele>436.086</ele>
        <time>2020-09-09T00:16:38Z</time>
      </trkpt>
      <trkpt lat="46.31615" lon="4.61704">
        <ele>438.084</ele>
        <time>2020-09-09T00:16:48Z</time>
      </trkpt>
      <trkpt lat="46.31645" lon="4.61696">
        <ele>439.024</ele>
        <time>2020-09-09T00:16:58Z</time>
      </trkpt>
      <trkpt lat="46.31678" lon="4.61682">
        <ele>438.06</ele>
        <time>2020-09-09T00:17:08Z</time>
      </trkpt>
      <trkpt lat="46.31772" lon="4.61665">
        <ele>434.052</ele>
        <time>2020-09-09T00:17:18Z</time>
      </trkpt>
      <trkpt lat="46.31868" lon="4.61658">
        <ele>425.027</ele>
        <time>2020-09-09T00:17:28Z</time>
      </trkpt>
      <trkpt lat="46.31898" lon="4.61663">
        <ele>426.068</ele>
        <time>2020-09-09T00:17:38Z</time>
      </trkpt>
      <trkpt lat="46.3191" lon="4.61669">
        <ele>426.014</ele>
        <time>2020-09-09T00:17:48Z</time>
      </trkpt>
      <trkpt lat="46.3192" lon="4.61681">
        <ele>426.008</ele>
        <time>2020-09-09T00:17:58Z</time>
      </trkpt>
      <trkpt lat="46.31926" lon="4.61703">
        <ele>426.037</ele>
        <time>2020-09-09T00:18:08Z</time>
      </trkpt>
      <trkpt lat="46.31926" lon="4.61717">
        <ele>425.088</ele>
        <time>2020-09-09T00:18:18Z</time>
      </trkpt>
      <trkpt lat="46.31915" lon="4.61821">
        <ele>427.085</ele>
        <time>2020-09-09T00:18:28Z</time>
      </trkpt>
      <trkpt lat="46.31916" lon="4.61838">
        <ele>428.051</ele>
        <time>2020-09-09T00:18:38Z</time>
      </trkpt>
      <trkpt lat="46.31919" lon="4.61851">
        <ele>428.059</ele>
        <time>2020-09-09T00:18:48Z</time>
      </trkpt>
      <trkpt lat="46.31927" lon="4.61858">
        <ele>428.019</ele>
        <time>2020-09-09T00:18:58Z</time>
      </trkpt>
      <trkpt lat="46.31937" lon="4.61864">
        <ele>427.075</ele>
        <time>2020-09-09T00:19:08Z</time>
      </trkpt>
      <trkpt lat="46.31954" lon="4.61865">
        <ele>421.047</ele>
        <time>2020-09-09T00:19:18Z</time>
      </trkpt>
      <trkpt lat="46.32018" lon="4.61861">
        <ele>419.094</ele>
        <time>2020-09-09T00:19:28Z</time>
      </trkpt>
      <trkpt lat="46.32039" lon="4.61865">
        <ele>416.057</ele>
        <time>2020-09-09T00:19:38Z</time>
      </trkpt>
      <trkpt lat="46.32057" lon="4.6186">
        <ele>415.022</ele>
        <time>2020-09-09T00:19:48Z</time>
      </trkpt>
      <trkpt lat="46.32084" lon="4.6184">
        <ele>414.008</ele>
        <time>2020-09-09T00:19:58Z</time>
      </trkpt>
      <trkpt lat="46.32108" lon="4.61834">
        <ele>414.054</ele>
        <time>2020-09-09T00:20:08Z</time>
      </trkpt>
      <trkpt lat="46.32141" lon="4.61844">
        <ele>414.045</ele>
        <time>2020-09-09T00:20:18Z</time>
      </trkpt>
      <trkpt lat="46.32157" lon="4.61844">
        <ele>414.082</ele>
        <time>2020-09-09T00:20:28Z</time>
      </trkpt>
      <trkpt lat="46.32192" lon="4.61839">
        <ele>417.058</ele>
        <time>2020-09-09T00:20:38Z</time>
      </trkpt>
      <trkpt lat="46.32276" lon="4.61756">
        <ele>410.026</ele>
        <time>2020-09-09T00:20:48Z</time>
      </trkpt>
      <trkpt lat="46.32301" lon="4.61721">
        <ele>403.046</ele>
        <time>2020-09-09T00:20:58Z</time>
      </trkpt>
      <trkpt lat="46.32333" lon="4.61669">
        <ele>402.082</ele>
        <time>2020-09-09T00:21:08Z</time>
      </trkpt>
      <trkpt lat="46.32345" lon="4.61645">
        <ele>398.054</ele>
        <time>2020-09-09T00:21:18Z</time>
      </trkpt>
      <trkpt lat="46.32375" lon="4.61568">
        <ele>392.023</ele>
        <time>2020-09-09T00:21:28Z</time>
      </trkpt>
      <trkpt lat="46.32391" lon="4.61546">
        <ele>390.083</ele>
        <time>2020-09-09T00:21:38Z</time>
      </trkpt>
      <trkpt lat="46.32413" lon="4.61526">
        <ele>390.011</ele>
        <time>2020-09-09T00:21:48Z</time>
      </trkpt>
      <trkpt lat="46.32442" lon="4.61508">
        <ele>388.008</ele>
        <time>2020-09-09T00:21:58Z</time>
      </trkpt>
      <trkpt lat="46.32476" lon="4.61498">
        <ele>387.017</ele>
        <time>2020-09-09T00:22:08Z</time>
      </trkpt>
      <trkpt lat="46.32534" lon="4.6149">
        <ele>380.078</ele>
        <time>2020-09-09T00:22:18Z</time>
      </trkpt>
      <trkpt lat="46.32647" lon="4.61471">
        <ele>373.015</ele>
        <time>2020-09-09T00:22:28Z</time>
      </trkpt>
      <trkpt lat="46.32799" lon="4.61469">
        <ele>363.081</ele>
        <time>2020-09-09T00:22:38Z</time>
      </trkpt>
      <trkpt lat="46.32817" lon="4.61465">
        <ele>363.089</ele>
        <time>2020-09-09T00:22:48Z</time>
      </trkpt>
      <trkpt lat="46.32836" lon="4.61452">
        <ele>362.069</ele>
        <time>2020-09-09T00:22:58Z</time>
      </trkpt>
      <trkpt lat="46.32855" lon="4.61433">
        <ele>361.065</ele>
        <time>2020-09-09T00:23:08Z</time>
      </trkpt>
      <trkpt lat="46.32856" lon="4.61427">
        <ele>358.037</ele>
        <time>2020-09-09T00:23:18Z</time>
      </trkpt>
      <trkpt lat="46.32903" lon="4.61456">
        <ele>357.013</ele>
        <time>2020-09-09T00:23:28Z</time>
      </trkpt>
      <trkpt lat="46.32931" lon="4.61467">
        <ele>359.043</ele>
        <time>2020-09-09T00:23:38Z</time>
      </trkpt>
      <trkpt lat="46.32938" lon="4.61468">
        <ele>359.007</ele>
        <time>2020-09-09T00:23:48Z</time>
      </trkpt>
      <trkpt lat="46.32945" lon="4.61464">
        <ele>356.008</ele>
        <time>2020-09-09T00:23:58Z</time>
      </trkpt>
      <trkpt lat="46.32955" lon="4.6145">
        <ele>356.056</ele>
        <time>2020-09-09T00:24:08Z</time>
      </trkpt>
      <trkpt lat="46.32963" lon="4.61432">
        <ele>355.027</ele>
        <time>2020-09-09T00:24:18Z</time>
      </trkpt>
      <trkpt lat="46.32964" lon="4.61419">
        <ele>354.054</ele>
        <time>2020-09-09T00:24:28Z</time>
      </trkpt>
      <trkpt lat="46.32971" lon="4.61402">
        <ele>349.04</ele>
        <time>2020-09-09T00:24:38Z</time>
      </trkpt>
      <trkpt lat="46.33001" lon="4.61414">
        <ele>354.048</ele>
        <time>2020-09-09T00:24:48Z</time>
      </trkpt>
      <trkpt lat="46.3303" lon="4.61416">
        <ele>352.098</ele>
        <time>2020-09-09T00:24:58Z</time>
      </trkpt>
      <trkpt lat="46.33401" lon="4.61395">
        <ele>342.084</ele>
        <time>2020-09-09T00:25:08Z</time>
      </trkpt>
      <trkpt lat="46.33479" lon="4.61403">
        <ele>342.026</ele>
        <time>2020-09-09T00:25:18Z</time>
      </trkpt>
      <trkpt lat="46.33615" lon="4.61429">
        <ele>341.019</ele>
        <time>2020-09-09T00:25:28Z</time>
      </trkpt>
      <trkpt lat="46.33714" lon="4.61483">
        <ele>338.009</ele>
        <time>2020-09-09T00:25:38Z</time>
      </trkpt>
      <trkpt lat="46.3377" lon="4.61516">
        <ele>339.019</ele>
        <time>2020-09-09T00:25:48Z</time>
      </trkpt>
      <trkpt lat="46.33847" lon="4.61557">
        <ele>336.008</ele>
        <time>2020-09-09T00:25:58Z</time>
      </trkpt>
      <trkpt lat="46.33889" lon="4.61584">
        <ele>334.096</ele>
        <time>2020-09-09T00:26:08Z</time>
      </trkpt>
      <trkpt lat="46.34038" lon="4.61727">
        <ele>327.067</ele>
        <time>2020-09-09T00:26:18Z</time>
      </trkpt>
      <trkpt lat="46.34167" lon="4.61907">
        <ele>326.074</ele>
        <time>2020-09-09T00:26:28Z</time>
      </trkpt>
      <trkpt lat="46.34201" lon="4.61939">
        <ele>324.09</ele>
        <time>2020-09-09T00:26:38Z</time>
      </trkpt>
      <trkpt lat="46.34228" lon="4.6195">
        <ele>322.058</ele>
        <time>2020-09-09T00:26:48Z</time>
      </trkpt>
      <trkpt lat="46.3428" lon="4.61967">
        <ele>320.058</ele>
        <time>2020-09-09T00:26:58Z</time>
      </trkpt>
      <trkpt lat="46.34314" lon="4.61986">
        <ele>320.084</ele>
        <time>2020-09-09T00:27:08Z</time>
      </trkpt>
      <trkpt lat="46.34348" lon="4.62014">
        <ele>321.046</ele>
        <time>2020-09-09T00:27:18Z</time>
      </trkpt>
      <trkpt lat="46.34395" lon="4.62043">
        <ele>319.063</ele>
        <time>2020-09-09T00:27:28Z</time>
      </trkpt>
      <trkpt lat="46.34454" lon="4.62068">
        <ele>317.044</ele>
        <time>2020-09-09T00:27:38Z</time>
      </trkpt>
      <trkpt lat="46.34461" lon="4.6208">
        <ele>320.018</ele>
        <time>2020-09-09T00:27:48Z</time>
      </trkpt>
      <trkpt lat="46.34526" lon="4.6213">
        <ele>321.008</ele>
        <time>2020-09-09T00:27:58Z</time>
      </trkpt>
      <trkpt lat="46.34565" lon="4.62148">
        <ele>322.031</ele>
        <time>2020-09-09T00:28:08Z</time>
      </trkpt>
      <trkpt lat="46.34609" lon="4.62178">
        <ele>328.072</ele>
        <time>2020-09-09T00:28:18Z</time>
      </trkpt>
      <trkpt lat="46.34632" lon="4.62191">
        <ele>329.019</ele>
        <time>2020-09-09T00:28:28Z</time>
      </trkpt>
      <trkpt lat="46.34651" lon="4.62197">
        <ele>329.085</ele>
        <time>2020-09-09T00:28:38Z</time>
      </trkpt>
      <trkpt lat="46.34671" lon="4.62206">
        <ele>329.083</ele>
        <time>2020-09-09T00:28:48Z</time>
      </trkpt>
      <trkpt lat="46.34711" lon="4.62242">
        <ele>330.043</ele>
        <time>2020-09-09T00:28:58Z</time>
      </trkpt>
      <trkpt lat="46.34702" lon="4.62249">
        <ele>332.099</ele>
        <time>2020-09-09T00:29:08Z</time>
      </trkpt>
      <trkpt lat="46.34672" lon="4.62306">
        <ele>335.051</ele>
        <time>2020-09-09T00:29:18Z</time>
      </trkpt>
      <trkpt lat="46.34665" lon="4.62311">
        <ele>335.016</ele>
        <time>2020-09-09T00:29:28Z</time>
      </trkpt>
      <trkpt lat="46.34652" lon="4.62311">
        <ele>335.076</ele>
        <time>2020-09-09T00:29:38Z</time>
      </trkpt>
      <trkpt lat="46.34625" lon="4.62303">
        <ele>335.013</ele>
        <time>2020-09-09T00:29:48Z</time>
      </trkpt>
      <trkpt lat="46.34599" lon="4.62298">
        <ele>336.008</ele>
        <time>2020-09-09T00:29:58Z</time>
      </trkpt>
      <trkpt lat="46.34586" lon="4.62299">
        <ele>336.026</ele>
        <time>2020-09-09T00:30:08Z</time>
      </trkpt>
      <trkpt lat="46.34573" lon="4.62308">
        <ele>336.087</ele>
        <time>2020-09-09T00:30:18Z</time>
      </trkpt>
      <trkpt lat="46.34497" lon="4.62382">
        <ele>347.094</ele>
        <time>2020-09-09T00:30:28Z</time>
      </trkpt>
      <trkpt lat="46.34488" lon="4.62397">
        <ele>348.02</ele>
        <time>2020-09-09T00:30:38Z</time>
      </trkpt>
      <trkpt lat="46.34485" lon="4.6241">
        <ele>348.068</ele>
        <time>2020-09-09T00:30:48Z</time>
      </trkpt>
      <trkpt lat="46.34483" lon="4.62423">
        <ele>353.018</ele>
        <time>2020-09-09T00:30:58Z</time>
      </trkpt>
      <trkpt lat="46.34485" lon="4.6244">
        <ele>354.054</ele>
        <time>2020-09-09T00:31:08Z</time>
      </trkpt>
      <trkpt lat="46.34491" lon="4.62456">
        <ele>354.056</ele>
        <time>2020-09-09T00:31:18Z</time>
      </trkpt>
      <trkpt lat="46.34499" lon="4.62465">
        <ele>354.051</ele>
        <time>2020-09-09T00:31:28Z</time>
      </trkpt>
      <trkpt lat="46.34519" lon="4.62473">
        <ele>353.001</ele>
        <time>2020-09-09T00:31:38Z</time>
      </trkpt>
      <trkpt lat="46.34512" lon="4.62485">
        <ele>354.011</ele>
        <time>2020-09-09T00:31:48Z</time>
      </trkpt>
      <trkpt lat="46.34505" lon="4.62507">
        <ele>358.008</ele>
        <time>2020-09-09T00:31:58Z</time>
      </trkpt>
      <trkpt lat="46.34502" lon="4.62521">
        <ele>358.05</ele>
        <time>2020-09-09T00:32:08Z</time>
      </trkpt>
      <trkpt lat="46.34502" lon="4.62533">
        <ele>359.081</ele>
        <time>2020-09-09T00:32:18Z</time>
      </trkpt>
      <trkpt lat="46.34489" lon="4.62568">
        <ele>360.058</ele>
        <time>2020-09-09T00:32:28Z</time>
      </trkpt>
      <trkpt lat="46.34468" lon="4.62584">
        <ele>363.044</ele>
        <time>2020-09-09T00:32:38Z</time>
      </trkpt>
      <trkpt lat="46.34466" lon="4.62589">
        <ele>364.072</ele>
        <time>2020-09-09T00:32:48Z</time>
      </trkpt>
      <trkpt lat="46.34436" lon="4.62589">
        <ele>368.022</ele>
        <time>2020-09-09T00:32:58Z</time>
      </trkpt>
      <trkpt lat="46.3443" lon="4.62584">
        <ele>368.078</ele>
        <time>2020-09-09T00:33:08Z</time>
      </trkpt>
      <trkpt lat="46.34416" lon="4.62559">
        <ele>364.01</ele>
        <time>2020-09-09T00:33:18Z</time>
      </trkpt>
      <trkpt lat="46.34409" lon="4.62552">
        <ele>364.078</ele>
        <time>2020-09-09T00:33:28Z</time>
      </trkpt>
      <trkpt lat="46.34355" lon="4.62567">
        <ele>369.033</ele>
        <time>2020-09-09T00:33:38Z</time>
      </trkpt>
      <trkpt lat="46.3433" lon="4.62582">
        <ele>373.026</ele>
        <time>2020-09-09T00:33:48Z</time>
      </trkpt>
      <trkpt lat="46.34301" lon="4.6262">
        <ele>374.008</ele>
        <time>2020-09-09T00:33:58Z</time>
      </trkpt>
      <trkpt lat="46.34289" lon="4.6263">
        <ele>375.072</ele>
        <time>2020-09-09T00:34:08Z</time>
      </trkpt>
      <trkpt lat="46.34266" lon="4.62641">
        <ele>381.083</ele>
        <time>2020-09-09T00:34:18Z</time>
      </trkpt>
      <trkpt lat="46.34249" lon="4.62643">
        <ele>381.01</ele>
        <time>2020-09-09T00:34:28Z</time>
      </trkpt>
      <trkpt lat="46.34243" lon="4.62641">
        <ele>382.066</ele>
        <time>2020-09-09T00:34:38Z</time>
      </trkpt>
      <trkpt lat="46.34236" lon="4.6263">
        <ele>381.024</ele>
        <time>2020-09-09T00:34:48Z</time>
      </trkpt>
      <trkpt lat="46.34221" lon="4.62583">
        <ele>381.084</ele>
        <time>2020-09-09T00:34:58Z</time>
      </trkpt>
      <trkpt lat="46.34212" lon="4.62568">
        <ele>378.03</ele>
        <time>2020-09-09T00:35:08Z</time>
      </trkpt>
      <trkpt lat="46.34203" lon="4.62559">
        <ele>378.022</ele>
        <time>2020-09-09T00:35:18Z</time>
      </trkpt>
      <trkpt lat="46.34193" lon="4.62554">
        <ele>378.054</ele>
        <time>2020-09-09T00:35:28Z</time>
      </trkpt>
      <trkpt lat="46.34163" lon="4.6255">
        <ele>383.056</ele>
        <time>2020-09-09T00:35:38Z</time>
      </trkpt>
      <trkpt lat="46.34135" lon="4.62539">
        <ele>384.011</ele>
        <time>2020-09-09T00:35:48Z</time>
      </trkpt>
      <trkpt lat="46.34125" lon="4.62539">
        <ele>384.008</ele>
        <time>2020-09-09T00:35:58Z</time>
      </trkpt>
      <trkpt lat="46.34098" lon="4.62548">
        <ele>388.06</ele>
        <time>2020-09-09T00:36:08Z</time>
      </trkpt>
      <trkpt lat="46.34061" lon="4.62548">
        <ele>389.071</ele>
        <time>2020-09-09T00:36:18Z</time>
      </trkpt>
      <trkpt lat="46.34026" lon="4.62542">
        <ele>390.018</ele>
        <time>2020-09-09T00:36:28Z</time>
      </trkpt>
      <trkpt lat="46.3401" lon="4.62537">
        <ele>394.064</ele>
        <time>2020-09-09T00:36:38Z</time>
      </trkpt>
      <trkpt lat="46.3399" lon="4.62526">
        <ele>395.012</ele>
        <time>2020-09-09T00:36:48Z</time>
      </trkpt>
      <trkpt lat="46.33974" lon="4.62522">
        <ele>395.062</ele>
        <time>2020-09-09T00:36:58Z</time>
      </trkpt>
      <trkpt lat="46.33953" lon="4.62523">
        <ele>395.018</ele>
        <time>2020-09-09T00:37:08Z</time>
      </trkpt>
      <trkpt lat="46.33942" lon="4.62508">
        <ele>395.09</ele>
        <time>2020-09-09T00:37:18Z</time>
      </trkpt>
      <trkpt lat="46.33924" lon="4.62492">
        <ele>391.024</ele>
        <time>2020-09-09T00:37:28Z</time>
      </trkpt>
      <trkpt lat="46.33911" lon="4.62484">
        <ele>391.004</ele>
        <time>2020-09-09T00:37:38Z</time>
      </trkpt>
      <trkpt lat="46.33901" lon="4.62481">
        <ele>391.014</ele>
        <time>2020-09-09T00:37:48Z</time>
      </trkpt>
      <trkpt lat="46.33882" lon="4.62482">
        <ele>391.008</ele>
        <time>2020-09-09T00:37:58Z</time>
      </trkpt>
      <trkpt lat="46.33871" lon="4.6249">
        <ele>392.047</ele>
        <time>2020-09-09T00:38:08Z</time>
      </trkpt>
      <trkpt lat="46.33863" lon="4.62501">
        <ele>398.038</ele>
        <time>2020-09-09T00:38:18Z</time>
      </trkpt>
      <trkpt lat="46.33857" lon="4.62518">
        <ele>398.075</ele>
        <time>2020-09-09T00:38:28Z</time>
      </trkpt>
      <trkpt lat="46.33845" lon="4.62576">
        <ele>399.021</ele>
        <time>2020-09-09T00:38:38Z</time>
      </trkpt>
      <trkpt lat="46.33837" lon="4.62593">
        <ele>403.059</ele>
        <time>2020-09-09T00:38:48Z</time>
      </trkpt>
      <trkpt lat="46.33819" lon="4.62612">
        <ele>403.039</ele>
        <time>2020-09-09T00:38:58Z</time>
      </trkpt>
      <trkpt lat="46.33796" lon="4.62648">
        <ele>404.025</ele>
        <time>2020-09-09T00:39:08Z</time>
      </trkpt>
      <trkpt lat="46.33781" lon="4.62666">
        <ele>410.077</ele>
        <time>2020-09-09T00:39:18Z</time>
      </trkpt>
      <trkpt lat="46.33765" lon="4.62669">
        <ele>413.027</ele>
        <time>2020-09-09T00:39:28Z</time>
      </trkpt>
      <trkpt lat="46.33754" lon="4.62665">
        <ele>413.068</ele>
        <time>2020-09-09T00:39:38Z</time>
      </trkpt>
      <trkpt lat="46.3373" lon="4.62644">
        <ele>404.014</ele>
        <time>2020-09-09T00:39:48Z</time>
      </trkpt>
      <trkpt lat="46.33724" lon="4.62634">
        <ele>404.008</ele>
        <time>2020-09-09T00:39:58Z</time>
      </trkpt>
      <trkpt lat="46.33707" lon="4.62588">
        <ele>403.087</ele>
        <time>2020-09-09T00:40:08Z</time>
      </trkpt>
      <trkpt lat="46.33686" lon="4.62561">
        <ele>400.028</ele>
        <time>2020-09-09T00:40:18Z</time>
      </trkpt>
      <trkpt lat="46.33672" lon="4.62548">
        <ele>401.095</ele>
        <time>2020-09-09T00:40:28Z</time>
      </trkpt>
      <trkpt lat="46.33645" lon="4.62531">
        <ele>400.021</ele>
        <time>2020-09-09T00:40:38Z</time>
      </trkpt>
      <trkpt lat="46.33598" lon="4.62512">
        <ele>409.039</ele>
        <time>2020-09-09T00:40:48Z</time>
      </trkpt>
      <trkpt lat="46.33588" lon="4.62499">
        <ele>409.059</ele>
        <time>2020-09-09T00:40:58Z</time>
      </trkpt>
      <trkpt lat="46.33583" lon="4.62486">
        <ele>403.085</ele>
        <time>2020-09-09T00:41:08Z</time>
      </trkpt>
      <trkpt lat="46.33575" lon="4.62434">
        <ele>402.047</ele>
        <time>2020-09-09T00:41:18Z</time>
      </trkpt>
      <trkpt lat="46.33569" lon="4.62415">
        <ele>401.086</ele>
        <time>2020-09-09T00:41:28Z</time>
      </trkpt>
      <trkpt lat="46.3356" lon="4.62399">
        <ele>397.06</ele>
        <time>2020-09-09T00:41:38Z</time>
      </trkpt>
      <trkpt lat="46.33549" lon="4.62387">
        <ele>397.026</ele>
        <time>2020-09-09T00:41:48Z</time>
      </trkpt>
      <trkpt lat="46.33533" lon="4.62383">
        <ele>397.008</ele>
        <time>2020-09-09T00:41:58Z</time>
      </trkpt>
      <trkpt lat="46.33518" lon="4.62383">
        <ele>399.013</ele>
        <time>2020-09-09T00:42:08Z</time>
      </trkpt>
      <trkpt lat="46.33466" lon="4.62404">
        <ele>400.044</ele>
        <time>2020-09-09T00:42:18Z</time>
      </trkpt>
      <trkpt lat="46.3344" lon="4.62412">
        <ele>405.051</ele>
        <time>2020-09-09T00:42:28Z</time>
      </trkpt>
      <trkpt lat="46.33418" lon="4.62412">
        <ele>405.037</ele>
        <time>2020-09-09T00:42:38Z</time>
      </trkpt>
      <trkpt lat="46.33398" lon="4.62405">
        <ele>400.085</ele>
        <time>2020-09-09T00:42:48Z</time>
      </trkpt>
      <trkpt lat="46.33385" lon="4.62397">
        <ele>400.095</ele>
        <time>2020-09-09T00:42:58Z</time>
      </trkpt>
      <trkpt lat="46.33374" lon="4.62385">
        <ele>399.081</ele>
        <time>2020-09-09T00:43:08Z</time>
      </trkpt>
      <trkpt lat="46.33336" lon="4.62295">
        <ele>398.063</ele>
        <time>2020-09-09T00:43:18Z</time>
      </trkpt>
      <trkpt lat="46.33326" lon="4.6228">
        <ele>398.049</ele>
        <time>2020-09-09T00:43:28Z</time>
      </trkpt>
      <trkpt lat="46.33306" lon="4.6226">
        <ele>398.002</ele>
        <time>2020-09-09T00:43:38Z</time>
      </trkpt>
      <trkpt lat="46.33246" lon="4.62234">
        <ele>395.022</ele>
        <time>2020-09-09T00:43:48Z</time>
      </trkpt>
      <trkpt lat="46.33221" lon="4.62232">
        <ele>394.008</ele>
        <time>2020-09-09T00:43:58Z</time>
      </trkpt>
      <trkpt lat="46.33196" lon="4.62226">
        <ele>394.069</ele>
        <time>2020-09-09T00:44:08Z</time>
      </trkpt>
      <trkpt lat="46.33184" lon="4.6222">
        <ele>394.09</ele>
        <time>2020-09-09T00:44:18Z</time>
      </trkpt>
      <trkpt lat="46.33162" lon="4.62198">
        <ele>392.087</ele>
        <time>2020-09-09T00:44:28Z</time>
      </trkpt>
      <trkpt lat="46.33124" lon="4.62152">
        <ele>391.073</ele>
        <time>2020-09-09T00:44:38Z</time>
      </trkpt>
      <trkpt lat="46.33121" lon="4.62142">
        <ele>391.051</ele>
        <time>2020-09-09T00:44:48Z</time>
      </trkpt>
      <trkpt lat="46.3312" lon="4.62133">
        <ele>391.081</ele>
        <time>2020-09-09T00:44:58Z</time>
      </trkpt>
      <trkpt lat="46.33136" lon="4.62048">
        <ele>388.077</ele>
        <time>2020-09-09T00:45:08Z</time>
      </trkpt>
      <trkpt lat="46.3314" lon="4.61974">
        <ele>386.099</ele>
        <time>2020-09-09T00:45:18Z</time>
      </trkpt>
      <trkpt lat="46.33139" lon="4.61956">
        <ele>386.024</ele>
        <time>2020-09-09T00:45:28Z</time>
      </trkpt>
      <trkpt lat="46.33133" lon="4.6194">
        <ele>386.004</ele>
        <time>2020-09-09T00:45:38Z</time>
      </trkpt>
      <trkpt lat="46.33119" lon="4.61917">
        <ele>386.014</ele>
        <time>2020-09-09T00:45:48Z</time>
      </trkpt>
      <trkpt lat="46.33085" lon="4.6187">
        <ele>387.008</ele>
        <time>2020-09-09T00:45:58Z</time>
      </trkpt>
      <trkpt lat="46.33095" lon="4.61838">
        <ele>386.087</ele>
        <time>2020-09-09T00:46:08Z</time>
      </trkpt>
      <trkpt lat="46.33073" lon="4.61746">
        <ele>382.048</ele>
        <time>2020-09-09T00:46:18Z</time>
      </trkpt>
      <trkpt lat="46.33065" lon="4.61721">
        <ele>378.015</ele>
        <time>2020-09-09T00:46:28Z</time>
      </trkpt>
      <trkpt lat="46.33056" lon="4.61705">
        <ele>378.021</ele>
        <time>2020-09-09T00:46:38Z</time>
      </trkpt>
      <trkpt lat="46.32954" lon="4.61569">
        <ele>367.049</ele>
        <time>2020-09-09T00:46:48Z</time>
      </trkpt>
      <trkpt lat="46.32901" lon="4.61503">
        <ele>366.069</ele>
        <time>2020-09-09T00:46:58Z</time>
      </trkpt>
      <trkpt lat="46.32866" lon="4.61445">
        <ele>359.075</ele>
        <time>2020-09-09T00:47:08Z</time>
      </trkpt>
      <trkpt lat="46.32855" lon="4.61433">
        <ele>361.087</ele>
        <time>2020-09-09T00:47:18Z</time>
      </trkpt>
      <trkpt lat="46.32856" lon="4.61427">
        <ele>358.022</ele>
        <time>2020-09-09T00:47:28Z</time>
      </trkpt>
      <trkpt lat="46.32852" lon="4.61419">
        <ele>360.062</ele>
        <time>2020-09-09T00:47:38Z</time>
      </trkpt>
      <trkpt lat="46.32841" lon="4.6141">
        <ele>356.008</ele>
        <time>2020-09-09T00:47:48Z</time>
      </trkpt>
      <trkpt lat="46.32833" lon="4.61409">
        <ele>356.008</ele>
        <time>2020-09-09T00:47:58Z</time>
      </trkpt>
      <trkpt lat="46.32783" lon="4.61422">
        <ele>362.017</ele>
        <time>2020-09-09T00:48:08Z</time>
      </trkpt>
      <trkpt lat="46.32771" lon="4.61422">
        <ele>365.038</ele>
        <time>2020-09-09T00:48:18Z</time>
      </trkpt>
      <trkpt lat="46.32763" lon="4.61417">
        <ele>364.095</ele>
        <time>2020-09-09T00:48:28Z</time>
      </trkpt>
      <trkpt lat="46.32758" lon="4.61407">
        <ele>361.011</ele>
        <time>2020-09-09T00:48:38Z</time>
      </trkpt>
      <trkpt lat="46.32757" lon="4.61393">
        <ele>361.059</ele>
        <time>2020-09-09T00:48:48Z</time>
      </trkpt>
      <trkpt lat="46.32759" lon="4.61383">
        <ele>361.059</ele>
        <time>2020-09-09T00:48:58Z</time>
      </trkpt>
      <trkpt lat="46.32765" lon="4.61374">
        <ele>360.085</ele>
        <time>2020-09-09T00:49:08Z</time>
      </trkpt>
      <trkpt lat="46.32778" lon="4.61359">
        <ele>356.047</ele>
        <time>2020-09-09T00:49:18Z</time>
      </trkpt>
      <trkpt lat="46.32782" lon="4.61351">
        <ele>356.016</ele>
        <time>2020-09-09T00:49:28Z</time>
      </trkpt>
      <trkpt lat="46.32783" lon="4.61337">
        <ele>355.076</ele>
        <time>2020-09-09T00:49:38Z</time>
      </trkpt>
      <trkpt lat="46.3278" lon="4.61319">
        <ele>352.013</ele>
        <time>2020-09-09T00:49:48Z</time>
      </trkpt>
      <trkpt lat="46.32774" lon="4.61306">
        <ele>352.008</ele>
        <time>2020-09-09T00:49:58Z</time>
      </trkpt>
      <trkpt lat="46.32763" lon="4.61296">
        <ele>355.076</ele>
        <time>2020-09-09T00:50:08Z</time>
      </trkpt>
      <trkpt lat="46.32753" lon="4.61282">
        <ele>356.057</ele>
        <time>2020-09-09T00:50:18Z</time>
      </trkpt>
      <trkpt lat="46.3275" lon="4.61269">
        <ele>355.094</ele>
        <time>2020-09-09T00:50:28Z</time>
      </trkpt>
      <trkpt lat="46.32704" lon="4.61237">
        <ele>353.06</ele>
        <time>2020-09-09T00:50:38Z</time>
      </trkpt>
      <trkpt lat="46.32679" lon="4.61215">
        <ele>356.058</ele>
        <time>2020-09-09T00:50:48Z</time>
      </trkpt>
      <trkpt lat="46.32622" lon="4.61153">
        <ele>354.018</ele>
        <time>2020-09-09T00:50:58Z</time>
      </trkpt>
      <trkpt lat="46.32601" lon="4.61138">
        <ele>357.044</ele>
        <time>2020-09-09T00:51:08Z</time>
      </trkpt>
      <trkpt lat="46.32544" lon="4.61113">
        <ele>358.026</ele>
        <time>2020-09-09T00:51:18Z</time>
      </trkpt>
      <trkpt lat="46.32519" lon="4.611">
        <ele>361.028</ele>
        <time>2020-09-09T00:51:28Z</time>
      </trkpt>
      <trkpt lat="46.32503" lon="4.61089">
        <ele>362.089</ele>
        <time>2020-09-09T00:51:38Z</time>
      </trkpt>
      <trkpt lat="46.32481" lon="4.61069">
        <ele>362.017</ele>
        <time>2020-09-09T00:51:48Z</time>
      </trkpt>
      <trkpt lat="46.32416" lon="4.61001">
        <ele>365.008</ele>
        <time>2020-09-09T00:51:58Z</time>
      </trkpt>
      <trkpt lat="46.32398" lon="4.60988">
        <ele>363.037</ele>
        <time>2020-09-09T00:52:08Z</time>
      </trkpt>
      <trkpt lat="46.32384" lon="4.60981">
        <ele>363.078</ele>
        <time>2020-09-09T00:52:18Z</time>
      </trkpt>
      <trkpt lat="46.3237" lon="4.60978">
        <ele>363.045</ele>
        <time>2020-09-09T00:52:28Z</time>
      </trkpt>
      <trkpt lat="46.32355" lon="4.60979">
        <ele>365.071</ele>
        <time>2020-09-09T00:52:38Z</time>
      </trkpt>
      <trkpt lat="46.3234" lon="4.60983">
        <ele>365.059</ele>
        <time>2020-09-09T00:52:48Z</time>
      </trkpt>
      <trkpt lat="46.3204" lon="4.61094">
        <ele>371.079</ele>
        <time>2020-09-09T00:52:58Z</time>
      </trkpt>
      <trkpt lat="46.31989" lon="4.61109">
        <ele>371.095</ele>
        <time>2020-09-09T00:53:08Z</time>
      </trkpt>
      <trkpt lat="46.31966" lon="4.61105">
        <ele>371.017</ele>
        <time>2020-09-09T00:53:18Z</time>
      </trkpt>
      <trkpt lat="46.31951" lon="4.61097">
        <ele>372.018</ele>
        <time>2020-09-09T00:53:28Z</time>
      </trkpt>
      <trkpt lat="46.31939" lon="4.61085">
        <ele>372.098</ele>
        <time>2020-09-09T00:53:38Z</time>
      </trkpt>
      <trkpt lat="46.31916" lon="4.6105">
        <ele>372.017</ele>
        <time>2020-09-09T00:53:48Z</time>
      </trkpt>
      <trkpt lat="46.31905" lon="4.61036">
        <ele>372.008</ele>
        <time>2020-09-09T00:53:58Z</time>
      </trkpt>
      <trkpt lat="46.31894" lon="4.61027">
        <ele>372.086</ele>
        <time>2020-09-09T00:54:08Z</time>
      </trkpt>
      <trkpt lat="46.31881" lon="4.61019">
        <ele>373.047</ele>
        <time>2020-09-09T00:54:18Z</time>
      </trkpt>
      <trkpt lat="46.31864" lon="4.61013">
        <ele>374.034</ele>
        <time>2020-09-09T00:54:28Z</time>
      </trkpt>
      <trkpt lat="46.3181" lon="4.61004">
        <ele>379.03</ele>
        <time>2020-09-09T00:54:38Z</time>
      </trkpt>
      <trkpt lat="46.31786" lon="4.60997">
        <ele>380.038</ele>
        <time>2020-09-09T00:54:48Z</time>
      </trkpt>
      <trkpt lat="46.31765" lon="4.60989">
        <ele>383.018</ele>
        <time>2020-09-09T00:54:58Z</time>
      </trkpt>
      <trkpt lat="46.31711" lon="4.60958">
        <ele>383.074</ele>
        <time>2020-09-09T00:55:08Z</time>
      </trkpt>
      <trkpt lat="46.31621" lon="4.60898">
        <ele>390.056</ele>
        <time>2020-09-09T00:55:18Z</time>
      </trkpt>
      <trkpt lat="46.31598" lon="4.60886">
        <ele>395.053</ele>
        <time>2020-09-09T00:55:28Z</time>
      </trkpt>
      <trkpt lat="46.31563" lon="4.60876">
        <ele>396.004</ele>
        <time>2020-09-09T00:55:38Z</time>
      </trkpt>
      <trkpt lat="46.31449" lon="4.60867">
        <ele>403.014</ele>
        <time>2020-09-09T00:55:48Z</time>
      </trkpt>
      <trkpt lat="46.31421" lon="4.60861">
        <ele>407.008</ele>
        <time>2020-09-09T00:55:58Z</time>
      </trkpt>
      <trkpt lat="46.31391" lon="4.60847">
        <ele>407.09</ele>
        <time>2020-09-09T00:56:08Z</time>
      </trkpt>
      <trkpt lat="46.31322" lon="4.6079">
        <ele>408.011</ele>
        <time>2020-09-09T00:56:18Z</time>
      </trkpt>
      <trkpt lat="46.31308" lon="4.60783">
        <ele>408.068</ele>
        <time>2020-09-09T00:56:28Z</time>
      </trkpt>
      <trkpt lat="46.31291" lon="4.60781">
        <ele>407.074</ele>
        <time>2020-09-09T00:56:38Z</time>
      </trkpt>
      <trkpt lat="46.31193" lon="4.60787">
        <ele>406.052</ele>
        <time>2020-09-09T00:56:48Z</time>
      </trkpt>
      <trkpt lat="46.31175" lon="4.60785">
        <ele>406.022</ele>
        <time>2020-09-09T00:56:58Z</time>
      </trkpt>
      <trkpt lat="46.31159" lon="4.60778">
        <ele>406.018</ele>
        <time>2020-09-09T00:57:08Z</time>
      </trkpt>
      <trkpt lat="46.31143" lon="4.60765">
        <ele>406.09</ele>
        <time>2020-09-09T00:57:18Z</time>
      </trkpt>
      <trkpt lat="46.3113" lon="4.60748">
        <ele>406.075</ele>
        <time>2020-09-09T00:57:28Z</time>
      </trkpt>
      <trkpt lat="46.31118" lon="4.60724">
        <ele>406.028</ele>
        <time>2020-09-09T00:57:38Z</time>
      </trkpt>
      <trkpt lat="46.31112" lon="4.60699">
        <ele>406.02</ele>
        <time>2020-09-09T00:57:48Z</time>
      </trkpt>
      <trkpt lat="46.31109" lon="4.6067">
        <ele>407.008</ele>
        <time>2020-09-09T00:57:58Z</time>
      </trkpt>
      <trkpt lat="46.31112" lon="4.60619">
        <ele>408.032</ele>
        <time>2020-09-09T00:58:08Z</time>
      </trkpt>
      <trkpt lat="46.31111" lon="4.60606">
        <ele>408.063</ele>
        <time>2020-09-09T00:58:18Z</time>
      </trkpt>
      <trkpt lat="46.31094" lon="4.60538">
        <ele>419.04</ele>
        <time>2020-09-09T00:58:28Z</time>
      </trkpt>
      <trkpt lat="46.31092" lon="4.60513">
        <ele>420.066</ele>
        <time>2020-09-09T00:58:38Z</time>
      </trkpt>
      <trkpt lat="46.31092" lon="4.60482">
        <ele>422.024</ele>
        <time>2020-09-09T00:58:48Z</time>
      </trkpt>
      <trkpt lat="46.31096" lon="4.60442">
        <ele>423.024</ele>
        <time>2020-09-09T00:58:58Z</time>
      </trkpt>
      <trkpt lat="46.31094" lon="4.60413">
        <ele>423.02</ele>
        <time>2020-09-09T00:59:08Z</time>
      </trkpt>
      <trkpt lat="46.31088" lon="4.60383">
        <ele>426.062</ele>
        <time>2020-09-09T00:59:18Z</time>
      </trkpt>
      <trkpt lat="46.31079" lon="4.60363">
        <ele>426.052</ele>
        <time>2020-09-09T00:59:28Z</time>
      </trkpt>
      <trkpt lat="46.31064" lon="4.60344">
        <ele>427.053</ele>
        <time>2020-09-09T00:59:38Z</time>
      </trkpt>
      <trkpt lat="46.3105" lon="4.60334">
        <ele>428.008</ele>
        <time>2020-09-09T00:59:48Z</time>
      </trkpt>
      <trkpt lat="46.31029" lon="4.60328">
        <ele>429.008</ele>
        <time>2020-09-09T00:59:58Z</time>
      </trkpt>
      <trkpt lat="46.31007" lon="4.6033">
        <ele>436.03</ele>
        <time>2020-09-09T01:00:08Z</time>
      </trkpt>
      <trkpt lat="46.30987" lon="4.6034">
        <ele>437.041</ele>
        <time>2020-09-09T01:00:18Z</time>
      </trkpt>
      <trkpt lat="46.30961" lon="4.60362">
        <ele>438.018</ele>
        <time>2020-09-09T01:00:28Z</time>
      </trkpt>
      <trkpt lat="46.30927" lon="4.60387">
        <ele>446.064</ele>
        <time>2020-09-09T01:00:38Z</time>
      </trkpt>
      <trkpt lat="46.30895" lon="4.60405">
        <ele>447.012</ele>
        <time>2020-09-09T01:00:48Z</time>
      </trkpt>
      <trkpt lat="46.30874" lon="4.60412">
        <ele>446.062</ele>
        <time>2020-09-09T01:00:58Z</time>
      </trkpt>
      <trkpt lat="46.30858" lon="4.60414">
        <ele>446.038</ele>
        <time>2020-09-09T01:01:08Z</time>
      </trkpt>
      <trkpt lat="46.30843" lon="4.60414">
        <ele>451.07</ele>
        <time>2020-09-09T01:01:18Z</time>
      </trkpt>
      <trkpt lat="46.30818" lon="4.60405">
        <ele>455.097</ele>
        <time>2020-09-09T01:01:28Z</time>
      </trkpt>
      <trkpt lat="46.30803" lon="4.60392">
        <ele>456.023</ele>
        <time>2020-09-09T01:01:38Z</time>
      </trkpt>
      <trkpt lat="46.3078" lon="4.60364">
        <ele>457.025</ele>
        <time>2020-09-09T01:01:48Z</time>
      </trkpt>
      <trkpt lat="46.3077" lon="4.60342">
        <ele>461.008</ele>
        <time>2020-09-09T01:01:58Z</time>
      </trkpt>
      <trkpt lat="46.30761" lon="4.60311">
        <ele>463.024</ele>
        <time>2020-09-09T01:02:08Z</time>
      </trkpt>
      <trkpt lat="46.3076" lon="4.60294">
        <ele>464.025</ele>
        <time>2020-09-09T01:02:18Z</time>
      </trkpt>
      <trkpt lat="46.30748" lon="4.60218">
        <ele>464.022</ele>
        <time>2020-09-09T01:02:28Z</time>
      </trkpt>
      <trkpt lat="46.30753" lon="4.60199">
        <ele>464.068</ele>
        <time>2020-09-09T01:02:38Z</time>
      </trkpt>
      <trkpt lat="46.30772" lon="4.60043">
        <ele>469.046</ele>
        <time>2020-09-09T01:02:48Z</time>
      </trkpt>
      <trkpt lat="46.30761" lon="4.60035">
        <ele>468.056</ele>
        <time>2020-09-09T01:02:58Z</time>
      </trkpt>
      <trkpt lat="46.30689" lon="4.59971">
        <ele>472.012</ele>
        <time>2020-09-09T01:03:08Z</time>
      </trkpt>
      <trkpt lat="46.30706" lon="4.5995">
        <ele>473.074</ele>
        <time>2020-09-09T01:03:18Z</time>
      </trkpt>
      <trkpt lat="46.30648" lon="4.59882">
        <ele>473.036</ele>
        <time>2020-09-09T01:03:28Z</time>
      </trkpt>
      <trkpt lat="46.30627" lon="4.59855">
        <ele>472.017</ele>
        <time>2020-09-09T01:03:38Z</time>
      </trkpt>
      <trkpt lat="46.30617" lon="4.59823">
        <ele>475.018</ele>
        <time>2020-09-09T01:03:48Z</time>
      </trkpt>
      <trkpt lat="46.30561" lon="4.59853">
        <ele>462.008</ele>
        <time>2020-09-09T01:03:58Z</time>
      </trkpt>
      <trkpt lat="46.30545" lon="4.59837">
        <ele>462.038</ele>
        <time>2020-09-09T01:04:08Z</time>
      </trkpt>
      <trkpt lat="46.30517" lon="4.5982">
        <ele>463.069</ele>
        <time>2020-09-09T01:04:18Z</time>
      </trkpt>
      <trkpt lat="46.30424" lon="4.59784">
        <ele>462.016</ele>
        <time>2020-09-09T01:04:28Z</time>
      </trkpt>
      <trkpt lat="46.30397" lon="4.5978">
        <ele>461.042</ele>
        <time>2020-09-09T01:04:38Z</time>
      </trkpt>
      <trkpt lat="46.3037" lon="4.59784">
        <ele>461.09</ele>
        <time>2020-09-09T01:04:48Z</time>
      </trkpt>
      <trkpt lat="46.30325" lon="4.59795">
        <ele>460.07</ele>
        <time>2020-09-09T01:04:58Z</time>
      </trkpt>
      <trkpt lat="46.3028" lon="4.5981">
        <ele>460.026</ele>
        <time>2020-09-09T01:05:08Z</time>
      </trkpt>
      <trkpt lat="46.30218" lon="4.5984">
        <ele>451.098</ele>
        <time>2020-09-09T01:05:18Z</time>
      </trkpt>
      <trkpt lat="46.30146" lon="4.59895">
        <ele>452.023</ele>
        <time>2020-09-09T01:05:28Z</time>
      </trkpt>
      <trkpt lat="46.30083" lon="4.59936">
        <ele>445.083</ele>
        <time>2020-09-09T01:05:38Z</time>
      </trkpt>
      <trkpt lat="46.30068" lon="4.59943">
        <ele>445.011</ele>
        <time>2020-09-09T01:05:48Z</time>
      </trkpt>
      <trkpt lat="46.30021" lon="4.59956">
        <ele>443.008</ele>
        <time>2020-09-09T01:05:58Z</time>
      </trkpt>
      <trkpt lat="46.30003" lon="4.59946">
        <ele>443.037</ele>
        <time>2020-09-09T01:06:08Z</time>
      </trkpt>
      <trkpt lat="46.299" lon="4.59853">
        <ele>441.048</ele>
        <time>2020-09-09T01:06:18Z</time>
      </trkpt>
      <trkpt lat="46.29864" lon="4.59797">
        <ele>443.095</ele>
        <time>2020-09-09T01:06:28Z</time>
      </trkpt>
      <trkpt lat="46.29843" lon="4.59748">
        <ele>434.091</ele>
        <time>2020-09-09T01:06:38Z</time>
      </trkpt>
      <trkpt lat="46.29826" lon="4.59686">
        <ele>437.039</ele>
        <time>2020-09-09T01:06:48Z</time>
      </trkpt>
      <trkpt lat="46.29814" lon="4.59659">
        <ele>440.019</ele>
        <time>2020-09-09T01:06:58Z</time>
      </trkpt>
      <trkpt lat="46.298" lon="4.59639">
        <ele>440.035</ele>
        <time>2020-09-09T01:07:08Z</time>
      </trkpt>
      <trkpt lat="46.29782" lon="4.59623">
        <ele>439.047</ele>
        <time>2020-09-09T01:07:18Z</time>
      </trkpt>
      <trkpt lat="46.29751" lon="4.59603">
        <ele>433.058</ele>
        <time>2020-09-09T01:07:28Z</time>
      </trkpt>
      <trkpt lat="46.29602" lon="4.59523">
        <ele>425.052</ele>
        <time>2020-09-09T01:07:38Z</time>
      </trkpt>
      <trkpt lat="46.29576" lon="4.59501">
        <ele>425.017</ele>
        <time>2020-09-09T01:07:48Z</time>
      </trkpt>
      <trkpt lat="46.2955" lon="4.59474">
        <ele>425.008</ele>
        <time>2020-09-09T01:07:58Z</time>
      </trkpt>
      <trkpt lat="46.29524" lon="4.5944">
        <ele>424.01</ele>
        <time>2020-09-09T01:08:08Z</time>
      </trkpt>
      <trkpt lat="46.29493" lon="4.59386">
        <ele>418.021</ele>
        <time>2020-09-09T01:08:18Z</time>
      </trkpt>
      <trkpt lat="46.29484" lon="4.59361">
        <ele>419.068</ele>
        <time>2020-09-09T01:08:28Z</time>
      </trkpt>
      <trkpt lat="46.29481" lon="4.59336">
        <ele>417.094</ele>
        <time>2020-09-09T01:08:38Z</time>
      </trkpt>
      <trkpt lat="46.29481" lon="4.59316">
        <ele>415.092</ele>
        <time>2020-09-09T01:08:48Z</time>
      </trkpt>
      <trkpt lat="46.29486" lon="4.59289">
        <ele>416.042</ele>
        <time>2020-09-09T01:08:58Z</time>
      </trkpt>
      <trkpt lat="46.29494" lon="4.59274">
        <ele>415.038</ele>
        <time>2020-09-09T01:09:08Z</time>
      </trkpt>
      <trkpt lat="46.29505" lon="4.59263">
        <ele>414.04</ele>
        <time>2020-09-09T01:09:18Z</time>
      </trkpt>
      <trkpt lat="46.29517" lon="4.59256">
        <ele>413.075</ele>
        <time>2020-09-09T01:09:28Z</time>
      </trkpt>
      <trkpt lat="46.29541" lon="4.59251">
        <ele>413.028</ele>
        <time>2020-09-09T01:09:38Z</time>
      </trkpt>
      <trkpt lat="46.29604" lon="4.59269">
        <ele>414.02</ele>
        <time>2020-09-09T01:09:48Z</time>
      </trkpt>
      <trkpt lat="46.29626" lon="4.59269">
        <ele>417.008</ele>
        <time>2020-09-09T01:09:58Z</time>
      </trkpt>
      <trkpt lat="46.29642" lon="4.59261">
        <ele>417.072</ele>
        <time>2020-09-09T01:10:08Z</time>
      </trkpt>
      <trkpt lat="46.29652" lon="4.59253">
        <ele>417.093</ele>
        <time>2020-09-09T01:10:18Z</time>
      </trkpt>
      <trkpt lat="46.29666" lon="4.59236">
        <ele>412.09</ele>
        <time>2020-09-09T01:10:28Z</time>
      </trkpt>
      <trkpt lat="46.29677" lon="4.59215">
        <ele>412.056</ele>
        <time>2020-09-09T01:10:38Z</time>
      </trkpt>
      <trkpt lat="46.29693" lon="4.59176">
        <ele>419.014</ele>
        <time>2020-09-09T01:10:48Z</time>
      </trkpt>
      <trkpt lat="46.29702" lon="4.59149">
        <ele>416.064</ele>
        <time>2020-09-09T01:10:58Z</time>
      </trkpt>
      <trkpt lat="46.29712" lon="4.59102">
        <ele>416.07</ele>
        <time>2020-09-09T01:11:08Z</time>
      </trkpt>
      <trkpt lat="46.29718" lon="4.59044">
        <ele>413.012</ele>
        <time>2020-09-09T01:11:18Z</time>
      </trkpt>
      <trkpt lat="46.29717" lon="4.59007">
        <ele>413.075</ele>
        <time>2020-09-09T01:11:28Z</time>
      </trkpt>
      <trkpt lat="46.29713" lon="4.58987">
        <ele>412.028</ele>
        <time>2020-09-09T01:11:38Z</time>
      </trkpt>
      <trkpt lat="46.29605" lon="4.58678">
        <ele>401.02</ele>
        <time>2020-09-09T01:11:48Z</time>
      </trkpt>
      <trkpt lat="46.29597" lon="4.58653">
        <ele>395.008</ele>
        <time>2020-09-09T01:11:58Z</time>
      </trkpt>
      <trkpt lat="46.29589" lon="4.58619">
        <ele>394.092</ele>
        <time>2020-09-09T01:12:08Z</time>
      </trkpt>
      <trkpt lat="46.29587" lon="4.58604">
        <ele>394.033</ele>
        <time>2020-09-09T01:12:18Z</time>
      </trkpt>
      <trkpt lat="46.29586" lon="4.5859">
        <ele>393.01</ele>
        <time>2020-09-09T01:12:28Z</time>
      </trkpt>
      <trkpt lat="46.29589" lon="4.58571">
        <ele>389.026</ele>
        <time>2020-09-09T01:12:38Z</time>
      </trkpt>
      <trkpt lat="46.29596" lon="4.58543">
        <ele>389.054</ele>
        <time>2020-09-09T01:12:48Z</time>
      </trkpt>
      <trkpt lat="46.29665" lon="4.58366">
        <ele>379.034</ele>
        <time>2020-09-09T01:12:58Z</time>
      </trkpt>
      <trkpt lat="46.29679" lon="4.58339">
        <ele>376.05</ele>
        <time>2020-09-09T01:13:08Z</time>
      </trkpt>
      <trkpt lat="46.2969" lon="4.58328">
        <ele>378.092</ele>
        <time>2020-09-09T01:13:18Z</time>
      </trkpt>
      <trkpt lat="46.29706" lon="4.58325">
        <ele>371.089</ele>
        <time>2020-09-09T01:13:28Z</time>
      </trkpt>
      <trkpt lat="46.29719" lon="4.58327">
        <ele>377.006</ele>
        <time>2020-09-09T01:13:38Z</time>
      </trkpt>
      <trkpt lat="46.29733" lon="4.58344">
        <ele>379.026</ele>
        <time>2020-09-09T01:13:48Z</time>
      </trkpt>
      <trkpt lat="46.29746" lon="4.58378">
        <ele>380.008</ele>
        <time>2020-09-09T01:13:58Z</time>
      </trkpt>
      <trkpt lat="46.29762" lon="4.58406">
        <ele>380.023</ele>
        <time>2020-09-09T01:14:08Z</time>
      </trkpt>
      <trkpt lat="46.29808" lon="4.58457">
        <ele>378.024</ele>
        <time>2020-09-09T01:14:18Z</time>
      </trkpt>
      <trkpt lat="46.29821" lon="4.58487">
        <ele>381.051</ele>
        <time>2020-09-09T01:14:28Z</time>
      </trkpt>
      <trkpt lat="46.2985" lon="4.58543">
        <ele>385.017</ele>
        <time>2020-09-09T01:14:38Z</time>
      </trkpt>
      <trkpt lat="46.29865" lon="4.58552">
        <ele>383.075</ele>
        <time>2020-09-09T01:14:48Z</time>
      </trkpt>
      <trkpt lat="46.29877" lon="4.58549">
        <ele>383.085</ele>
        <time>2020-09-09T01:14:58Z</time>
      </trkpt>
      <trkpt lat="46.29889" lon="4.5854">
        <ele>382.031</ele>
        <time>2020-09-09T01:15:08Z</time>
      </trkpt>
      <trkpt lat="46.29899" lon="4.5852">
        <ele>382.083</ele>
        <time>2020-09-09T01:15:18Z</time>
      </trkpt>
      <trkpt lat="46.29907" lon="4.58498">
        <ele>383.069</ele>
        <time>2020-09-09T01:15:28Z</time>
      </trkpt>
      <trkpt lat="46.29908" lon="4.58479">
        <ele>382.004</ele>
        <time>2020-09-09T01:15:38Z</time>
      </trkpt>
      <trkpt lat="46.29906" lon="4.58452">
        <ele>381.024</ele>
        <time>2020-09-09T01:15:48Z</time>
      </trkpt>
      <trkpt lat="46.29898" lon="4.58415">
        <ele>382.008</ele>
        <time>2020-09-09T01:15:58Z</time>
      </trkpt>
      <trkpt lat="46.29828" lon="4.5819">
        <ele>373.041</ele>
        <time>2020-09-09T01:16:08Z</time>
      </trkpt>
      <trkpt lat="46.29802" lon="4.58118">
        <ele>373.062</ele>
        <time>2020-09-09T01:16:18Z</time>
      </trkpt>
      <trkpt lat="46.29786" lon="4.58068">
        <ele>367.039</ele>
        <time>2020-09-09T01:16:28Z</time>
      </trkpt>
      <trkpt lat="46.29787" lon="4.5805">
        <ele>366.035</ele>
        <time>2020-09-09T01:16:38Z</time>
      </trkpt>
      <trkpt lat="46.29791" lon="4.5803">
        <ele>366.013</ele>
        <time>2020-09-09T01:16:48Z</time>
      </trkpt>
      <trkpt lat="46.29798" lon="4.58012">
        <ele>366.033</ele>
        <time>2020-09-09T01:16:58Z</time>
      </trkpt>
      <trkpt lat="46.29821" lon="4.57962">
        <ele>360.019</ele>
        <time>2020-09-09T01:17:08Z</time>
      </trkpt>
      <trkpt lat="46.29957" lon="4.57645">
        <ele>346.071</ele>
        <time>2020-09-09T01:17:18Z</time>
      </trkpt>
      <trkpt lat="46.29977" lon="4.57621">
        <ele>345.022</ele>
        <time>2020-09-09T01:17:28Z</time>
      </trkpt>
      <trkpt lat="46.29997" lon="4.57609">
        <ele>345.062</ele>
        <time>2020-09-09T01:17:38Z</time>
      </trkpt>
      <trkpt lat="46.30018" lon="4.57607">
        <ele>345.008</ele>
        <time>2020-09-09T01:17:48Z</time>
      </trkpt>
      <trkpt lat="46.30041" lon="4.57614">
        <ele>349.008</ele>
        <time>2020-09-09T01:17:58Z</time>
      </trkpt>
      <trkpt lat="46.30049" lon="4.57619">
        <ele>349.087</ele>
        <time>2020-09-09T01:18:08Z</time>
      </trkpt>
      <trkpt lat="46.30061" lon="4.5762">
        <ele>347.048</ele>
        <time>2020-09-09T01:18:18Z</time>
      </trkpt>
      <trkpt lat="46.30069" lon="4.57617">
        <ele>348.085</ele>
        <time>2020-09-09T01:18:28Z</time>
      </trkpt>
      <trkpt lat="46.30076" lon="4.57609">
        <ele>349.061</ele>
        <time>2020-09-09T01:18:38Z</time>
      </trkpt>
      <trkpt lat="46.30085" lon="4.5759">
        <ele>350.089</ele>
        <time>2020-09-09T01:18:48Z</time>
      </trkpt>
      <trkpt lat="46.30086" lon="4.57576">
        <ele>349.089</ele>
        <time>2020-09-09T01:18:58Z</time>
      </trkpt>
      <trkpt lat="46.30084" lon="4.57558">
        <ele>349.075</ele>
        <time>2020-09-09T01:19:08Z</time>
      </trkpt>
      <trkpt lat="46.30062" lon="4.57469">
        <ele>346.087</ele>
        <time>2020-09-09T01:19:18Z</time>
      </trkpt>
      <trkpt lat="46.30056" lon="4.57443">
        <ele>346.011</ele>
        <time>2020-09-09T01:19:28Z</time>
      </trkpt>
      <trkpt lat="46.30053" lon="4.57418">
        <ele>346.021</ele>
        <time>2020-09-09T01:19:38Z</time>
      </trkpt>
      <trkpt lat="46.30056" lon="4.57368">
        <ele>343.003</ele>
        <time>2020-09-09T01:19:48Z</time>
      </trkpt>
      <trkpt lat="46.30059" lon="4.57345">
        <ele>342.008</ele>
        <time>2020-09-09T01:19:58Z</time>
      </trkpt>
      <trkpt lat="46.30068" lon="4.57306">
        <ele>339.026</ele>
        <time>2020-09-09T01:20:08Z</time>
      </trkpt>
      <trkpt lat="46.30152" lon="4.57038">
        <ele>334.097</ele>
        <time>2020-09-09T01:20:18Z</time>
      </trkpt>
      <trkpt lat="46.30172" lon="4.56991">
        <ele>332.064</ele>
        <time>2020-09-09T01:20:28Z</time>
      </trkpt>
      <trkpt lat="46.30172" lon="4.56982">
        <ele>332.04</ele>
        <time>2020-09-09T01:20:38Z</time>
      </trkpt>
      <trkpt lat="46.30222" lon="4.56894">
        <ele>334.028</ele>
        <time>2020-09-09T01:20:48Z</time>
      </trkpt>
      <trkpt lat="46.30249" lon="4.56841">
        <ele>334.048</ele>
        <time>2020-09-09T01:20:58Z</time>
      </trkpt>
      <trkpt lat="46.30291" lon="4.56739">
        <ele>330.044</ele>
        <time>2020-09-09T01:21:08Z</time>
      </trkpt>
      <trkpt lat="46.3031" lon="4.567">
        <ele>329.016</ele>
        <time>2020-09-09T01:21:18Z</time>
      </trkpt>
      <trkpt lat="46.30338" lon="4.56665">
        <ele>329.041</ele>
        <time>2020-09-09T01:21:28Z</time>
      </trkpt>
      <trkpt lat="46.30358" lon="4.56648">
        <ele>325.081</ele>
        <time>2020-09-09T01:21:38Z</time>
      </trkpt>
      <trkpt lat="46.30371" lon="4.56639">
        <ele>325.009</ele>
        <time>2020-09-09T01:21:48Z</time>
      </trkpt>
      <trkpt lat="46.30413" lon="4.56625">
        <ele>325.008</ele>
        <time>2020-09-09T01:21:58Z</time>
      </trkpt>
      <trkpt lat="46.30412" lon="4.56608">
        <ele>325.059</ele>
        <time>2020-09-09T01:22:08Z</time>
      </trkpt>
      <trkpt lat="46.30409" lon="4.56583">
        <ele>324.09</ele>
        <time>2020-09-09T01:22:18Z</time>
      </trkpt>
      <trkpt lat="46.30404" lon="4.56514">
        <ele>320.087</ele>
        <time>2020-09-09T01:22:28Z</time>
      </trkpt>
      <trkpt lat="46.30393" lon="4.56387">
        <ele>324.093</ele>
        <time>2020-09-09T01:22:38Z</time>
      </trkpt>
      <trkpt lat="46.30406" lon="4.56388">
        <ele>324.071</ele>
        <time>2020-09-09T01:22:48Z</time>
      </trkpt>
      <trkpt lat="46.30447" lon="4.56409">
        <ele>324.011</ele>
        <time>2020-09-09T01:22:58Z</time>
      </trkpt>
      <trkpt lat="46.30466" lon="4.56414">
        <ele>322.027</ele>
        <time>2020-09-09T01:23:08Z</time>
      </trkpt>
      <trkpt lat="46.30482" lon="4.56411">
        <ele>322.069</ele>
        <time>2020-09-09T01:23:18Z</time>
      </trkpt>
      <trkpt lat="46.30491" lon="4.56404">
        <ele>324.079</ele>
        <time>2020-09-09T01:23:28Z</time>
      </trkpt>
      <trkpt lat="46.30515" lon="4.56365">
        <ele>324.005</ele>
        <time>2020-09-09T01:23:38Z</time>
      </trkpt>
      <trkpt lat="46.30571" lon="4.56319">
        <ele>324.025</ele>
        <time>2020-09-09T01:23:48Z</time>
      </trkpt>
      <trkpt lat="46.3058" lon="4.56304">
        <ele>324.008</ele>
        <time>2020-09-09T01:23:58Z</time>
      </trkpt>
      <trkpt lat="46.30596" lon="4.56273">
        <ele>324.022</ele>
        <time>2020-09-09T01:24:08Z</time>
      </trkpt>
      <trkpt lat="46.30631" lon="4.56211">
        <ele>322.093</ele>
        <time>2020-09-09T01:24:18Z</time>
      </trkpt>
      <trkpt lat="46.30675" lon="4.56141">
        <ele>324.04</ele>
        <time>2020-09-09T01:24:28Z</time>
      </trkpt>
      <trkpt lat="46.30704" lon="4.56106">
        <ele>319.056</ele>
        <time>2020-09-09T01:24:38Z</time>
      </trkpt>
      <trkpt lat="46.3074" lon="4.56055">
        <ele>320.064</ele>
        <time>2020-09-09T01:24:48Z</time>
      </trkpt>
      <trkpt lat="46.30761" lon="4.5602">
        <ele>320.044</ele>
        <time>2020-09-09T01:24:58Z</time>
      </trkpt>
      <trkpt lat="46.30768" lon="4.56002">
        <ele>319.08</ele>
        <time>2020-09-09T01:25:08Z</time>
      </trkpt>
      <trkpt lat="46.30771" lon="4.55984">
        <ele>319.052</ele>
        <time>2020-09-09T01:25:18Z</time>
      </trkpt>
      <trkpt lat="46.30773" lon="4.55941">
        <ele>315.088</ele>
        <time>2020-09-09T01:25:28Z</time>
      </trkpt>
      <trkpt lat="46.30771" lon="4.55873">
        <ele>316.024</ele>
        <time>2020-09-09T01:25:38Z</time>
      </trkpt>
      <trkpt lat="46.30768" lon="4.55851">
        <ele>316.026</ele>
        <time>2020-09-09T01:25:48Z</time>
      </trkpt>
      <trkpt lat="46.30761" lon="4.55816">
        <ele>315.008</ele>
        <time>2020-09-09T01:25:58Z</time>
      </trkpt>
      <trkpt lat="46.30749" lon="4.55784">
        <ele>315.073</ele>
        <time>2020-09-09T01:26:08Z</time>
      </trkpt>
      <trkpt lat="46.30767" lon="4.55782">
        <ele>314.044</ele>
        <time>2020-09-09T01:26:18Z</time>
      </trkpt>
      <trkpt lat="46.3079" lon="4.55786">
        <ele>313.061</ele>
        <time>2020-09-09T01:26:28Z</time>
      </trkpt>
      <trkpt lat="46.30847" lon="4.55803">
        <ele>312.047</ele>
        <time>2020-09-09T01:26:38Z</time>
      </trkpt>
      <trkpt lat="46.30862" lon="4.55811">
        <ele>311.075</ele>
        <time>2020-09-09T01:26:48Z</time>
      </trkpt>
      <trkpt lat="46.30973" lon="4.55887">
        <ele>310.045</ele>
        <time>2020-09-09T01:26:58Z</time>
      </trkpt>
      <trkpt lat="46.30997" lon="4.55907">
        <ele>310.031</ele>
        <time>2020-09-09T01:27:08Z</time>
      </trkpt>
      <trkpt lat="46.31005" lon="4.55919">
        <ele>310.033</ele>
        <time>2020-09-09T01:27:18Z</time>
      </trkpt>
      <trkpt lat="46.3101" lon="4.55933">
        <ele>310.023</ele>
        <time>2020-09-09T01:27:28Z</time>
      </trkpt>
      <trkpt lat="46.31018" lon="4.55963">
        <ele>310.083</ele>
        <time>2020-09-09T01:27:38Z</time>
      </trkpt>
      <trkpt lat="46.31026" lon="4.55981">
        <ele>310.011</ele>
        <time>2020-09-09T01:27:48Z</time>
      </trkpt>
      <trkpt lat="46.31137" lon="4.56159">
        <ele>321.008</ele>
        <time>2020-09-09T01:27:58Z</time>
      </trkpt>
      <trkpt lat="46.31177" lon="4.56139">
        <ele>318.027</ele>
        <time>2020-09-09T01:28:08Z</time>
      </trkpt>
      <trkpt lat="46.3119" lon="4.56147">
        <ele>319.078</ele>
        <time>2020-09-09T01:28:18Z</time>
      </trkpt>
      <trkpt lat="46.31203" lon="4.56146">
        <ele>320.095</ele>
        <time>2020-09-09T01:28:28Z</time>
      </trkpt>
      <trkpt lat="46.31216" lon="4.56142">
        <ele>320.071</ele>
        <time>2020-09-09T01:28:38Z</time>
      </trkpt>
      <trkpt lat="46.31241" lon="4.56129">
        <ele>320.069</ele>
        <time>2020-09-09T01:28:48Z</time>
      </trkpt>
      <trkpt lat="46.31252" lon="4.5612">
        <ele>319.089</ele>
        <time>2020-09-09T01:28:58Z</time>
      </trkpt>
      <trkpt lat="46.3129" lon="4.56098">
        <ele>319.075</ele>
        <time>2020-09-09T01:29:08Z</time>
      </trkpt>
      <trkpt lat="46.31301" lon="4.56089">
        <ele>318.057</ele>
        <time>2020-09-09T01:29:18Z</time>
      </trkpt>
      <trkpt lat="46.31306" lon="4.56078">
        <ele>317.036</ele>
        <time>2020-09-09T01:29:28Z</time>
      </trkpt>
      <trkpt lat="46.31306" lon="4.56066">
        <ele>315.017</ele>
        <time>2020-09-09T01:29:38Z</time>
      </trkpt>
      <trkpt lat="46.31345" lon="4.56051">
        <ele>314.018</ele>
        <time>2020-09-09T01:29:48Z</time>
      </trkpt>
      <trkpt lat="46.31452" lon="4.56028">
        <ele>311.008</ele>
        <time>2020-09-09T01:29:58Z</time>
      </trkpt>
      <trkpt lat="46.31467" lon="4.56019">
        <ele>311.088</ele>
        <time>2020-09-09T01:30:08Z</time>
      </trkpt>
      <trkpt lat="46.31507" lon="4.56005">
        <ele>310.079</ele>
        <time>2020-09-09T01:30:18Z</time>
      </trkpt>
      <trkpt lat="46.31518" lon="4.5601">
        <ele>310.016</ele>
        <time>2020-09-09T01:30:28Z</time>
      </trkpt>
      <trkpt lat="46.31538" lon="4.56024">
        <ele>309.032</ele>
        <time>2020-09-09T01:30:38Z</time>
      </trkpt>
      <trkpt lat="46.31699" lon="4.56047">
        <ele>305.09</ele>
        <time>2020-09-09T01:30:48Z</time>
      </trkpt>
      <trkpt lat="46.31801" lon="4.56067">
        <ele>303.09</ele>
        <time>2020-09-09T01:30:58Z</time>
      </trkpt>
      <trkpt lat="46.31835" lon="4.56084">
        <ele>305.036</ele>
        <time>2020-09-09T01:31:08Z</time>
      </trkpt>
      <trkpt lat="46.3191" lon="4.56135">
        <ele>304.018</ele>
        <time>2020-09-09T01:31:18Z</time>
      </trkpt>
      <trkpt lat="46.31953" lon="4.5615">
        <ele>303.097</ele>
        <time>2020-09-09T01:31:28Z</time>
      </trkpt>
      <trkpt lat="46.31973" lon="4.56187">
        <ele>307.023</ele>
        <time>2020-09-09T01:31:38Z</time>
      </trkpt>
      <trkpt lat="46.32009" lon="4.5627">
        <ele>314.025</ele>
        <time>2020-09-09T01:31:48Z</time>
      </trkpt>
      <trkpt lat="46.32017" lon="4.563">
        <ele>314.008</ele>
        <time>2020-09-09T01:31:58Z</time>
      </trkpt>
      <trkpt lat="46.32026" lon="4.56366">
        <ele>319.024</ele>
        <time>2020-09-09T01:32:08Z</time>
      </trkpt>
      <trkpt lat="46.3203" lon="4.56378">
        <ele>320.075</ele>
        <time>2020-09-09T01:32:18Z</time>
      </trkpt>
      <trkpt lat="46.32038" lon="4.56394">
        <ele>320.032</ele>
        <time>2020-09-09T01:32:28Z</time>
      </trkpt>
      <trkpt lat="46.32049" lon="4.56408">
        <ele>321.078</ele>
        <time>2020-09-09T01:32:38Z</time>
      </trkpt>
      <trkpt lat="46.32059" lon="4.56415">
        <ele>324.086</ele>
        <time>2020-09-09T01:32:48Z</time>
      </trkpt>
      <trkpt lat="46.32082" lon="4.56425">
        <ele>324.016</ele>
        <time>2020-09-09T01:32:58Z</time>
      </trkpt>
      <trkpt lat="46.3211" lon="4.56428">
        <ele>326.022</ele>
        <time>2020-09-09T01:33:08Z</time>
      </trkpt>
      <trkpt lat="46.32114" lon="4.56433">
        <ele>326.024</ele>
        <time>2020-09-09T01:33:18Z</time>
      </trkpt>
      <trkpt lat="46.32116" lon="4.56453">
        <ele>327.068</ele>
        <time>2020-09-09T01:33:28Z</time>
      </trkpt>
      <trkpt lat="46.32119" lon="4.56539">
        <ele>332.042</ele>
        <time>2020-09-09T01:33:38Z</time>
      </trkpt>
      <trkpt lat="46.32122" lon="4.56545">
        <ele>332.026</ele>
        <time>2020-09-09T01:33:48Z</time>
      </trkpt>
      <trkpt lat="46.32134" lon="4.56582">
        <ele>337.008</ele>
        <time>2020-09-09T01:33:58Z</time>
      </trkpt>
      <trkpt lat="46.32148" lon="4.56635">
        <ele>339.041</ele>
        <time>2020-09-09T01:34:08Z</time>
      </trkpt>
      <trkpt lat="46.32202" lon="4.5676">
        <ele>349.082</ele>
        <time>2020-09-09T01:34:18Z</time>
      </trkpt>
      <trkpt lat="46.32216" lon="4.56798">
        <ele>350.029</ele>
        <time>2020-09-09T01:34:28Z</time>
      </trkpt>
      <trkpt lat="46.32222" lon="4.56819">
        <ele>349.065</ele>
        <time>2020-09-09T01:34:38Z</time>
      </trkpt>
      <trkpt lat="46.32233" lon="4.56834">
        <ele>350.073</ele>
        <time>2020-09-09T01:34:48Z</time>
      </trkpt>
      <trkpt lat="46.32251" lon="4.56848">
        <ele>350.073</ele>
        <time>2020-09-09T01:34:58Z</time>
      </trkpt>
      <trkpt lat="46.32262" lon="4.56859">
        <ele>349.039</ele>
        <time>2020-09-09T01:35:08Z</time>
      </trkpt>
      <trkpt lat="46.32272" lon="4.56883">
        <ele>349.021</ele>
        <time>2020-09-09T01:35:18Z</time>
      </trkpt>
      <trkpt lat="46.32241" lon="4.56942">
        <ele>352.042</ele>
        <time>2020-09-09T01:35:28Z</time>
      </trkpt>
      <trkpt lat="46.32234" lon="4.56963">
        <ele>352.022</ele>
        <time>2020-09-09T01:35:38Z</time>
      </trkpt>
      <trkpt lat="46.3223" lon="4.56986">
        <ele>352.014</ele>
        <time>2020-09-09T01:35:48Z</time>
      </trkpt>
      <trkpt lat="46.32229" lon="4.57008">
        <ele>354.008</ele>
        <time>2020-09-09T01:35:58Z</time>
      </trkpt>
      <trkpt lat="46.32241" lon="4.57083">
        <ele>359.029</ele>
        <time>2020-09-09T01:36:08Z</time>
      </trkpt>
      <trkpt lat="46.32242" lon="4.57103">
        <ele>359.07</ele>
        <time>2020-09-09T01:36:18Z</time>
      </trkpt>
      <trkpt lat="46.32241" lon="4.5712">
        <ele>360.057</ele>
        <time>2020-09-09T01:36:28Z</time>
      </trkpt>
      <trkpt lat="46.32235" lon="4.57143">
        <ele>360.053</ele>
        <time>2020-09-09T01:36:38Z</time>
      </trkpt>
      <trkpt lat="46.3222" lon="4.57179">
        <ele>365.081</ele>
        <time>2020-09-09T01:36:48Z</time>
      </trkpt>
      <trkpt lat="46.32203" lon="4.57225">
        <ele>367.061</ele>
        <time>2020-09-09T01:36:58Z</time>
      </trkpt>
      <trkpt lat="46.32197" lon="4.57255">
        <ele>372.097</ele>
        <time>2020-09-09T01:37:08Z</time>
      </trkpt>
      <trkpt lat="46.32197" lon="4.57279">
        <ele>372.049</ele>
        <time>2020-09-09T01:37:18Z</time>
      </trkpt>
      <trkpt lat="46.322" lon="4.57301">
        <ele>373.086</ele>
        <time>2020-09-09T01:37:28Z</time>
      </trkpt>
      <trkpt lat="46.32204" lon="4.57319">
        <ele>374.06</ele>
        <time>2020-09-09T01:37:38Z</time>
      </trkpt>
      <trkpt lat="46.32213" lon="4.57338">
        <ele>378.026</ele>
        <time>2020-09-09T01:37:48Z</time>
      </trkpt>
      <trkpt lat="46.32223" lon="4.57353">
        <ele>378.008</ele>
        <time>2020-09-09T01:37:58Z</time>
      </trkpt>
      <trkpt lat="46.32229" lon="4.57367">
        <ele>379.043</ele>
        <time>2020-09-09T01:38:08Z</time>
      </trkpt>
      <trkpt lat="46.32235" lon="4.57395">
        <ele>379.054</ele>
        <time>2020-09-09T01:38:18Z</time>
      </trkpt>
      <trkpt lat="46.32239" lon="4.57428">
        <ele>384.071</ele>
        <time>2020-09-09T01:38:28Z</time>
      </trkpt>
      <trkpt lat="46.32242" lon="4.57519">
        <ele>390.057</ele>
        <time>2020-09-09T01:38:38Z</time>
      </trkpt>
      <trkpt lat="46.32246" lon="4.57546">
        <ele>391.025</ele>
        <time>2020-09-09T01:38:48Z</time>
      </trkpt>
      <trkpt lat="46.3228" lon="4.57577">
        <ele>394.085</ele>
        <time>2020-09-09T01:38:58Z</time>
      </trkpt>
      <trkpt lat="46.32285" lon="4.5758">
        <ele>394.081</ele>
        <time>2020-09-09T01:39:08Z</time>
      </trkpt>
      <trkpt lat="46.323" lon="4.57582">
        <ele>394.023</ele>
        <time>2020-09-09T01:39:18Z</time>
      </trkpt>
      <trkpt lat="46.32327" lon="4.57575">
        <ele>391.098</ele>
        <time>2020-09-09T01:39:28Z</time>
      </trkpt>
      <trkpt lat="46.32345" lon="4.57577">
        <ele>395.015</ele>
        <time>2020-09-09T01:39:38Z</time>
      </trkpt>
      <trkpt lat="46.32366" lon="4.57585">
        <ele>397.026</ele>
        <time>2020-09-09T01:39:48Z</time>
      </trkpt>
      <trkpt lat="46.32379" lon="4.57584">
        <ele>397.008</ele>
        <time>2020-09-09T01:39:58Z</time>
      </trkpt>
      <trkpt lat="46.32384" lon="4.5758">
        <ele>397.064</ele>
        <time>2020-09-09T01:40:08Z</time>
      </trkpt>
      <trkpt lat="46.32402" lon="4.5755">
        <ele>393.045</ele>
        <time>2020-09-09T01:40:18Z</time>
      </trkpt>
      <trkpt lat="46.32413" lon="4.57537">
        <ele>393.052</ele>
        <time>2020-09-09T01:40:28Z</time>
      </trkpt>
      <trkpt lat="46.32425" lon="4.57529">
        <ele>392.068</ele>
        <time>2020-09-09T01:40:38Z</time>
      </trkpt>
      <trkpt lat="46.32435" lon="4.57526">
        <ele>392.016</ele>
        <time>2020-09-09T01:40:48Z</time>
      </trkpt>
      <trkpt lat="46.32445" lon="4.57526">
        <ele>390.086</ele>
        <time>2020-09-09T01:40:58Z</time>
      </trkpt>
      <trkpt lat="46.32458" lon="4.5753">
        <ele>390.062</ele>
        <time>2020-09-09T01:41:08Z</time>
      </trkpt>
      <trkpt lat="46.32468" lon="4.5752">
        <ele>390.064</ele>
        <time>2020-09-09T01:41:18Z</time>
      </trkpt>
      <trkpt lat="46.32499" lon="4.57521">
        <ele>389.045</ele>
        <time>2020-09-09T01:41:28Z</time>
      </trkpt>
      <trkpt lat="46.32524" lon="4.57532">
        <ele>385.047</ele>
        <time>2020-09-09T01:41:38Z</time>
      </trkpt>
      <trkpt lat="46.32537" lon="4.57532">
        <ele>384.011</ele>
        <time>2020-09-09T01:41:48Z</time>
      </trkpt>
      <trkpt lat="46.32568" lon="4.57523">
        <ele>383.008</ele>
        <time>2020-09-09T01:41:58Z</time>
      </trkpt>
      <trkpt lat="46.32645" lon="4.57539">
        <ele>381.019</ele>
        <time>2020-09-09T01:42:08Z</time>
      </trkpt>
      <trkpt lat="46.3267" lon="4.5755">
        <ele>382.05</ele>
        <time>2020-09-09T01:42:18Z</time>
      </trkpt>
      <trkpt lat="46.32696" lon="4.57545">
        <ele>381.037</ele>
        <time>2020-09-09T01:42:28Z</time>
      </trkpt>
      <trkpt lat="46.32727" lon="4.5755">
        <ele>382.083</ele>
        <time>2020-09-09T01:42:38Z</time>
      </trkpt>
      <trkpt lat="46.32774" lon="4.57538">
        <ele>378.091</ele>
        <time>2020-09-09T01:42:48Z</time>
      </trkpt>
      <trkpt lat="46.32795" lon="4.57552">
        <ele>378.031</ele>
        <time>2020-09-09T01:42:58Z</time>
      </trkpt>
      <trkpt lat="46.32802" lon="4.57562">
        <ele>378.037</ele>
        <time>2020-09-09T01:43:08Z</time>
      </trkpt>
      <trkpt lat="46.32805" lon="4.57572">
        <ele>379.069</ele>
        <time>2020-09-09T01:43:18Z</time>
      </trkpt>
      <trkpt lat="46.32806" lon="4.57585">
        <ele>382.074</ele>
        <time>2020-09-09T01:43:28Z</time>
      </trkpt>
      <trkpt lat="46.32806" lon="4.57599">
        <ele>383.056</ele>
        <time>2020-09-09T01:43:38Z</time>
      </trkpt>
      <trkpt lat="46.32797" lon="4.57641">
        <ele>385.021</ele>
        <time>2020-09-09T01:43:48Z</time>
      </trkpt>
      <trkpt lat="46.3279" lon="4.57663">
        <ele>389.008</ele>
        <time>2020-09-09T01:43:58Z</time>
      </trkpt>
      <trkpt lat="46.32784" lon="4.57671">
        <ele>389.092</ele>
        <time>2020-09-09T01:44:08Z</time>
      </trkpt>
      <trkpt lat="46.32786" lon="4.57686">
        <ele>390.053</ele>
        <time>2020-09-09T01:44:18Z</time>
      </trkpt>
      <trkpt lat="46.32773" lon="4.57767">
        <ele>397.08</ele>
        <time>2020-09-09T01:44:28Z</time>
      </trkpt>
      <trkpt lat="46.3277" lon="4.57792">
        <ele>404.096</ele>
        <time>2020-09-09T01:44:38Z</time>
      </trkpt>
      <trkpt lat="46.32771" lon="4.57815">
        <ele>405.064</ele>
        <time>2020-09-09T01:44:48Z</time>
      </trkpt>
      <trkpt lat="46.32777" lon="4.5784">
        <ele>403.074</ele>
        <time>2020-09-09T01:44:58Z</time>
      </trkpt>
      <trkpt lat="46.32788" lon="4.57868">
        <ele>402.05</ele>
        <time>2020-09-09T01:45:08Z</time>
      </trkpt>
      <trkpt lat="46.32797" lon="4.57879">
        <ele>402.022</ele>
        <time>2020-09-09T01:45:18Z</time>
      </trkpt>
      <trkpt lat="46.32803" lon="4.57884">
        <ele>402.064</ele>
        <time>2020-09-09T01:45:28Z</time>
      </trkpt>
      <trkpt lat="46.32819" lon="4.57886">
        <ele>402.006</ele>
        <time>2020-09-09T01:45:38Z</time>
      </trkpt>
      <trkpt lat="46.32827" lon="4.57882">
        <ele>401.016</ele>
        <time>2020-09-09T01:45:48Z</time>
      </trkpt>
      <trkpt lat="46.32862" lon="4.5785">
        <ele>398.008</ele>
        <time>2020-09-09T01:45:58Z</time>
      </trkpt>
      <trkpt lat="46.3288" lon="4.57841">
        <ele>398.061</ele>
        <time>2020-09-09T01:46:08Z</time>
      </trkpt>
      <trkpt lat="46.32916" lon="4.57832">
        <ele>397.072</ele>
        <time>2020-09-09T01:46:18Z</time>
      </trkpt>
      <trkpt lat="46.3296" lon="4.57818">
        <ele>387.029</ele>
        <time>2020-09-09T01:46:28Z</time>
      </trkpt>
      <trkpt lat="46.33012" lon="4.57794">
        <ele>385.045</ele>
        <time>2020-09-09T01:46:38Z</time>
      </trkpt>
      <trkpt lat="46.33041" lon="4.57784">
        <ele>383.083</ele>
        <time>2020-09-09T01:46:48Z</time>
      </trkpt>
      <trkpt lat="46.33074" lon="4.57784">
        <ele>383.073</ele>
        <time>2020-09-09T01:46:58Z</time>
      </trkpt>
      <trkpt lat="46.33114" lon="4.57791">
        <ele>379.049</ele>
        <time>2020-09-09T01:47:08Z</time>
      </trkpt>
      <trkpt lat="46.33153" lon="4.57805">
        <ele>379.041</ele>
        <time>2020-09-09T01:47:18Z</time>
      </trkpt>
      <trkpt lat="46.3317" lon="4.57816">
        <ele>379.022</ele>
        <time>2020-09-09T01:47:28Z</time>
      </trkpt>
      <trkpt lat="46.33173" lon="4.57826">
        <ele>380.062</ele>
        <time>2020-09-09T01:47:38Z</time>
      </trkpt>
      <trkpt lat="46.33172" lon="4.5784">
        <ele>384.008</ele>
        <time>2020-09-09T01:47:48Z</time>
      </trkpt>
      <trkpt lat="46.33159" lon="4.57882">
        <ele>386.008</ele>
        <time>2020-09-09T01:47:58Z</time>
      </trkpt>
      <trkpt lat="46.33158" lon="4.57899">
        <ele>388.097</ele>
        <time>2020-09-09T01:48:08Z</time>
      </trkpt>
      <trkpt lat="46.33162" lon="4.57917">
        <ele>392.028</ele>
        <time>2020-09-09T01:48:18Z</time>
      </trkpt>
      <trkpt lat="46.33174" lon="4.57937">
        <ele>392.045</ele>
        <time>2020-09-09T01:48:28Z</time>
      </trkpt>
      <trkpt lat="46.33191" lon="4.57949">
        <ele>388.081</ele>
        <time>2020-09-09T01:48:38Z</time>
      </trkpt>
      <trkpt lat="46.33201" lon="4.57952">
        <ele>387.079</ele>
        <time>2020-09-09T01:48:48Z</time>
      </trkpt>
      <trkpt lat="46.33211" lon="4.57952">
        <ele>386.029</ele>
        <time>2020-09-09T01:48:58Z</time>
      </trkpt>
      <trkpt lat="46.33224" lon="4.57948">
        <ele>384.065</ele>
        <time>2020-09-09T01:49:08Z</time>
      </trkpt>
      <trkpt lat="46.33391" lon="4.57858">
        <ele>376.087</ele>
        <time>2020-09-09T01:49:18Z</time>
      </trkpt>
      <trkpt lat="46.334" lon="4.57858">
        <ele>376.055</ele>
        <time>2020-09-09T01:49:28Z</time>
      </trkpt>
      <trkpt lat="46.33414" lon="4.57865">
        <ele>376.007</ele>
        <time>2020-09-09T01:49:38Z</time>
      </trkpt>
      <trkpt lat="46.33427" lon="4.57881">
        <ele>376.017</ele>
        <time>2020-09-09T01:49:48Z</time>
      </trkpt>
      <trkpt lat="46.33445" lon="4.57892">
        <ele>374.008</ele>
        <time>2020-09-09T01:49:58Z</time>
      </trkpt>
      <trkpt lat="46.33503" lon="4.5792">
        <ele>377.04</ele>
        <time>2020-09-09T01:50:08Z</time>
      </trkpt>
      <trkpt lat="46.33526" lon="4.57925">
        <ele>373.051</ele>
        <time>2020-09-09T01:50:18Z</time>
      </trkpt>
      <trkpt lat="46.33549" lon="4.57918">
        <ele>372.018</ele>
        <time>2020-09-09T01:50:28Z</time>
      </trkpt>
      <trkpt lat="46.33599" lon="4.57874">
        <ele>364.024</ele>
        <time>2020-09-09T01:50:38Z</time>
      </trkpt>
      <trkpt lat="46.33613" lon="4.57865">
        <ele>361.022</ele>
        <time>2020-09-09T01:50:48Z</time>
      </trkpt>
      <trkpt lat="46.3362" lon="4.57864">
        <ele>361.032</ele>
        <time>2020-09-09T01:50:58Z</time>
      </trkpt>
      <trkpt lat="46.3363" lon="4.57871">
        <ele>361.078</ele>
        <time>2020-09-09T01:51:08Z</time>
      </trkpt>
      <trkpt lat="46.33639" lon="4.57881">
        <ele>361.07</ele>
        <time>2020-09-09T01:51:18Z</time>
      </trkpt>
      <trkpt lat="46.33646" lon="4.57897">
        <ele>361.016</ele>
        <time>2020-09-09T01:51:28Z</time>
      </trkpt>
      <trkpt lat="46.33673" lon="4.57976">
        <ele>365.076</ele>
        <time>2020-09-09T01:51:38Z</time>
      </trkpt>
      <trkpt lat="46.33684" lon="4.57991">
        <ele>365.013</ele>
        <time>2020-09-09T01:51:48Z</time>
      </trkpt>
      <trkpt lat="46.33701" lon="4.57994">
        <ele>366.008</ele>
        <time>2020-09-09T01:51:58Z</time>
      </trkpt>
      <trkpt lat="46.33726" lon="4.57992">
        <ele>361.066</ele>
        <time>2020-09-09T01:52:08Z</time>
      </trkpt>
      <trkpt lat="46.33791" lon="4.57973">
        <ele>356.037</ele>
        <time>2020-09-09T01:52:18Z</time>
      </trkpt>
      <trkpt lat="46.33802" lon="4.57972">
        <ele>356.084</ele>
        <time>2020-09-09T01:52:28Z</time>
      </trkpt>
      <trkpt lat="46.33819" lon="4.57982">
        <ele>356.05</ele>
        <time>2020-09-09T01:52:38Z</time>
      </trkpt>
      <trkpt lat="46.33856" lon="4.58022">
        <ele>361.068</ele>
        <time>2020-09-09T01:52:48Z</time>
      </trkpt>
      <trkpt lat="46.33866" lon="4.5803">
        <ele>360.098</ele>
        <time>2020-09-09T01:52:58Z</time>
      </trkpt>
      <trkpt lat="46.3388" lon="4.58036">
        <ele>359.014</ele>
        <time>2020-09-09T01:53:08Z</time>
      </trkpt>
      <trkpt lat="46.33894" lon="4.58035">
        <ele>358.046</ele>
        <time>2020-09-09T01:53:18Z</time>
      </trkpt>
      <trkpt lat="46.3391" lon="4.58028">
        <ele>359.097</ele>
        <time>2020-09-09T01:53:28Z</time>
      </trkpt>
      <trkpt lat="46.3393" lon="4.58012">
        <ele>359.023</ele>
        <time>2020-09-09T01:53:38Z</time>
      </trkpt>
      <trkpt lat="46.3394" lon="4.57997">
        <ele>357.025</ele>
        <time>2020-09-09T01:53:48Z</time>
      </trkpt>
      <trkpt lat="46.33949" lon="4.57967">
        <ele>355.008</ele>
        <time>2020-09-09T01:53:58Z</time>
      </trkpt>
      <trkpt lat="46.33951" lon="4.57907">
        <ele>351.024</ele>
        <time>2020-09-09T01:54:08Z</time>
      </trkpt>
      <trkpt lat="46.33957" lon="4.57872">
        <ele>351.085</ele>
        <time>2020-09-09T01:54:18Z</time>
      </trkpt>
      <trkpt lat="46.33995" lon="4.57777">
        <ele>344.072</ele>
        <time>2020-09-09T01:54:28Z</time>
      </trkpt>
      <trkpt lat="46.34011" lon="4.57751">
        <ele>343.078</ele>
        <time>2020-09-09T01:54:38Z</time>
      </trkpt>
      <trkpt lat="46.34055" lon="4.57695">
        <ele>339.026</ele>
        <time>2020-09-09T01:54:48Z</time>
      </trkpt>
      <trkpt lat="46.34073" lon="4.57682">
        <ele>338.046</ele>
        <time>2020-09-09T01:54:58Z</time>
      </trkpt>
      <trkpt lat="46.34096" lon="4.57674">
        <ele>337.072</ele>
        <time>2020-09-09T01:55:08Z</time>
      </trkpt>
      <trkpt lat="46.34128" lon="4.57671">
        <ele>335.034</ele>
        <time>2020-09-09T01:55:18Z</time>
      </trkpt>
      <trkpt lat="46.34149" lon="4.57672">
        <ele>335.059</ele>
        <time>2020-09-09T01:55:28Z</time>
      </trkpt>
      <trkpt lat="46.34168" lon="4.57678">
        <ele>334.003</ele>
        <time>2020-09-09T01:55:38Z</time>
      </trkpt>
      <trkpt lat="46.34184" lon="4.57696">
        <ele>333.023</ele>
        <time>2020-09-09T01:55:48Z</time>
      </trkpt>
      <trkpt lat="46.34191" lon="4.57711">
        <ele>330.008</ele>
        <time>2020-09-09T01:55:58Z</time>
      </trkpt>
      <trkpt lat="46.34198" lon="4.57749">
        <ele>331.05</ele>
        <time>2020-09-09T01:56:08Z</time>
      </trkpt>
      <trkpt lat="46.34208" lon="4.57841">
        <ele>331.041</ele>
        <time>2020-09-09T01:56:18Z</time>
      </trkpt>
      <trkpt lat="46.34214" lon="4.57868">
        <ele>330.068</ele>
        <time>2020-09-09T01:56:28Z</time>
      </trkpt>
      <trkpt lat="46.34222" lon="4.57883">
        <ele>330.034</ele>
        <time>2020-09-09T01:56:38Z</time>
      </trkpt>
      <trkpt lat="46.34233" lon="4.57895">
        <ele>330.092</ele>
        <time>2020-09-09T01:56:48Z</time>
      </trkpt>
      <trkpt lat="46.34257" lon="4.57909">
        <ele>329.072</ele>
        <time>2020-09-09T01:56:58Z</time>
      </trkpt>
      <trkpt lat="46.34314" lon="4.57926">
        <ele>326.088</ele>
        <time>2020-09-09T01:57:08Z</time>
      </trkpt>
      <trkpt lat="46.3435" lon="4.57934">
        <ele>326.08</ele>
        <time>2020-09-09T01:57:18Z</time>
      </trkpt>
      <trkpt lat="46.34376" lon="4.5793">
        <ele>325.024</ele>
        <time>2020-09-09T01:57:28Z</time>
      </trkpt>
      <trkpt lat="46.34403" lon="4.57922">
        <ele>325.004</ele>
        <time>2020-09-09T01:57:38Z</time>
      </trkpt>
      <trkpt lat="46.34433" lon="4.57895">
        <ele>322.014</ele>
        <time>2020-09-09T01:57:48Z</time>
      </trkpt>
      <trkpt lat="46.34464" lon="4.57862">
        <ele>322.008</ele>
        <time>2020-09-09T01:57:58Z</time>
      </trkpt>
      <trkpt lat="46.34476" lon="4.57838">
        <ele>322.047</ele>
        <time>2020-09-09T01:58:08Z</time>
      </trkpt>
      <trkpt lat="46.3455" lon="4.57652">
        <ele>311.028</ele>
        <time>2020-09-09T01:58:18Z</time>
      </trkpt>
      <trkpt lat="46.3457" lon="4.57615">
        <ele>311.015</ele>
        <time>2020-09-09T01:58:28Z</time>
      </trkpt>
      <trkpt lat="46.3459" lon="4.57598">
        <ele>311.071</ele>
        <time>2020-09-09T01:58:38Z</time>
      </trkpt>
      <trkpt lat="46.34605" lon="4.57593">
        <ele>311.039</ele>
        <time>2020-09-09T01:58:48Z</time>
      </trkpt>
      <trkpt lat="46.3463" lon="4.57589">
        <ele>313.069</ele>
        <time>2020-09-09T01:58:58Z</time>
      </trkpt>
      <trkpt lat="46.34685" lon="4.57584">
        <ele>313.045</ele>
        <time>2020-09-09T01:59:08Z</time>
      </trkpt>
      <trkpt lat="46.34798" lon="4.57566">
        <ele>311.037</ele>
        <time>2020-09-09T01:59:18Z</time>
      </trkpt>
      <trkpt lat="46.34814" lon="4.57567">
        <ele>310.054</ele>
        <time>2020-09-09T01:59:28Z</time>
      </trkpt>
      <trkpt lat="46.34825" lon="4.57572">
        <ele>310.056</ele>
        <time>2020-09-09T01:59:38Z</time>
      </trkpt>
      <trkpt lat="46.34842" lon="4.5759">
        <ele>311.011</ele>
        <time>2020-09-09T01:59:48Z</time>
      </trkpt>
      <trkpt lat="46.34856" lon="4.5762">
        <ele>310.008</ele>
        <time>2020-09-09T01:59:58Z</time>
      </trkpt>
      <trkpt lat="46.34867" lon="4.57639">
        <ele>307.08</ele>
        <time>2020-09-09T02:00:08Z</time>
      </trkpt>
      <trkpt lat="46.34877" lon="4.57647">
        <ele>307.011</ele>
        <time>2020-09-09T02:00:18Z</time>
      </trkpt>
      <trkpt lat="46.34888" lon="4.57651">
        <ele>307.088</ele>
        <time>2020-09-09T02:00:28Z</time>
      </trkpt>
      <trkpt lat="46.34902" lon="4.57651">
        <ele>306.064</ele>
        <time>2020-09-09T02:00:38Z</time>
      </trkpt>
      <trkpt lat="46.34913" lon="4.57647">
        <ele>306.042</ele>
        <time>2020-09-09T02:00:48Z</time>
      </trkpt>
      <trkpt lat="46.34925" lon="4.57636">
        <ele>306.032</ele>
        <time>2020-09-09T02:00:58Z</time>
      </trkpt>
      <trkpt lat="46.34932" lon="4.57627">
        <ele>306.048</ele>
        <time>2020-09-09T02:01:08Z</time>
      </trkpt>
      <trkpt lat="46.34992" lon="4.57497">
        <ele>301.07</ele>
        <time>2020-09-09T02:01:18Z</time>
      </trkpt>
      <trkpt lat="46.35092" lon="4.57389">
        <ele>293.076</ele>
        <time>2020-09-09T02:01:28Z</time>
      </trkpt>
      <trkpt lat="46.35117" lon="4.57341">
        <ele>288.09</ele>
        <time>2020-09-09T02:01:38Z</time>
      </trkpt>
      <trkpt lat="46.35127" lon="4.57308">
        <ele>283.019</ele>
        <time>2020-09-09T02:01:48Z</time>
      </trkpt>
      <trkpt lat="46.35131" lon="4.57278">
        <ele>282.008</ele>
        <time>2020-09-09T02:01:58Z</time>
      </trkpt>
      <trkpt lat="46.35127" lon="4.56918">
        <ele>277.042</ele>
        <time>2020-09-09T02:02:08Z</time>
      </trkpt>
      <trkpt lat="46.35156" lon="4.56909">
        <ele>277.083</ele>
        <time>2020-09-09T02:02:18Z</time>
      </trkpt>
      <trkpt lat="46.35199" lon="4.569">
        <ele>277.02</ele>
        <time>2020-09-09T02:02:28Z</time>
      </trkpt>
      <trkpt lat="46.35227" lon="4.569">
        <ele>277.026</ele>
        <time>2020-09-09T02:02:38Z</time>
      </trkpt>
      <trkpt lat="46.35759" lon="4.57008">
        <ele>279.094</ele>
        <time>2020-09-09T02:02:48Z</time>
      </trkpt>
      <trkpt lat="46.35919" lon="4.57048">
        <ele>283.014</ele>
        <time>2020-09-09T02:02:58Z</time>
      </trkpt>
      <trkpt lat="46.35989" lon="4.57076">
        <ele>285.05</ele>
        <time>2020-09-09T02:03:08Z</time>
      </trkpt>
      <trkpt lat="46.3616" lon="4.57156">
        <ele>277.022</ele>
        <time>2020-09-09T02:03:18Z</time>
      </trkpt>
      <trkpt lat="46.36226" lon="4.57184">
        <ele>274.075</ele>
        <time>2020-09-09T02:03:28Z</time>
      </trkpt>
      <trkpt lat="46.36234" lon="4.57162">
        <ele>274.028</ele>
        <time>2020-09-09T02:03:38Z</time>
      </trkpt>
      <trkpt lat="46.36237" lon="4.57156">
        <ele>276.02</ele>
        <time>2020-09-09T02:03:48Z</time>
      </trkpt>
      <trkpt lat="46.36365" lon="4.57031">
        <ele>277.008</ele>
        <time>2020-09-09T02:03:58Z</time>
      </trkpt>
      <trkpt lat="46.36409" lon="4.56959">
        <ele>277.082</ele>
        <time>2020-09-09T02:04:08Z</time>
      </trkpt>
      <trkpt lat="46.36478" lon="4.5689">
        <ele>284.043</ele>
        <time>2020-09-09T02:04:18Z</time>
      </trkpt>
      <trkpt lat="46.36486" lon="4.56878">
        <ele>284.07</ele>
        <time>2020-09-09T02:04:28Z</time>
      </trkpt>
      <trkpt lat="46.3649" lon="4.56865">
        <ele>284.036</ele>
        <time>2020-09-09T02:04:38Z</time>
      </trkpt>
      <trkpt lat="46.36491" lon="4.56843">
        <ele>285.064</ele>
        <time>2020-09-09T02:04:48Z</time>
      </trkpt>
      <trkpt lat="46.36486" lon="4.56785">
        <ele>286.014</ele>
        <time>2020-09-09T02:04:58Z</time>
      </trkpt>
      <trkpt lat="46.3648" lon="4.56648">
        <ele>287.06</ele>
        <time>2020-09-09T02:05:08Z</time>
      </trkpt>
      <trkpt lat="46.36488" lon="4.56627">
        <ele>288.072</ele>
        <time>2020-09-09T02:05:18Z</time>
      </trkpt>
      <trkpt lat="46.36505" lon="4.56616">
        <ele>288.058</ele>
        <time>2020-09-09T02:05:28Z</time>
      </trkpt>
      <trkpt lat="46.36519" lon="4.56622">
        <ele>288.052</ele>
        <time>2020-09-09T02:05:38Z</time>
      </trkpt>
      <trkpt lat="46.36549" lon="4.56637">
        <ele>292.017</ele>
        <time>2020-09-09T02:05:48Z</time>
      </trkpt>
      <trkpt lat="46.36583" lon="4.5666">
        <ele>294.008</ele>
        <time>2020-09-09T02:05:58Z</time>
      </trkpt>
      <trkpt lat="46.36615" lon="4.56688">
        <ele>299.07</ele>
        <time>2020-09-09T02:06:08Z</time>
      </trkpt>
      <trkpt lat="46.36641" lon="4.56702">
        <ele>300.071</ele>
        <time>2020-09-09T02:06:18Z</time>
      </trkpt>
      <trkpt lat="46.36651" lon="4.56687">
        <ele>300.018</ele>
        <time>2020-09-09T02:06:28Z</time>
      </trkpt>
      <trkpt lat="46.36672" lon="4.56643">
        <ele>297.044</ele>
        <time>2020-09-09T02:06:38Z</time>
      </trkpt>
      <trkpt lat="46.36724" lon="4.56545">
        <ele>299.012</ele>
        <time>2020-09-09T02:06:48Z</time>
      </trkpt>
      <trkpt lat="46.36728" lon="4.56522">
        <ele>299.032</ele>
        <time>2020-09-09T02:06:58Z</time>
      </trkpt>
      <trkpt lat="46.36727" lon="4.56509">
        <ele>299.058</ele>
        <time>2020-09-09T02:07:08Z</time>
      </trkpt>
      <trkpt lat="46.36716" lon="4.56458">
        <ele>300.08</ele>
        <time>2020-09-09T02:07:18Z</time>
      </trkpt>
      <trkpt lat="46.36713" lon="4.56438">
        <ele>300.092</ele>
        <time>2020-09-09T02:07:28Z</time>
      </trkpt>
      <trkpt lat="46.36714" lon="4.56377">
        <ele>300.073</ele>
        <time>2020-09-09T02:07:38Z</time>
      </trkpt>
      <trkpt lat="46.36717" lon="4.56332">
        <ele>300.02</ele>
        <time>2020-09-09T02:07:48Z</time>
      </trkpt>
      <trkpt lat="46.36722" lon="4.56292">
        <ele>298.008</ele>
        <time>2020-09-09T02:07:58Z</time>
      </trkpt>
      <trkpt lat="46.36745" lon="4.56195">
        <ele>295.044</ele>
        <time>2020-09-09T02:08:08Z</time>
      </trkpt>
      <trkpt lat="46.36775" lon="4.56107">
        <ele>298.095</ele>
        <time>2020-09-09T02:08:18Z</time>
      </trkpt>
      <trkpt lat="46.36795" lon="4.56079">
        <ele>298.022</ele>
        <time>2020-09-09T02:08:28Z</time>
      </trkpt>
      <trkpt lat="46.3681" lon="4.56055">
        <ele>298.018</ele>
        <time>2020-09-09T02:08:38Z</time>
      </trkpt>
      <trkpt lat="46.3682" lon="4.56028">
        <ele>298.066</ele>
        <time>2020-09-09T02:08:48Z</time>
      </trkpt>
      <trkpt lat="46.36824" lon="4.56002">
        <ele>299.026</ele>
        <time>2020-09-09T02:08:58Z</time>
      </trkpt>
      <trkpt lat="46.36824" lon="4.55973">
        <ele>300.072</ele>
        <time>2020-09-09T02:09:08Z</time>
      </trkpt>
      <trkpt lat="46.36817" lon="4.55918">
        <ele>301.034</ele>
        <time>2020-09-09T02:09:18Z</time>
      </trkpt>
      <trkpt lat="46.36815" lon="4.55879">
        <ele>302.022</ele>
        <time>2020-09-09T02:09:28Z</time>
      </trkpt>
      <trkpt lat="46.36824" lon="4.55791">
        <ele>302.062</ele>
        <time>2020-09-09T02:09:38Z</time>
      </trkpt>
      <trkpt lat="46.36834" lon="4.55757">
        <ele>302.008</ele>
        <time>2020-09-09T02:09:48Z</time>
      </trkpt>
      <trkpt lat="46.36859" lon="4.55704">
        <ele>307.008</ele>
        <time>2020-09-09T02:09:58Z</time>
      </trkpt>
      <trkpt lat="46.36899" lon="4.55634">
        <ele>307.097</ele>
        <time>2020-09-09T02:10:08Z</time>
      </trkpt>
      <trkpt lat="46.36928" lon="4.55572">
        <ele>309.048</ele>
        <time>2020-09-09T02:10:18Z</time>
      </trkpt>
      <trkpt lat="46.36951" lon="4.555">
        <ele>315.025</ele>
        <time>2020-09-09T02:10:28Z</time>
      </trkpt>
      <trkpt lat="46.36968" lon="4.55461">
        <ele>313.071</ele>
        <time>2020-09-09T02:10:38Z</time>
      </trkpt>
      <trkpt lat="46.36987" lon="4.55429">
        <ele>313.029</ele>
        <time>2020-09-09T02:10:48Z</time>
      </trkpt>
      <trkpt lat="46.37018" lon="4.55383">
        <ele>310.059</ele>
        <time>2020-09-09T02:10:58Z</time>
      </trkpt>
      <trkpt lat="46.37074" lon="4.55311">
        <ele>311.075</ele>
        <time>2020-09-09T02:11:08Z</time>
      </trkpt>
      <trkpt lat="46.37135" lon="4.55166">
        <ele>311.017</ele>
        <time>2020-09-09T02:11:18Z</time>
      </trkpt>
      <trkpt lat="46.37187" lon="4.55019">
        <ele>310.088</ele>
        <time>2020-09-09T02:11:28Z</time>
      </trkpt>
      <trkpt lat="46.37204" lon="4.5494">
        <ele>315.024</ele>
        <time>2020-09-09T02:11:38Z</time>
      </trkpt>
      <trkpt lat="46.37249" lon="4.54568">
        <ele>308.026</ele>
        <time>2020-09-09T02:11:48Z</time>
      </trkpt>
      <trkpt lat="46.37297" lon="4.54203">
        <ele>310.008</ele>
        <time>2020-09-09T02:11:58Z</time>
      </trkpt>
      <trkpt lat="46.37306" lon="4.54163">
        <ele>310.083</ele>
        <time>2020-09-09T02:12:08Z</time>
      </trkpt>
      <trkpt lat="46.37327" lon="4.54082">
        <ele>308.064</ele>
        <time>2020-09-09T02:12:18Z</time>
      </trkpt>
      <trkpt lat="46.3738" lon="4.539">
        <ele>310.021</ele>
        <time>2020-09-09T02:12:28Z</time>
      </trkpt>
      <trkpt lat="46.37399" lon="4.53836">
        <ele>310.077</ele>
        <time>2020-09-09T02:12:38Z</time>
      </trkpt>
      <trkpt lat="46.37411" lon="4.53804">
        <ele>308.095</ele>
        <time>2020-09-09T02:12:48Z</time>
      </trkpt>
      <trkpt lat="46.37423" lon="4.53779">
        <ele>308.015</ele>
        <time>2020-09-09T02:12:58Z</time>
      </trkpt>
      <trkpt lat="46.37493" lon="4.53677">
        <ele>309.081</ele>
        <time>2020-09-09T02:13:08Z</time>
      </trkpt>
      <trkpt lat="46.3751" lon="4.53656">
        <ele>308.033</ele>
        <time>2020-09-09T02:13:18Z</time>
      </trkpt>
      <trkpt lat="46.37532" lon="4.53634">
        <ele>310.056</ele>
        <time>2020-09-09T02:13:28Z</time>
      </trkpt>
      <trkpt lat="46.3757" lon="4.53605">
        <ele>310.059</ele>
        <time>2020-09-09T02:13:38Z</time>
      </trkpt>
      <trkpt lat="46.37617" lon="4.53518">
        <ele>314.014</ele>
        <time>2020-09-09T02:13:48Z</time>
      </trkpt>
      <trkpt lat="46.37637" lon="4.53474">
        <ele>314.008</ele>
        <time>2020-09-09T02:13:58Z</time>
      </trkpt>
      <trkpt lat="46.37651" lon="4.53435">
        <ele>313.06</ele>
        <time>2020-09-09T02:14:08Z</time>
      </trkpt>
      <trkpt lat="46.37682" lon="4.53269">
        <ele>313.071</ele>
        <time>2020-09-09T02:14:18Z</time>
      </trkpt>
      <trkpt lat="46.37688" lon="4.53252">
        <ele>312.098</ele>
        <time>2020-09-09T02:14:28Z</time>
      </trkpt>
      <trkpt lat="46.37697" lon="4.53236">
        <ele>311.054</ele>
        <time>2020-09-09T02:14:38Z</time>
      </trkpt>
      <trkpt lat="46.37712" lon="4.53216">
        <ele>311.092</ele>
        <time>2020-09-09T02:14:48Z</time>
      </trkpt>
      <trkpt lat="46.37736" lon="4.5319">
        <ele>311.062</ele>
        <time>2020-09-09T02:14:58Z</time>
      </trkpt>
      <trkpt lat="46.37826" lon="4.53105">
        <ele>309.018</ele>
        <time>2020-09-09T02:15:08Z</time>
      </trkpt>
      <trkpt lat="46.37867" lon="4.53082">
        <ele>311.09</ele>
        <time>2020-09-09T02:15:18Z</time>
      </trkpt>
      <trkpt lat="46.37989" lon="4.52978">
        <ele>311.045</ele>
        <time>2020-09-09T02:15:28Z</time>
      </trkpt>
      <trkpt lat="46.38039" lon="4.52918">
        <ele>312.047</ele>
        <time>2020-09-09T02:15:38Z</time>
      </trkpt>
      <trkpt lat="46.38155" lon="4.52756">
        <ele>311.011</ele>
        <time>2020-09-09T02:15:48Z</time>
      </trkpt>
      <trkpt lat="46.38185" lon="4.52723">
        <ele>310.008</ele>
        <time>2020-09-09T02:15:58Z</time>
      </trkpt>
      <trkpt lat="46.38235" lon="4.52683">
        <ele>311.069</ele>
        <time>2020-09-09T02:16:08Z</time>
      </trkpt>
      <trkpt lat="46.38254" lon="4.52664">
        <ele>311.07</ele>
        <time>2020-09-09T02:16:18Z</time>
      </trkpt>
      <trkpt lat="46.38263" lon="4.52651">
        <ele>309.067</ele>
        <time>2020-09-09T02:16:28Z</time>
      </trkpt>
      <trkpt lat="46.38277" lon="4.52628">
        <ele>311.093</ele>
        <time>2020-09-09T02:16:38Z</time>
      </trkpt>
      <trkpt lat="46.38342" lon="4.52436">
        <ele>309.041</ele>
        <time>2020-09-09T02:16:48Z</time>
      </trkpt>
      <trkpt lat="46.38333" lon="4.52423">
        <ele>309.031</ele>
        <time>2020-09-09T02:16:58Z</time>
      </trkpt>
      <trkpt lat="46.3827" lon="4.52353">
        <ele>310.047</ele>
        <time>2020-09-09T02:17:08Z</time>
      </trkpt>
      <trkpt lat="46.38251" lon="4.52342">
        <ele>310.089</ele>
        <time>2020-09-09T02:17:18Z</time>
      </trkpt>
      <trkpt lat="46.38213" lon="4.52327">
        <ele>311.022</ele>
        <time>2020-09-09T02:17:28Z</time>
      </trkpt>
      <trkpt lat="46.38203" lon="4.52318">
        <ele>312.062</ele>
        <time>2020-09-09T02:17:38Z</time>
      </trkpt>
      <trkpt lat="46.38197" lon="4.523">
        <ele>312.008</ele>
        <time>2020-09-09T02:17:48Z</time>
      </trkpt>
      <trkpt lat="46.38163" lon="4.51998">
        <ele>318.008</ele>
        <time>2020-09-09T02:17:58Z</time>
      </trkpt>
      <trkpt lat="46.38146" lon="4.51914">
        <ele>319.057</ele>
        <time>2020-09-09T02:18:08Z</time>
      </trkpt>
      <trkpt lat="46.38118" lon="4.51808">
        <ele>321.058</ele>
        <time>2020-09-09T02:18:18Z</time>
      </trkpt>
      <trkpt lat="46.38116" lon="4.51791">
        <ele>321.015</ele>
        <time>2020-09-09T02:18:28Z</time>
      </trkpt>
      <trkpt lat="46.38112" lon="4.51744">
        <ele>321.061</ele>
        <time>2020-09-09T02:18:38Z</time>
      </trkpt>
      <trkpt lat="46.38118" lon="4.51538">
        <ele>320.089</ele>
        <time>2020-09-09T02:18:48Z</time>
      </trkpt>
      <trkpt lat="46.38118" lon="4.51468">
        <ele>322.059</ele>
        <time>2020-09-09T02:18:58Z</time>
      </trkpt>
      <trkpt lat="46.38115" lon="4.51431">
        <ele>323.025</ele>
        <time>2020-09-09T02:19:08Z</time>
      </trkpt>
      <trkpt lat="46.38089" lon="4.51319">
        <ele>324.017</ele>
        <time>2020-09-09T02:19:18Z</time>
      </trkpt>
      <trkpt lat="46.38053" lon="4.51207">
        <ele>325.076</ele>
        <time>2020-09-09T02:19:28Z</time>
      </trkpt>
      <trkpt lat="46.38012" lon="4.51091">
        <ele>324.09</ele>
        <time>2020-09-09T02:19:38Z</time>
      </trkpt>
      <trkpt lat="46.37997" lon="4.5104">
        <ele>323.019</ele>
        <time>2020-09-09T02:19:48Z</time>
      </trkpt>
      <trkpt lat="46.37975" lon="4.50948">
        <ele>324.008</ele>
        <time>2020-09-09T02:19:58Z</time>
      </trkpt>
      <trkpt lat="46.37973" lon="4.5092">
        <ele>324.052</ele>
        <time>2020-09-09T02:20:08Z</time>
      </trkpt>
      <trkpt lat="46.37971" lon="4.50829">
        <ele>325.093</ele>
        <time>2020-09-09T02:20:18Z</time>
      </trkpt>
      <trkpt lat="46.37962" lon="4.50783">
        <ele>326.09</ele>
        <time>2020-09-09T02:20:28Z</time>
      </trkpt>
      <trkpt lat="46.37955" lon="4.50763">
        <ele>326.036</ele>
        <time>2020-09-09T02:20:38Z</time>
      </trkpt>
      <trkpt lat="46.37942" lon="4.50739">
        <ele>327.074</ele>
        <time>2020-09-09T02:20:48Z</time>
      </trkpt>
      <trkpt lat="46.37905" lon="4.50699">
        <ele>325.054</ele>
        <time>2020-09-09T02:20:58Z</time>
      </trkpt>
      <trkpt lat="46.37892" lon="4.5068">
        <ele>325.08</ele>
        <time>2020-09-09T02:21:08Z</time>
      </trkpt>
      <trkpt lat="46.37886" lon="4.50661">
        <ele>325.042</ele>
        <time>2020-09-09T02:21:18Z</time>
      </trkpt>
      <trkpt lat="46.37884" lon="4.50637">
        <ele>326.093</ele>
        <time>2020-09-09T02:21:28Z</time>
      </trkpt>
      <trkpt lat="46.37885" lon="4.50608">
        <ele>326.065</ele>
        <time>2020-09-09T02:21:38Z</time>
      </trkpt>
      <trkpt lat="46.37895" lon="4.5045">
        <ele>330.021</ele>
        <time>2020-09-09T02:21:48Z</time>
      </trkpt>
      <trkpt lat="46.37899" lon="4.50353">
        <ele>332.008</ele>
        <time>2020-09-09T02:21:58Z</time>
      </trkpt>
      <trkpt lat="46.37897" lon="4.5031">
        <ele>334.014</ele>
        <time>2020-09-09T02:22:08Z</time>
      </trkpt>
      <trkpt lat="46.37889" lon="4.50201">
        <ele>337.035</ele>
        <time>2020-09-09T02:22:18Z</time>
      </trkpt>
      <trkpt lat="46.37881" lon="4.50168">
        <ele>338.022</ele>
        <time>2020-09-09T02:22:28Z</time>
      </trkpt>
      <trkpt lat="46.37875" lon="4.50154">
        <ele>340.038</ele>
        <time>2020-09-09T02:22:38Z</time>
      </trkpt>
      <trkpt lat="46.37869" lon="4.50148">
        <ele>339.096</ele>
        <time>2020-09-09T02:22:48Z</time>
      </trkpt>
      <trkpt lat="46.37859" lon="4.50142">
        <ele>339.056</ele>
        <time>2020-09-09T02:22:58Z</time>
      </trkpt>
      <trkpt lat="46.37841" lon="4.50144">
        <ele>334.052</ele>
        <time>2020-09-09T02:23:08Z</time>
      </trkpt>
      <trkpt lat="46.37816" lon="4.50156">
        <ele>333.054</ele>
        <time>2020-09-09T02:23:18Z</time>
      </trkpt>
      <trkpt lat="46.37808" lon="4.50158">
        <ele>333.011</ele>
        <time>2020-09-09T02:23:28Z</time>
      </trkpt>
      <trkpt lat="46.37801" lon="4.50156">
        <ele>333.021</ele>
        <time>2020-09-09T02:23:38Z</time>
      </trkpt>
      <trkpt lat="46.37792" lon="4.50151">
        <ele>333.003</ele>
        <time>2020-09-09T02:23:48Z</time>
      </trkpt>
      <trkpt lat="46.37784" lon="4.50142">
        <ele>333.008</ele>
        <time>2020-09-09T02:23:58Z</time>
      </trkpt>
      <trkpt lat="46.37779" lon="4.50131">
        <ele>333.056</ele>
        <time>2020-09-09T02:24:08Z</time>
      </trkpt>
      <trkpt lat="46.37773" lon="4.50092">
        <ele>333.017</ele>
        <time>2020-09-09T02:24:18Z</time>
      </trkpt>
      <trkpt lat="46.3777" lon="4.50023">
        <ele>333.084</ele>
        <time>2020-09-09T02:24:28Z</time>
      </trkpt>
      <trkpt lat="46.37769" lon="4.49778">
        <ele>335.04</ele>
        <time>2020-09-09T02:24:38Z</time>
      </trkpt>
      <trkpt lat="46.37777" lon="4.49699">
        <ele>338.048</ele>
        <time>2020-09-09T02:24:48Z</time>
      </trkpt>
      <trkpt lat="46.37793" lon="4.496">
        <ele>338.098</ele>
        <time>2020-09-09T02:24:58Z</time>
      </trkpt>
      <trkpt lat="46.37801" lon="4.49517">
        <ele>338.084</ele>
        <time>2020-09-09T02:25:08Z</time>
      </trkpt>
      <trkpt lat="46.37804" lon="4.49459">
        <ele>340.096</ele>
        <time>2020-09-09T02:25:18Z</time>
      </trkpt>
      <trkpt lat="46.37803" lon="4.49406">
        <ele>342.068</ele>
        <time>2020-09-09T02:25:28Z</time>
      </trkpt>
      <trkpt lat="46.37801" lon="4.49376">
        <ele>343.042</ele>
        <time>2020-09-09T02:25:38Z</time>
      </trkpt>
      <trkpt lat="46.37785" lon="4.49293">
        <ele>343.026</ele>
        <time>2020-09-09T02:25:48Z</time>
      </trkpt>
      <trkpt lat="46.37783" lon="4.49258">
        <ele>343.008</ele>
        <time>2020-09-09T02:25:58Z</time>
      </trkpt>
      <trkpt lat="46.37785" lon="4.49221">
        <ele>344.091</ele>
        <time>2020-09-09T02:26:08Z</time>
      </trkpt>
      <trkpt lat="46.37791" lon="4.4917">
        <ele>344.042</ele>
        <time>2020-09-09T02:26:18Z</time>
      </trkpt>
      <trkpt lat="46.37796" lon="4.491">
        <ele>344.019</ele>
        <time>2020-09-09T02:26:28Z</time>
      </trkpt>
      <trkpt lat="46.37804" lon="4.49054">
        <ele>343.035</ele>
        <time>2020-09-09T02:26:38Z</time>
      </trkpt>
      <trkpt lat="46.37812" lon="4.49031">
        <ele>344.073</ele>
        <time>2020-09-09T02:26:48Z</time>
      </trkpt>
      <trkpt lat="46.37832" lon="4.48996">
        <ele>343.083</ele>
        <time>2020-09-09T02:26:58Z</time>
      </trkpt>
      <trkpt lat="46.37848" lon="4.48972">
        <ele>342.049</ele>
        <time>2020-09-09T02:27:08Z</time>
      </trkpt>
      <trkpt lat="46.37865" lon="4.48975">
        <ele>344.051</ele>
        <time>2020-09-09T02:27:18Z</time>
      </trkpt>
      <trkpt lat="46.37898" lon="4.48964">
        <ele>343.056</ele>
        <time>2020-09-09T02:27:28Z</time>
      </trkpt>
      <trkpt lat="46.37908" lon="4.48956">
        <ele>343.059</ele>
        <time>2020-09-09T02:27:38Z</time>
      </trkpt>
      <trkpt lat="46.37922" lon="4.48941">
        <ele>344.014</ele>
        <time>2020-09-09T02:27:48Z</time>
      </trkpt>
      <trkpt lat="46.37945" lon="4.48911">
        <ele>347.008</ele>
        <time>2020-09-09T02:27:58Z</time>
      </trkpt>
      <trkpt lat="46.38035" lon="4.48781">
        <ele>349.02</ele>
        <time>2020-09-09T02:28:08Z</time>
      </trkpt>
      <trkpt lat="46.38064" lon="4.48723">
        <ele>349.091</ele>
        <time>2020-09-09T02:28:18Z</time>
      </trkpt>
      <trkpt lat="46.38087" lon="4.48663">
        <ele>350.018</ele>
        <time>2020-09-09T02:28:28Z</time>
      </trkpt>
      <trkpt lat="46.38107" lon="4.48595">
        <ele>354.084</ele>
        <time>2020-09-09T02:28:38Z</time>
      </trkpt>
      <trkpt lat="46.38117" lon="4.48548">
        <ele>353.032</ele>
        <time>2020-09-09T02:28:48Z</time>
      </trkpt>
      <trkpt lat="46.38121" lon="4.48517">
        <ele>353.082</ele>
        <time>2020-09-09T02:28:58Z</time>
      </trkpt>
      <trkpt lat="46.38125" lon="4.48471">
        <ele>352.088</ele>
        <time>2020-09-09T02:29:08Z</time>
      </trkpt>
      <trkpt lat="46.38126" lon="4.48427">
        <ele>352.03</ele>
        <time>2020-09-09T02:29:18Z</time>
      </trkpt>
      <trkpt lat="46.38124" lon="4.48385">
        <ele>351.053</ele>
        <time>2020-09-09T02:29:28Z</time>
      </trkpt>
      <trkpt lat="46.38115" lon="4.48305">
        <ele>352.004</ele>
        <time>2020-09-09T02:29:38Z</time>
      </trkpt>
      <trkpt lat="46.38113" lon="4.48282">
        <ele>352.014</ele>
        <time>2020-09-09T02:29:48Z</time>
      </trkpt>
      <trkpt lat="46.38118" lon="4.48258">
        <ele>352.008</ele>
        <time>2020-09-09T02:29:58Z</time>
      </trkpt>
      <trkpt lat="46.38123" lon="4.48249">
        <ele>352.05</ele>
        <time>2020-09-09T02:30:08Z</time>
      </trkpt>
      <trkpt lat="46.38129" lon="4.48245">
        <ele>352.071</ele>
        <time>2020-09-09T02:30:18Z</time>
      </trkpt>
      <trkpt lat="46.38179" lon="4.48239">
        <ele>352.028</ele>
        <time>2020-09-09T02:30:28Z</time>
      </trkpt>
      <trkpt lat="46.38184" lon="4.48236">
        <ele>352.024</ele>
        <time>2020-09-09T02:30:38Z</time>
      </trkpt>
      <trkpt lat="46.38187" lon="4.48223">
        <ele>353.092</ele>
        <time>2020-09-09T02:30:48Z</time>
      </trkpt>
      <trkpt lat="46.38181" lon="4.48095">
        <ele>355.082</ele>
        <time>2020-09-09T02:30:58Z</time>
      </trkpt>
      <trkpt lat="46.38178" lon="4.47989">
        <ele>358.038</ele>
        <time>2020-09-09T02:31:08Z</time>
      </trkpt>
      <trkpt lat="46.38185" lon="4.47981">
        <ele>359.03</ele>
        <time>2020-09-09T02:31:18Z</time>
      </trkpt>
      <trkpt lat="46.3819" lon="4.4797">
        <ele>362.095</ele>
        <time>2020-09-09T02:31:28Z</time>
      </trkpt>
      <trkpt lat="46.38194" lon="4.47951">
        <ele>362.049</ele>
        <time>2020-09-09T02:31:38Z</time>
      </trkpt>
      <trkpt lat="46.38206" lon="4.47807">
        <ele>364.023</ele>
        <time>2020-09-09T02:31:48Z</time>
      </trkpt>
      <trkpt lat="46.38211" lon="4.4778">
        <ele>364.008</ele>
        <time>2020-09-09T02:31:58Z</time>
      </trkpt>
      <trkpt lat="46.38216" lon="4.4777">
        <ele>364.074</ele>
        <time>2020-09-09T02:32:08Z</time>
      </trkpt>
      <trkpt lat="46.38256" lon="4.47721">
        <ele>363.025</ele>
        <time>2020-09-09T02:32:18Z</time>
      </trkpt>
      <trkpt lat="46.38272" lon="4.47706">
        <ele>363.052</ele>
        <time>2020-09-09T02:32:28Z</time>
      </trkpt>
      <trkpt lat="46.3832" lon="4.47674">
        <ele>367.088</ele>
        <time>2020-09-09T02:32:38Z</time>
      </trkpt>
      <trkpt lat="46.38354" lon="4.47641">
        <ele>364.046</ele>
        <time>2020-09-09T02:32:48Z</time>
      </trkpt>
      <trkpt lat="46.38364" lon="4.47635">
        <ele>367.036</ele>
        <time>2020-09-09T02:32:58Z</time>
      </trkpt>
      <trkpt lat="46.38444" lon="4.47607">
        <ele>374.092</ele>
        <time>2020-09-09T02:33:08Z</time>
      </trkpt>
      <trkpt lat="46.3848" lon="4.47591">
        <ele>375.064</ele>
        <time>2020-09-09T02:33:18Z</time>
      </trkpt>
      <trkpt lat="46.38587" lon="4.47508">
        <ele>378.035</ele>
        <time>2020-09-09T02:33:28Z</time>
      </trkpt>
      <trkpt lat="46.38619" lon="4.47475">
        <ele>382.086</ele>
        <time>2020-09-09T02:33:38Z</time>
      </trkpt>
      <trkpt lat="46.38634" lon="4.47443">
        <ele>382.014</ele>
        <time>2020-09-09T02:33:48Z</time>
      </trkpt>
      <trkpt lat="46.38641" lon="4.4742">
        <ele>382.008</ele>
        <time>2020-09-09T02:33:58Z</time>
      </trkpt>
      <trkpt lat="46.38656" lon="4.47386">
        <ele>380.058</ele>
        <time>2020-09-09T02:34:08Z</time>
      </trkpt>
      <trkpt lat="46.38666" lon="4.47371">
        <ele>381.049</ele>
        <time>2020-09-09T02:34:18Z</time>
      </trkpt>
      <trkpt lat="46.38674" lon="4.47362">
        <ele>381.086</ele>
        <time>2020-09-09T02:34:28Z</time>
      </trkpt>
      <trkpt lat="46.38751" lon="4.47309">
        <ele>389.072</ele>
        <time>2020-09-09T02:34:38Z</time>
      </trkpt>
      <trkpt lat="46.38761" lon="4.47298">
        <ele>389.06</ele>
        <time>2020-09-09T02:34:48Z</time>
      </trkpt>
      <trkpt lat="46.38768" lon="4.47285">
        <ele>390.07</ele>
        <time>2020-09-09T02:34:58Z</time>
      </trkpt>
      <trkpt lat="46.38772" lon="4.47266">
        <ele>391.076</ele>
        <time>2020-09-09T02:35:08Z</time>
      </trkpt>
      <trkpt lat="46.38773" lon="4.47246">
        <ele>398.058</ele>
        <time>2020-09-09T02:35:18Z</time>
      </trkpt>
      <trkpt lat="46.38771" lon="4.47212">
        <ele>395.016</ele>
        <time>2020-09-09T02:35:28Z</time>
      </trkpt>
      <trkpt lat="46.38761" lon="4.47177">
        <ele>396.076</ele>
        <time>2020-09-09T02:35:38Z</time>
      </trkpt>
      <trkpt lat="46.38753" lon="4.47161">
        <ele>397.013</ele>
        <time>2020-09-09T02:35:48Z</time>
      </trkpt>
      <trkpt lat="46.38746" lon="4.47154">
        <ele>402.008</ele>
        <time>2020-09-09T02:35:58Z</time>
      </trkpt>
      <trkpt lat="46.38735" lon="4.4715">
        <ele>402.016</ele>
        <time>2020-09-09T02:36:08Z</time>
      </trkpt>
      <trkpt lat="46.38713" lon="4.47151">
        <ele>401.087</ele>
        <time>2020-09-09T02:36:18Z</time>
      </trkpt>
      <trkpt lat="46.387" lon="4.47149">
        <ele>401.014</ele>
        <time>2020-09-09T02:36:28Z</time>
      </trkpt>
      <trkpt lat="46.38683" lon="4.47135">
        <ele>395.09</ele>
        <time>2020-09-09T02:36:38Z</time>
      </trkpt>
      <trkpt lat="46.38675" lon="4.47121">
        <ele>395.068</ele>
        <time>2020-09-09T02:36:48Z</time>
      </trkpt>
      <trkpt lat="46.38654" lon="4.47075">
        <ele>395.088</ele>
        <time>2020-09-09T02:36:58Z</time>
      </trkpt>
      <trkpt lat="46.38646" lon="4.47049">
        <ele>399.074</ele>
        <time>2020-09-09T02:37:08Z</time>
      </trkpt>
      <trkpt lat="46.38641" lon="4.47024">
        <ele>399.096</ele>
        <time>2020-09-09T02:37:18Z</time>
      </trkpt>
      <trkpt lat="46.3864" lon="4.47002">
        <ele>398.079</ele>
        <time>2020-09-09T02:37:28Z</time>
      </trkpt>
      <trkpt lat="46.38642" lon="4.46949">
        <ele>399.005</ele>
        <time>2020-09-09T02:37:38Z</time>
      </trkpt>
      <trkpt lat="46.38651" lon="4.46855">
        <ele>399.025</ele>
        <time>2020-09-09T02:37:48Z</time>
      </trkpt>
      <trkpt lat="46.38648" lon="4.46732">
        <ele>402.008</ele>
        <time>2020-09-09T02:37:58Z</time>
      </trkpt>
      <trkpt lat="46.38652" lon="4.46701">
        <ele>402.082</ele>
        <time>2020-09-09T02:38:08Z</time>
      </trkpt>
      <trkpt lat="46.38658" lon="4.46681">
        <ele>402.043</ele>
        <time>2020-09-09T02:38:18Z</time>
      </trkpt>
      <trkpt lat="46.38666" lon="4.46663">
        <ele>402.06</ele>
        <time>2020-09-09T02:38:28Z</time>
      </trkpt>
      <trkpt lat="46.38679" lon="4.46645">
        <ele>401.086</ele>
        <time>2020-09-09T02:38:38Z</time>
      </trkpt>
      <trkpt lat="46.38705" lon="4.46616">
        <ele>411.084</ele>
        <time>2020-09-09T02:38:48Z</time>
      </trkpt>
      <trkpt lat="46.38718" lon="4.46598">
        <ele>412.084</ele>
        <time>2020-09-09T02:38:58Z</time>
      </trkpt>
      <trkpt lat="46.38732" lon="4.46571">
        <ele>410.02</ele>
        <time>2020-09-09T02:39:08Z</time>
      </trkpt>
      <trkpt lat="46.38742" lon="4.46542">
        <ele>409.082</ele>
        <time>2020-09-09T02:39:18Z</time>
      </trkpt>
      <trkpt lat="46.38749" lon="4.46502">
        <ele>409.045</ele>
        <time>2020-09-09T02:39:28Z</time>
      </trkpt>
      <trkpt lat="46.38756" lon="4.46485">
        <ele>409.047</ele>
        <time>2020-09-09T02:39:38Z</time>
      </trkpt>
      <trkpt lat="46.38774" lon="4.46464">
        <ele>416.011</ele>
        <time>2020-09-09T02:39:48Z</time>
      </trkpt>
      <trkpt lat="46.38812" lon="4.46442">
        <ele>417.008</ele>
        <time>2020-09-09T02:39:58Z</time>
      </trkpt>
      <trkpt lat="46.3882" lon="4.46434">
        <ele>418.099</ele>
        <time>2020-09-09T02:40:08Z</time>
      </trkpt>
      <trkpt lat="46.38828" lon="4.46422">
        <ele>419.05</ele>
        <time>2020-09-09T02:40:18Z</time>
      </trkpt>
      <trkpt lat="46.38833" lon="4.46404">
        <ele>421.047</ele>
        <time>2020-09-09T02:40:28Z</time>
      </trkpt>
      <trkpt lat="46.38838" lon="4.46377">
        <ele>421.023</ele>
        <time>2020-09-09T02:40:38Z</time>
      </trkpt>
      <trkpt lat="46.38844" lon="4.46332">
        <ele>424.041</ele>
        <time>2020-09-09T02:40:48Z</time>
      </trkpt>
      <trkpt lat="46.38844" lon="4.46299">
        <ele>430.031</ele>
        <time>2020-09-09T02:40:58Z</time>
      </trkpt>
      <trkpt lat="46.38842" lon="4.46266">
        <ele>432.077</ele>
        <time>2020-09-09T02:41:08Z</time>
      </trkpt>
      <trkpt lat="46.3884" lon="4.46253">
        <ele>434.079</ele>
        <time>2020-09-09T02:41:18Z</time>
      </trkpt>
      <trkpt lat="46.38832" lon="4.46235">
        <ele>442.022</ele>
        <time>2020-09-09T02:41:28Z</time>
      </trkpt>
      <trkpt lat="46.38816" lon="4.46224">
        <ele>442.062</ele>
        <time>2020-09-09T02:41:38Z</time>
      </trkpt>
      <trkpt lat="46.38808" lon="4.46221">
        <ele>442.008</ele>
        <time>2020-09-09T02:41:48Z</time>
      </trkpt>
      <trkpt lat="46.38794" lon="4.46221">
        <ele>443.008</ele>
        <time>2020-09-09T02:41:58Z</time>
      </trkpt>
      <trkpt lat="46.38648" lon="4.46235">
        <ele>439.077</ele>
        <time>2020-09-09T02:42:08Z</time>
      </trkpt>
      <trkpt lat="46.38623" lon="4.46233">
        <ele>438.098</ele>
        <time>2020-09-09T02:42:18Z</time>
      </trkpt>
      <trkpt lat="46.38602" lon="4.46225">
        <ele>434.025</ele>
        <time>2020-09-09T02:42:28Z</time>
      </trkpt>
      <trkpt lat="46.38581" lon="4.46208">
        <ele>434.091</ele>
        <time>2020-09-09T02:42:38Z</time>
      </trkpt>
      <trkpt lat="46.38554" lon="4.46171">
        <ele>433.059</ele>
        <time>2020-09-09T02:42:48Z</time>
      </trkpt>
      <trkpt lat="46.38538" lon="4.46138">
        <ele>437.029</ele>
        <time>2020-09-09T02:42:58Z</time>
      </trkpt>
      <trkpt lat="46.38522" lon="4.46088">
        <ele>431.035</ele>
        <time>2020-09-09T02:43:08Z</time>
      </trkpt>
      <trkpt lat="46.38516" lon="4.46047">
        <ele>431.087</ele>
        <time>2020-09-09T02:43:18Z</time>
      </trkpt>
      <trkpt lat="46.38517" lon="4.46017">
        <ele>431.063</ele>
        <time>2020-09-09T02:43:28Z</time>
      </trkpt>
      <trkpt lat="46.3852" lon="4.45988">
        <ele>429.044</ele>
        <time>2020-09-09T02:43:38Z</time>
      </trkpt>
      <trkpt lat="46.38527" lon="4.45962">
        <ele>431.018</ele>
        <time>2020-09-09T02:43:48Z</time>
      </trkpt>
      <trkpt lat="46.38535" lon="4.45937">
        <ele>431.008</ele>
        <time>2020-09-09T02:43:58Z</time>
      </trkpt>
      <trkpt lat="46.38551" lon="4.45907">
        <ele>427.031</ele>
        <time>2020-09-09T02:44:08Z</time>
      </trkpt>
      <trkpt lat="46.38616" lon="4.45826">
        <ele>432.022</ele>
        <time>2020-09-09T02:44:18Z</time>
      </trkpt>
      <trkpt lat="46.38656" lon="4.45771">
        <ele>424.079</ele>
        <time>2020-09-09T02:44:28Z</time>
      </trkpt>
      <trkpt lat="46.3867" lon="4.45756">
        <ele>424.065</ele>
        <time>2020-09-09T02:44:38Z</time>
      </trkpt>
      <trkpt lat="46.38715" lon="4.45726">
        <ele>421.073</ele>
        <time>2020-09-09T02:44:48Z</time>
      </trkpt>
      <trkpt lat="46.38769" lon="4.45684">
        <ele>420.073</ele>
        <time>2020-09-09T02:44:58Z</time>
      </trkpt>
      <trkpt lat="46.38817" lon="4.45666">
        <ele>425.029</ele>
        <time>2020-09-09T02:45:08Z</time>
      </trkpt>
      <trkpt lat="46.38853" lon="4.45657">
        <ele>419.021</ele>
        <time>2020-09-09T02:45:18Z</time>
      </trkpt>
      <trkpt lat="46.38867" lon="4.45656">
        <ele>424.063</ele>
        <time>2020-09-09T02:45:28Z</time>
      </trkpt>
      <trkpt lat="46.38938" lon="4.45663">
        <ele>432.044</ele>
        <time>2020-09-09T02:45:38Z</time>
      </trkpt>
      <trkpt lat="46.38978" lon="4.45657">
        <ele>429.018</ele>
        <time>2020-09-09T02:45:48Z</time>
      </trkpt>
      <trkpt lat="46.39036" lon="4.45625">
        <ele>425.008</ele>
        <time>2020-09-09T02:45:58Z</time>
      </trkpt>
      <trkpt lat="46.3904" lon="4.45616">
        <ele>425.081</ele>
        <time>2020-09-09T02:46:08Z</time>
      </trkpt>
      <trkpt lat="46.39021" lon="4.45617">
        <ele>427.022</ele>
        <time>2020-09-09T02:46:18Z</time>
      </trkpt>
      <trkpt lat="46.3896" lon="4.45633">
        <ele>428.049</ele>
        <time>2020-09-09T02:46:28Z</time>
      </trkpt>
      <trkpt lat="46.38942" lon="4.45635">
        <ele>427.095</ele>
        <time>2020-09-09T02:46:38Z</time>
      </trkpt>
      <trkpt lat="46.38896" lon="4.45631">
        <ele>422.063</ele>
        <time>2020-09-09T02:46:48Z</time>
      </trkpt>
      <trkpt lat="46.38849" lon="4.45624">
        <ele>416.083</ele>
        <time>2020-09-09T02:46:58Z</time>
      </trkpt>
      <trkpt lat="46.38824" lon="4.45625">
        <ele>414.099</ele>
        <time>2020-09-09T02:47:08Z</time>
      </trkpt>
      <trkpt lat="46.38797" lon="4.45631">
        <ele>414.051</ele>
        <time>2020-09-09T02:47:18Z</time>
      </trkpt>
      <trkpt lat="46.38783" lon="4.45639">
        <ele>414.052</ele>
        <time>2020-09-09T02:47:28Z</time>
      </trkpt>
      <trkpt lat="46.38763" lon="4.45634">
        <ele>408.053</ele>
        <time>2020-09-09T02:47:38Z</time>
      </trkpt>
      <trkpt lat="46.38746" lon="4.45637">
        <ele>408.008</ele>
        <time>2020-09-09T02:47:48Z</time>
      </trkpt>
      <trkpt lat="46.38733" lon="4.45645">
        <ele>408.008</ele>
        <time>2020-09-09T02:47:58Z</time>
      </trkpt>
      <trkpt lat="46.3864" lon="4.45727">
        <ele>414.02</ele>
        <time>2020-09-09T02:48:08Z</time>
      </trkpt>
      <trkpt lat="46.38564" lon="4.45791">
        <ele>416.091</ele>
        <time>2020-09-09T02:48:18Z</time>
      </trkpt>
      <trkpt lat="46.38547" lon="4.45798">
        <ele>417.038</ele>
        <time>2020-09-09T02:48:28Z</time>
      </trkpt>
      <trkpt lat="46.38531" lon="4.458">
        <ele>417.054</ele>
        <time>2020-09-09T02:48:38Z</time>
      </trkpt>
      <trkpt lat="46.3851" lon="4.45793">
        <ele>415.082</ele>
        <time>2020-09-09T02:48:48Z</time>
      </trkpt>
      <trkpt lat="46.38465" lon="4.45771">
        <ele>414.012</ele>
        <time>2020-09-09T02:48:58Z</time>
      </trkpt>
      <trkpt lat="46.38404" lon="4.45732">
        <ele>409.068</ele>
        <time>2020-09-09T02:49:08Z</time>
      </trkpt>
      <trkpt lat="46.3838" lon="4.45723">
        <ele>409.05</ele>
        <time>2020-09-09T02:49:18Z</time>
      </trkpt>
      <trkpt lat="46.3833" lon="4.45715">
        <ele>413.024</ele>
        <time>2020-09-09T02:49:28Z</time>
      </trkpt>
      <trkpt lat="46.38147" lon="4.45692">
        <ele>439.004</ele>
        <time>2020-09-09T02:49:38Z</time>
      </trkpt>
      <trkpt lat="46.38109" lon="4.45695">
        <ele>440.014</ele>
        <time>2020-09-09T02:49:48Z</time>
      </trkpt>
      <trkpt lat="46.38087" lon="4.45698">
        <ele>446.008</ele>
        <time>2020-09-09T02:49:58Z</time>
      </trkpt>
      <trkpt lat="46.38033" lon="4.45716">
        <ele>446.077</ele>
        <time>2020-09-09T02:50:08Z</time>
      </trkpt>
      <trkpt lat="46.38006" lon="4.45727">
        <ele>446.018</ele>
        <time>2020-09-09T02:50:18Z</time>
      </trkpt>
      <trkpt lat="46.37977" lon="4.45728">
        <ele>445.015</ele>
        <time>2020-09-09T02:50:28Z</time>
      </trkpt>
      <trkpt lat="46.37956" lon="4.45723">
        <ele>444.051</ele>
        <time>2020-09-09T02:50:38Z</time>
      </trkpt>
      <trkpt lat="46.37822" lon="4.45672">
        <ele>446.059</ele>
        <time>2020-09-09T02:50:48Z</time>
      </trkpt>
      <trkpt lat="46.3768" lon="4.45622">
        <ele>448.089</ele>
        <time>2020-09-09T02:50:58Z</time>
      </trkpt>
      <trkpt lat="46.37657" lon="4.45607">
        <ele>449.035</ele>
        <time>2020-09-09T02:51:08Z</time>
      </trkpt>
      <trkpt lat="46.37641" lon="4.4559">
        <ele>449.067</ele>
        <time>2020-09-09T02:51:18Z</time>
      </trkpt>
      <trkpt lat="46.37578" lon="4.45508">
        <ele>449.046</ele>
        <time>2020-09-09T02:51:28Z</time>
      </trkpt>
      <trkpt lat="46.37564" lon="4.45496">
        <ele>450.088</ele>
        <time>2020-09-09T02:51:38Z</time>
      </trkpt>
      <trkpt lat="46.37518" lon="4.45466">
        <ele>456.016</ele>
        <time>2020-09-09T02:51:48Z</time>
      </trkpt>
      <trkpt lat="46.37489" lon="4.4545">
        <ele>454.008</ele>
        <time>2020-09-09T02:51:58Z</time>
      </trkpt>
      <trkpt lat="46.37482" lon="4.45449">
        <ele>451.049</ele>
        <time>2020-09-09T02:52:08Z</time>
      </trkpt>
      <trkpt lat="46.37464" lon="4.45452">
        <ele>456.03</ele>
        <time>2020-09-09T02:52:18Z</time>
      </trkpt>
      <trkpt lat="46.37451" lon="4.45461">
        <ele>457.017</ele>
        <time>2020-09-09T02:52:28Z</time>
      </trkpt>
      <trkpt lat="46.37384" lon="4.45547">
        <ele>453.053</ele>
        <time>2020-09-09T02:52:38Z</time>
      </trkpt>
      <trkpt lat="46.37375" lon="4.45561">
        <ele>454.061</ele>
        <time>2020-09-09T02:52:48Z</time>
      </trkpt>
      <trkpt lat="46.3737" lon="4.45576">
        <ele>448.021</ele>
        <time>2020-09-09T02:52:58Z</time>
      </trkpt>
      <trkpt lat="46.37366" lon="4.45599">
        <ele>447.097</ele>
        <time>2020-09-09T02:53:08Z</time>
      </trkpt>
      <trkpt lat="46.37406" lon="4.45552">
        <ele>452.049</ele>
        <time>2020-09-09T02:53:18Z</time>
      </trkpt>
      <trkpt lat="46.37413" lon="4.45548">
        <ele>451.044</ele>
        <time>2020-09-09T02:53:28Z</time>
      </trkpt>
      <trkpt lat="46.37429" lon="4.45549">
        <ele>451.005</ele>
        <time>2020-09-09T02:53:38Z</time>
      </trkpt>
      <trkpt lat="46.37438" lon="4.45554">
        <ele>450.015</ele>
        <time>2020-09-09T02:53:48Z</time>
      </trkpt>
      <trkpt lat="46.37453" lon="4.4557">
        <ele>445.008</ele>
        <time>2020-09-09T02:53:58Z</time>
      </trkpt>
      <trkpt lat="46.37459" lon="4.45581">
        <ele>441.039</ele>
        <time>2020-09-09T02:54:08Z</time>
      </trkpt>
      <trkpt lat="46.37485" lon="4.4565">
        <ele>440.08</ele>
        <time>2020-09-09T02:54:18Z</time>
      </trkpt>
      <trkpt lat="46.37496" lon="4.45689">
        <ele>436.097</ele>
        <time>2020-09-09T02:54:28Z</time>
      </trkpt>
      <trkpt lat="46.37504" lon="4.45736">
        <ele>436.093</ele>
        <time>2020-09-09T02:54:38Z</time>
      </trkpt>
      <trkpt lat="46.37509" lon="4.45755">
        <ele>433.051</ele>
        <time>2020-09-09T02:54:48Z</time>
      </trkpt>
      <trkpt lat="46.37522" lon="4.458">
        <ele>433.071</ele>
        <time>2020-09-09T02:54:58Z</time>
      </trkpt>
      <trkpt lat="46.37524" lon="4.45811">
        <ele>437.067</ele>
        <time>2020-09-09T02:55:08Z</time>
      </trkpt>
      <trkpt lat="46.37524" lon="4.45849">
        <ele>434.029</ele>
        <time>2020-09-09T02:55:18Z</time>
      </trkpt>
      <trkpt lat="46.37526" lon="4.45882">
        <ele>434.083</ele>
        <time>2020-09-09T02:55:28Z</time>
      </trkpt>
      <trkpt lat="46.3753" lon="4.45903">
        <ele>434.025</ele>
        <time>2020-09-09T02:55:38Z</time>
      </trkpt>
      <trkpt lat="46.37493" lon="4.4597">
        <ele>423.017</ele>
        <time>2020-09-09T02:55:48Z</time>
      </trkpt>
      <trkpt lat="46.37474" lon="4.4599">
        <ele>422.008</ele>
        <time>2020-09-09T02:55:58Z</time>
      </trkpt>
      <trkpt lat="46.37466" lon="4.46002">
        <ele>419.033</ele>
        <time>2020-09-09T02:56:08Z</time>
      </trkpt>
      <trkpt lat="46.37437" lon="4.46103">
        <ele>410.064</ele>
        <time>2020-09-09T02:56:18Z</time>
      </trkpt>
      <trkpt lat="46.37436" lon="4.46122">
        <ele>409.081</ele>
        <time>2020-09-09T02:56:28Z</time>
      </trkpt>
      <trkpt lat="46.37438" lon="4.46142">
        <ele>409.047</ele>
        <time>2020-09-09T02:56:38Z</time>
      </trkpt>
      <trkpt lat="46.37444" lon="4.46155">
        <ele>412.095</ele>
        <time>2020-09-09T02:56:48Z</time>
      </trkpt>
      <trkpt lat="46.37468" lon="4.46192">
        <ele>410.075</ele>
        <time>2020-09-09T02:56:58Z</time>
      </trkpt>
      <trkpt lat="46.3747" lon="4.46198">
        <ele>410.031</ele>
        <time>2020-09-09T02:57:08Z</time>
      </trkpt>
      <trkpt lat="46.37468" lon="4.46218">
        <ele>411.053</ele>
        <time>2020-09-09T02:57:18Z</time>
      </trkpt>
      <trkpt lat="46.37465" lon="4.46225">
        <ele>411.057</ele>
        <time>2020-09-09T02:57:28Z</time>
      </trkpt>
      <trkpt lat="46.37458" lon="4.46236">
        <ele>410</ele>
        <time>2020-09-09T02:57:38Z</time>
      </trkpt>
      <trkpt lat="46.3742" lon="4.46273">
        <ele>405.02</ele>
        <time>2020-09-09T02:57:48Z</time>
      </trkpt>
      <trkpt lat="46.37385" lon="4.46338">
        <ele>406.008</ele>
        <time>2020-09-09T02:57:58Z</time>
      </trkpt>
      <trkpt lat="46.37374" lon="4.46351">
        <ele>406.01</ele>
        <time>2020-09-09T02:58:08Z</time>
      </trkpt>
      <trkpt lat="46.37326" lon="4.46397">
        <ele>401.051</ele>
        <time>2020-09-09T02:58:18Z</time>
      </trkpt>
      <trkpt lat="46.37277" lon="4.46436">
        <ele>401.018</ele>
        <time>2020-09-09T02:58:28Z</time>
      </trkpt>
      <trkpt lat="46.37224" lon="4.46463">
        <ele>395.054</ele>
        <time>2020-09-09T02:58:38Z</time>
      </trkpt>
      <trkpt lat="46.37184" lon="4.46494">
        <ele>393.022</ele>
        <time>2020-09-09T02:58:48Z</time>
      </trkpt>
      <trkpt lat="46.37157" lon="4.46525">
        <ele>392.062</ele>
        <time>2020-09-09T02:58:58Z</time>
      </trkpt>
      <trkpt lat="46.37095" lon="4.46627">
        <ele>390.058</ele>
        <time>2020-09-09T02:59:08Z</time>
      </trkpt>
      <trkpt lat="46.37079" lon="4.46663">
        <ele>390.08</ele>
        <time>2020-09-09T02:59:18Z</time>
      </trkpt>
      <trkpt lat="46.37059" lon="4.46726">
        <ele>390.017</ele>
        <time>2020-09-09T02:59:28Z</time>
      </trkpt>
      <trkpt lat="46.37037" lon="4.46787">
        <ele>389.087</ele>
        <time>2020-09-09T02:59:38Z</time>
      </trkpt>
      <trkpt lat="46.3701" lon="4.4689">
        <ele>385.015</ele>
        <time>2020-09-09T02:59:48Z</time>
      </trkpt>
      <trkpt lat="46.36997" lon="4.46965">
        <ele>384.008</ele>
        <time>2020-09-09T02:59:58Z</time>
      </trkpt>
      <trkpt lat="46.36995" lon="4.46997">
        <ele>382.076</ele>
        <time>2020-09-09T03:00:08Z</time>
      </trkpt>
      <trkpt lat="46.36997" lon="4.47068">
        <ele>382.017</ele>
        <time>2020-09-09T03:00:18Z</time>
      </trkpt>
      <trkpt lat="46.36993" lon="4.47098">
        <ele>380.044</ele>
        <time>2020-09-09T03:00:28Z</time>
      </trkpt>
      <trkpt lat="46.36982" lon="4.47111">
        <ele>379.08</ele>
        <time>2020-09-09T03:00:38Z</time>
      </trkpt>
      <trkpt lat="46.36955" lon="4.47163">
        <ele>379.038</ele>
        <time>2020-09-09T03:00:48Z</time>
      </trkpt>
      <trkpt lat="46.36942" lon="4.47182">
        <ele>380.018</ele>
        <time>2020-09-09T03:00:58Z</time>
      </trkpt>
      <trkpt lat="46.369" lon="4.47265">
        <ele>387.054</ele>
        <time>2020-09-09T03:01:08Z</time>
      </trkpt>
      <trkpt lat="46.36846" lon="4.47353">
        <ele>400.016</ele>
        <time>2020-09-09T03:01:18Z</time>
      </trkpt>
      <trkpt lat="46.36839" lon="4.4736">
        <ele>401.038</ele>
        <time>2020-09-09T03:01:28Z</time>
      </trkpt>
      <trkpt lat="46.36831" lon="4.4736">
        <ele>401.07</ele>
        <time>2020-09-09T03:01:38Z</time>
      </trkpt>
      <trkpt lat="46.36821" lon="4.47356">
        <ele>402.017</ele>
        <time>2020-09-09T03:01:48Z</time>
      </trkpt>
      <trkpt lat="46.36813" lon="4.47351">
        <ele>402.008</ele>
        <time>2020-09-09T03:01:58Z</time>
      </trkpt>
      <trkpt lat="46.36784" lon="4.4732">
        <ele>401.078</ele>
        <time>2020-09-09T03:02:08Z</time>
      </trkpt>
      <trkpt lat="46.36711" lon="4.47239">
        <ele>405.019</ele>
        <time>2020-09-09T03:02:18Z</time>
      </trkpt>
      <trkpt lat="46.36689" lon="4.47227">
        <ele>412.056</ele>
        <time>2020-09-09T03:02:28Z</time>
      </trkpt>
      <trkpt lat="46.36662" lon="4.47225">
        <ele>413.062</ele>
        <time>2020-09-09T03:02:38Z</time>
      </trkpt>
      <trkpt lat="46.36648" lon="4.47226">
        <ele>414.03</ele>
        <time>2020-09-09T03:02:48Z</time>
      </trkpt>
      <trkpt lat="46.36591" lon="4.47247">
        <ele>426.07</ele>
        <time>2020-09-09T03:02:58Z</time>
      </trkpt>
      <trkpt lat="46.36565" lon="4.4726">
        <ele>427.096</ele>
        <time>2020-09-09T03:03:08Z</time>
      </trkpt>
      <trkpt lat="46.36508" lon="4.47312">
        <ele>430.018</ele>
        <time>2020-09-09T03:03:18Z</time>
      </trkpt>
    </trkseg>
  </trk>
</gpx>